<?xml version="1.0" encoding="UTF-8" standalone="no" ?>
<gpx xmlns="http://www.topografix.com/GPX/1/1" xmlns:xsi="http://www.w3.org/2001/XMLSchema-instance" xsi:schemaLocation="http://www.topografix.com/GPX/1/1 http://www.topografix.com/GPX/1/1/gpx.xsd" version="1.1" creator="VisuGPX - https://www.visugpx.com">
  <metadata>
    <name>ST_RAD_21km  600m</name>
    <desc><![CDATA[21km  600m]]></desc>
  </metadata>
  <trk>
    <name><![CDATA[st RA 21km +]]></name>
    <trkseg>
      <trkpt lat="44.33575" lon="2.62944">
        <ele>657.6791992</ele>
        <time>2014-03-01T07:38:35Z</time>
      </trkpt>
      <trkpt lat="44.33573" lon="2.62945">
        <ele>658.1599121</ele>
        <time>2014-03-01T07:38:38Z</time>
      </trkpt>
      <trkpt lat="44.33565" lon="2.62947">
        <ele>656.2370605</ele>
        <time>2014-03-01T07:38:44Z</time>
      </trkpt>
      <trkpt lat="44.33567" lon="2.62939">
        <ele>652.8725586</ele>
        <time>2014-03-01T07:39:08Z</time>
      </trkpt>
      <trkpt lat="44.33564" lon="2.6294">
        <ele>652.3918457</ele>
        <time>2014-03-01T07:39:20Z</time>
      </trkpt>
      <trkpt lat="44.33563" lon="2.62945">
        <ele>651.9111328</ele>
        <time>2014-03-01T07:39:23Z</time>
      </trkpt>
      <trkpt lat="44.33561" lon="2.62957">
        <ele>653.3532715</ele>
        <time>2014-03-01T07:39:26Z</time>
      </trkpt>
      <trkpt lat="44.33565" lon="2.62979">
        <ele>652.3918457</ele>
        <time>2014-03-01T07:39:31Z</time>
      </trkpt>
      <trkpt lat="44.33566" lon="2.62988">
        <ele>652.3918457</ele>
        <time>2014-03-01T07:39:33Z</time>
      </trkpt>
      <trkpt lat="44.33565" lon="2.63012">
        <ele>652.8725586</ele>
        <time>2014-03-01T07:39:38Z</time>
      </trkpt>
      <trkpt lat="44.33565" lon="2.63019">
        <ele>651.9111328</ele>
        <time>2014-03-01T07:39:40Z</time>
      </trkpt>
      <trkpt lat="44.33567" lon="2.63042">
        <ele>649.0270996</ele>
        <time>2014-03-01T07:39:46Z</time>
      </trkpt>
      <trkpt lat="44.33567" lon="2.63045">
        <ele>648.5463867</ele>
        <time>2014-03-01T07:39:47Z</time>
      </trkpt>
      <trkpt lat="44.33559" lon="2.63053">
        <ele>644.7011719</ele>
        <time>2014-03-01T07:39:52Z</time>
      </trkpt>
      <trkpt lat="44.33559" lon="2.63059">
        <ele>643.2592773</ele>
        <time>2014-03-01T07:39:54Z</time>
      </trkpt>
      <trkpt lat="44.33557" lon="2.63086">
        <ele>639.8947754</ele>
        <time>2014-03-01T07:40:01Z</time>
      </trkpt>
      <trkpt lat="44.33555" lon="2.631">
        <ele>638.9335938</ele>
        <time>2014-03-01T07:40:05Z</time>
      </trkpt>
      <trkpt lat="44.3355" lon="2.63119">
        <ele>637.4914551</ele>
        <time>2014-03-01T07:40:09Z</time>
      </trkpt>
      <trkpt lat="44.33544" lon="2.6314">
        <ele>636.5302734</ele>
        <time>2014-03-01T07:40:14Z</time>
      </trkpt>
      <trkpt lat="44.33538" lon="2.63151">
        <ele>637.4914551</ele>
        <time>2014-03-01T07:40:18Z</time>
      </trkpt>
      <trkpt lat="44.33531" lon="2.63168">
        <ele>637.972168</ele>
        <time>2014-03-01T07:40:23Z</time>
      </trkpt>
      <trkpt lat="44.33526" lon="2.63181">
        <ele>640.3754883</ele>
        <time>2014-03-01T07:40:27Z</time>
      </trkpt>
      <trkpt lat="44.33523" lon="2.6319">
        <ele>642.7788086</ele>
        <time>2014-03-01T07:40:31Z</time>
      </trkpt>
      <trkpt lat="44.33519" lon="2.63212">
        <ele>642.2980957</ele>
        <time>2014-03-01T07:40:37Z</time>
      </trkpt>
      <trkpt lat="44.33515" lon="2.63235">
        <ele>642.2980957</ele>
        <time>2014-03-01T07:40:42Z</time>
      </trkpt>
      <trkpt lat="44.33511" lon="2.63251">
        <ele>641.8173828</ele>
        <time>2014-03-01T07:40:47Z</time>
      </trkpt>
      <trkpt lat="44.33505" lon="2.63271">
        <ele>639.8947754</ele>
        <time>2014-03-01T07:40:52Z</time>
      </trkpt>
      <trkpt lat="44.335" lon="2.63286">
        <ele>638.9335938</ele>
        <time>2014-03-01T07:40:56Z</time>
      </trkpt>
      <trkpt lat="44.33496" lon="2.63303">
        <ele>637.972168</ele>
        <time>2014-03-01T07:41:00Z</time>
      </trkpt>
      <trkpt lat="44.33492" lon="2.63317">
        <ele>637.4914551</ele>
        <time>2014-03-01T07:41:04Z</time>
      </trkpt>
      <trkpt lat="44.33488" lon="2.63338">
        <ele>637.4914551</ele>
        <time>2014-03-01T07:41:09Z</time>
      </trkpt>
      <trkpt lat="44.33483" lon="2.6336">
        <ele>637.4914551</ele>
        <time>2014-03-01T07:41:14Z</time>
      </trkpt>
      <trkpt lat="44.3348" lon="2.63379">
        <ele>637.0107422</ele>
        <time>2014-03-01T07:41:19Z</time>
      </trkpt>
      <trkpt lat="44.33476" lon="2.634">
        <ele>637.4914551</ele>
        <time>2014-03-01T07:41:24Z</time>
      </trkpt>
      <trkpt lat="44.33476" lon="2.63415">
        <ele>636.0495605</ele>
        <time>2014-03-01T07:41:29Z</time>
      </trkpt>
      <trkpt lat="44.33474" lon="2.63431">
        <ele>634.126709</ele>
        <time>2014-03-01T07:41:34Z</time>
      </trkpt>
      <trkpt lat="44.33474" lon="2.63443">
        <ele>633.1652832</ele>
        <time>2014-03-01T07:41:38Z</time>
      </trkpt>
      <trkpt lat="44.3347" lon="2.63457">
        <ele>632.6848145</ele>
        <time>2014-03-01T07:41:42Z</time>
      </trkpt>
      <trkpt lat="44.33467" lon="2.63469">
        <ele>632.6848145</ele>
        <time>2014-03-01T07:41:46Z</time>
      </trkpt>
      <trkpt lat="44.33462" lon="2.63486">
        <ele>632.6848145</ele>
        <time>2014-03-01T07:41:51Z</time>
      </trkpt>
      <trkpt lat="44.33456" lon="2.63505">
        <ele>633.6459961</ele>
        <time>2014-03-01T07:41:56Z</time>
      </trkpt>
      <trkpt lat="44.3345" lon="2.63526">
        <ele>632.6848145</ele>
        <time>2014-03-01T07:42:02Z</time>
      </trkpt>
      <trkpt lat="44.33448" lon="2.63544">
        <ele>631.7233887</ele>
        <time>2014-03-01T07:42:06Z</time>
      </trkpt>
      <trkpt lat="44.33445" lon="2.63569">
        <ele>631.7233887</ele>
        <time>2014-03-01T07:42:12Z</time>
      </trkpt>
      <trkpt lat="44.33441" lon="2.63582">
        <ele>631.2429199</ele>
        <time>2014-03-01T07:42:16Z</time>
      </trkpt>
      <trkpt lat="44.33431" lon="2.63594">
        <ele>631.7233887</ele>
        <time>2014-03-01T07:42:22Z</time>
      </trkpt>
      <trkpt lat="44.33422" lon="2.63602">
        <ele>631.2429199</ele>
        <time>2014-03-01T07:42:26Z</time>
      </trkpt>
      <trkpt lat="44.33413" lon="2.63614">
        <ele>631.7233887</ele>
        <time>2014-03-01T07:42:31Z</time>
      </trkpt>
      <trkpt lat="44.33402" lon="2.63629">
        <ele>635.0881348</ele>
        <time>2014-03-01T07:42:37Z</time>
      </trkpt>
      <trkpt lat="44.33395" lon="2.63638">
        <ele>637.0107422</ele>
        <time>2014-03-01T07:42:42Z</time>
      </trkpt>
      <trkpt lat="44.33389" lon="2.63649">
        <ele>639.4140625</ele>
        <time>2014-03-01T07:42:47Z</time>
      </trkpt>
      <trkpt lat="44.33382" lon="2.63659">
        <ele>641.8173828</ele>
        <time>2014-03-01T07:42:52Z</time>
      </trkpt>
      <trkpt lat="44.33377" lon="2.63669">
        <ele>644.2207031</ele>
        <time>2014-03-01T07:42:57Z</time>
      </trkpt>
      <trkpt lat="44.33371" lon="2.63679">
        <ele>646.6240234</ele>
        <time>2014-03-01T07:43:01Z</time>
      </trkpt>
      <trkpt lat="44.33362" lon="2.63693">
        <ele>648.065918</ele>
        <time>2014-03-01T07:43:07Z</time>
      </trkpt>
      <trkpt lat="44.33356" lon="2.63709">
        <ele>649.5078125</ele>
        <time>2014-03-01T07:43:13Z</time>
      </trkpt>
      <trkpt lat="44.33351" lon="2.63726">
        <ele>651.4304199</ele>
        <time>2014-03-01T07:43:19Z</time>
      </trkpt>
      <trkpt lat="44.3335" lon="2.63735">
        <ele>651.9111328</ele>
        <time>2014-03-01T07:43:22Z</time>
      </trkpt>
      <trkpt lat="44.33344" lon="2.63759">
        <ele>653.3532715</ele>
        <time>2014-03-01T07:43:30Z</time>
      </trkpt>
      <trkpt lat="44.33339" lon="2.63772">
        <ele>653.8339844</ele>
        <time>2014-03-01T07:43:35Z</time>
      </trkpt>
      <trkpt lat="44.33335" lon="2.6379">
        <ele>654.795166</ele>
        <time>2014-03-01T07:43:41Z</time>
      </trkpt>
      <trkpt lat="44.3333" lon="2.63809">
        <ele>654.795166</ele>
        <time>2014-03-01T07:43:48Z</time>
      </trkpt>
      <trkpt lat="44.33324" lon="2.63824">
        <ele>654.795166</ele>
        <time>2014-03-01T07:43:54Z</time>
      </trkpt>
      <trkpt lat="44.3332" lon="2.6384">
        <ele>655.7565918</ele>
        <time>2014-03-01T07:43:59Z</time>
      </trkpt>
      <trkpt lat="44.33317" lon="2.63857">
        <ele>655.7565918</ele>
        <time>2014-03-01T07:44:05Z</time>
      </trkpt>
      <trkpt lat="44.33313" lon="2.6387">
        <ele>656.7177734</ele>
        <time>2014-03-01T07:44:10Z</time>
      </trkpt>
      <trkpt lat="44.3331" lon="2.63883">
        <ele>657.6791992</ele>
        <time>2014-03-01T07:44:15Z</time>
      </trkpt>
      <trkpt lat="44.33306" lon="2.63901">
        <ele>659.6018066</ele>
        <time>2014-03-01T07:44:20Z</time>
      </trkpt>
      <trkpt lat="44.33302" lon="2.63916">
        <ele>660.0822754</ele>
        <time>2014-03-01T07:44:24Z</time>
      </trkpt>
      <trkpt lat="44.333" lon="2.6393">
        <ele>660.0822754</ele>
        <time>2014-03-01T07:44:28Z</time>
      </trkpt>
      <trkpt lat="44.33297" lon="2.63949">
        <ele>662.4855957</ele>
        <time>2014-03-01T07:44:33Z</time>
      </trkpt>
      <trkpt lat="44.33295" lon="2.63968">
        <ele>663.9274902</ele>
        <time>2014-03-01T07:44:38Z</time>
      </trkpt>
      <trkpt lat="44.33293" lon="2.63986">
        <ele>664.4082031</ele>
        <time>2014-03-01T07:44:43Z</time>
      </trkpt>
      <trkpt lat="44.33289" lon="2.64004">
        <ele>665.8503418</ele>
        <time>2014-03-01T07:44:48Z</time>
      </trkpt>
      <trkpt lat="44.33285" lon="2.64022">
        <ele>667.2922363</ele>
        <time>2014-03-01T07:44:53Z</time>
      </trkpt>
      <trkpt lat="44.33281" lon="2.64035">
        <ele>667.7727051</ele>
        <time>2014-03-01T07:44:57Z</time>
      </trkpt>
      <trkpt lat="44.33278" lon="2.64049">
        <ele>666.8115234</ele>
        <time>2014-03-01T07:45:01Z</time>
      </trkpt>
      <trkpt lat="44.33275" lon="2.64063">
        <ele>667.2922363</ele>
        <time>2014-03-01T07:45:05Z</time>
      </trkpt>
      <trkpt lat="44.33273" lon="2.64082">
        <ele>668.2536621</ele>
        <time>2014-03-01T07:45:10Z</time>
      </trkpt>
      <trkpt lat="44.33268" lon="2.64103">
        <ele>669.6958008</ele>
        <time>2014-03-01T07:45:15Z</time>
      </trkpt>
      <trkpt lat="44.33266" lon="2.64115">
        <ele>670.1762695</ele>
        <time>2014-03-01T07:45:18Z</time>
      </trkpt>
      <trkpt lat="44.33264" lon="2.64128">
        <ele>671.1376953</ele>
        <time>2014-03-01T07:45:22Z</time>
      </trkpt>
      <trkpt lat="44.33262" lon="2.6415">
        <ele>671.6181641</ele>
        <time>2014-03-01T07:45:28Z</time>
      </trkpt>
      <trkpt lat="44.33259" lon="2.64166">
        <ele>671.1376953</ele>
        <time>2014-03-01T07:45:33Z</time>
      </trkpt>
      <trkpt lat="44.33256" lon="2.64186">
        <ele>670.1762695</ele>
        <time>2014-03-01T07:45:39Z</time>
      </trkpt>
      <trkpt lat="44.3325" lon="2.64202">
        <ele>671.1376953</ele>
        <time>2014-03-01T07:45:44Z</time>
      </trkpt>
      <trkpt lat="44.33243" lon="2.64222">
        <ele>673.0603027</ele>
        <time>2014-03-01T07:45:50Z</time>
      </trkpt>
      <trkpt lat="44.33236" lon="2.64239">
        <ele>675.4633789</ele>
        <time>2014-03-01T07:45:55Z</time>
      </trkpt>
      <trkpt lat="44.33228" lon="2.64262">
        <ele>676.9055176</ele>
        <time>2014-03-01T07:46:02Z</time>
      </trkpt>
      <trkpt lat="44.33221" lon="2.64281">
        <ele>677.3862305</ele>
        <time>2014-03-01T07:46:08Z</time>
      </trkpt>
      <trkpt lat="44.33213" lon="2.643">
        <ele>679.3085938</ele>
        <time>2014-03-01T07:46:14Z</time>
      </trkpt>
      <trkpt lat="44.33208" lon="2.64314">
        <ele>679.3085938</ele>
        <time>2014-03-01T07:46:18Z</time>
      </trkpt>
      <trkpt lat="44.33198" lon="2.64337">
        <ele>680.2700195</ele>
        <time>2014-03-01T07:46:24Z</time>
      </trkpt>
      <trkpt lat="44.33192" lon="2.64355">
        <ele>682.192627</ele>
        <time>2014-03-01T07:46:29Z</time>
      </trkpt>
      <trkpt lat="44.33185" lon="2.64376">
        <ele>683.1538086</ele>
        <time>2014-03-01T07:46:35Z</time>
      </trkpt>
      <trkpt lat="44.33179" lon="2.64393">
        <ele>684.1154785</ele>
        <time>2014-03-01T07:46:40Z</time>
      </trkpt>
      <trkpt lat="44.33172" lon="2.64412">
        <ele>685.0769043</ele>
        <time>2014-03-01T07:46:45Z</time>
      </trkpt>
      <trkpt lat="44.33166" lon="2.64434">
        <ele>685.0769043</ele>
        <time>2014-03-01T07:46:51Z</time>
      </trkpt>
      <trkpt lat="44.33161" lon="2.64454">
        <ele>684.5961914</ele>
        <time>2014-03-01T07:46:56Z</time>
      </trkpt>
      <trkpt lat="44.33156" lon="2.64474">
        <ele>684.1154785</ele>
        <time>2014-03-01T07:47:01Z</time>
      </trkpt>
      <trkpt lat="44.33151" lon="2.64484">
        <ele>683.6345215</ele>
        <time>2014-03-01T07:47:04Z</time>
      </trkpt>
      <trkpt lat="44.33144" lon="2.64498">
        <ele>683.6345215</ele>
        <time>2014-03-01T07:47:08Z</time>
      </trkpt>
      <trkpt lat="44.33138" lon="2.64514">
        <ele>683.6345215</ele>
        <time>2014-03-01T07:47:13Z</time>
      </trkpt>
      <trkpt lat="44.33132" lon="2.64528">
        <ele>684.1154785</ele>
        <time>2014-03-01T07:47:17Z</time>
      </trkpt>
      <trkpt lat="44.33126" lon="2.64545">
        <ele>682.192627</ele>
        <time>2014-03-01T07:47:22Z</time>
      </trkpt>
      <trkpt lat="44.33121" lon="2.64559">
        <ele>682.192627</ele>
        <time>2014-03-01T07:47:26Z</time>
      </trkpt>
      <trkpt lat="44.33112" lon="2.6458">
        <ele>682.6733398</ele>
        <time>2014-03-01T07:47:32Z</time>
      </trkpt>
      <trkpt lat="44.33105" lon="2.64595">
        <ele>682.192627</ele>
        <time>2014-03-01T07:47:37Z</time>
      </trkpt>
      <trkpt lat="44.33102" lon="2.6461">
        <ele>682.192627</ele>
        <time>2014-03-01T07:47:41Z</time>
      </trkpt>
      <trkpt lat="44.33101" lon="2.64622">
        <ele>682.192627</ele>
        <time>2014-03-01T07:47:44Z</time>
      </trkpt>
      <trkpt lat="44.33098" lon="2.64644">
        <ele>681.7119141</ele>
        <time>2014-03-01T07:47:49Z</time>
      </trkpt>
      <trkpt lat="44.33094" lon="2.64665">
        <ele>678.828125</ele>
        <time>2014-03-01T07:47:55Z</time>
      </trkpt>
      <trkpt lat="44.33092" lon="2.64683">
        <ele>678.3474121</ele>
        <time>2014-03-01T07:48:00Z</time>
      </trkpt>
      <trkpt lat="44.33088" lon="2.64705">
        <ele>676.9055176</ele>
        <time>2014-03-01T07:48:06Z</time>
      </trkpt>
      <trkpt lat="44.33081" lon="2.64726">
        <ele>675.4633789</ele>
        <time>2014-03-01T07:48:12Z</time>
      </trkpt>
      <trkpt lat="44.33076" lon="2.64747">
        <ele>672.5795898</ele>
        <time>2014-03-01T07:48:17Z</time>
      </trkpt>
      <trkpt lat="44.33071" lon="2.64766">
        <ele>670.1762695</ele>
        <time>2014-03-01T07:48:22Z</time>
      </trkpt>
      <trkpt lat="44.33071" lon="2.64788">
        <ele>667.7727051</ele>
        <time>2014-03-01T07:48:28Z</time>
      </trkpt>
      <trkpt lat="44.3307" lon="2.64806">
        <ele>665.8503418</ele>
        <time>2014-03-01T07:48:33Z</time>
      </trkpt>
      <trkpt lat="44.33067" lon="2.6483">
        <ele>664.4082031</ele>
        <time>2014-03-01T07:48:39Z</time>
      </trkpt>
      <trkpt lat="44.33063" lon="2.64845">
        <ele>663.4470215</ele>
        <time>2014-03-01T07:48:43Z</time>
      </trkpt>
      <trkpt lat="44.33053" lon="2.64853">
        <ele>661.5244141</ele>
        <time>2014-03-01T07:48:47Z</time>
      </trkpt>
      <trkpt lat="44.33035" lon="2.6485">
        <ele>659.6018066</ele>
        <time>2014-03-01T07:48:53Z</time>
      </trkpt>
      <trkpt lat="44.33021" lon="2.64847">
        <ele>660.0822754</ele>
        <time>2014-03-01T07:48:58Z</time>
      </trkpt>
      <trkpt lat="44.33007" lon="2.64844">
        <ele>660.0822754</ele>
        <time>2014-03-01T07:49:03Z</time>
      </trkpt>
      <trkpt lat="44.32994" lon="2.64839">
        <ele>660.0822754</ele>
        <time>2014-03-01T07:49:08Z</time>
      </trkpt>
      <trkpt lat="44.3298" lon="2.64835">
        <ele>659.6018066</ele>
        <time>2014-03-01T07:49:13Z</time>
      </trkpt>
      <trkpt lat="44.32963" lon="2.64833">
        <ele>661.0437012</ele>
        <time>2014-03-01T07:49:19Z</time>
      </trkpt>
      <trkpt lat="44.32949" lon="2.6483">
        <ele>661.5244141</ele>
        <time>2014-03-01T07:49:24Z</time>
      </trkpt>
      <trkpt lat="44.32935" lon="2.64828">
        <ele>662.005127</ele>
        <time>2014-03-01T07:49:29Z</time>
      </trkpt>
      <trkpt lat="44.32916" lon="2.64823">
        <ele>661.5244141</ele>
        <time>2014-03-01T07:49:36Z</time>
      </trkpt>
      <trkpt lat="44.32898" lon="2.64818">
        <ele>660.5629883</ele>
        <time>2014-03-01T07:49:42Z</time>
      </trkpt>
      <trkpt lat="44.32882" lon="2.64814">
        <ele>660.5629883</ele>
        <time>2014-03-01T07:49:47Z</time>
      </trkpt>
      <trkpt lat="44.32861" lon="2.64812">
        <ele>660.0822754</ele>
        <time>2014-03-01T07:49:54Z</time>
      </trkpt>
      <trkpt lat="44.32844" lon="2.64809">
        <ele>659.1210938</ele>
        <time>2014-03-01T07:50:00Z</time>
      </trkpt>
      <trkpt lat="44.32832" lon="2.64809">
        <ele>658.6403809</ele>
        <time>2014-03-01T07:50:04Z</time>
      </trkpt>
      <trkpt lat="44.32818" lon="2.64807">
        <ele>657.6791992</ele>
        <time>2014-03-01T07:50:09Z</time>
      </trkpt>
      <trkpt lat="44.32804" lon="2.64801">
        <ele>657.1984863</ele>
        <time>2014-03-01T07:50:14Z</time>
      </trkpt>
      <trkpt lat="44.32785" lon="2.64796">
        <ele>655.2758789</ele>
        <time>2014-03-01T07:50:20Z</time>
      </trkpt>
      <trkpt lat="44.32771" lon="2.64794">
        <ele>652.8725586</ele>
        <time>2014-03-01T07:50:25Z</time>
      </trkpt>
      <trkpt lat="44.32768" lon="2.64792">
        <ele>652.3918457</ele>
        <time>2014-03-01T07:50:26Z</time>
      </trkpt>
      <trkpt lat="44.32752" lon="2.6479">
        <ele>650.4692383</ele>
        <time>2014-03-01T07:50:32Z</time>
      </trkpt>
      <trkpt lat="44.32732" lon="2.64785">
        <ele>647.1044922</ele>
        <time>2014-03-01T07:50:39Z</time>
      </trkpt>
      <trkpt lat="44.32721" lon="2.6479">
        <ele>645.6625977</ele>
        <time>2014-03-01T07:50:43Z</time>
      </trkpt>
      <trkpt lat="44.32709" lon="2.64786">
        <ele>645.6625977</ele>
        <time>2014-03-01T07:50:48Z</time>
      </trkpt>
      <trkpt lat="44.32698" lon="2.64781">
        <ele>643.7399902</ele>
        <time>2014-03-01T07:50:53Z</time>
      </trkpt>
      <trkpt lat="44.32689" lon="2.64783">
        <ele>643.2592773</ele>
        <time>2014-03-01T07:50:57Z</time>
      </trkpt>
      <trkpt lat="44.32684" lon="2.64783">
        <ele>643.2592773</ele>
        <time>2014-03-01T07:50:59Z</time>
      </trkpt>
      <trkpt lat="44.3267" lon="2.64783">
        <ele>643.7399902</ele>
        <time>2014-03-01T07:51:05Z</time>
      </trkpt>
      <trkpt lat="44.3266" lon="2.64784">
        <ele>643.7399902</ele>
        <time>2014-03-01T07:51:09Z</time>
      </trkpt>
      <trkpt lat="44.32647" lon="2.64785">
        <ele>642.7788086</ele>
        <time>2014-03-01T07:51:14Z</time>
      </trkpt>
      <trkpt lat="44.32637" lon="2.64788">
        <ele>642.7788086</ele>
        <time>2014-03-01T07:51:18Z</time>
      </trkpt>
      <trkpt lat="44.32623" lon="2.64795">
        <ele>644.2207031</ele>
        <time>2014-03-01T07:51:24Z</time>
      </trkpt>
      <trkpt lat="44.32609" lon="2.64802">
        <ele>646.1433105</ele>
        <time>2014-03-01T07:51:30Z</time>
      </trkpt>
      <trkpt lat="44.32601" lon="2.64804">
        <ele>646.1433105</ele>
        <time>2014-03-01T07:51:33Z</time>
      </trkpt>
      <trkpt lat="44.32588" lon="2.64801">
        <ele>646.1433105</ele>
        <time>2014-03-01T07:51:39Z</time>
      </trkpt>
      <trkpt lat="44.32575" lon="2.64804">
        <ele>647.5852051</ele>
        <time>2014-03-01T07:51:44Z</time>
      </trkpt>
      <trkpt lat="44.32573" lon="2.64803">
        <ele>648.065918</ele>
        <time>2014-03-01T07:51:45Z</time>
      </trkpt>
      <trkpt lat="44.32563" lon="2.64803">
        <ele>649.0270996</ele>
        <time>2014-03-01T07:51:49Z</time>
      </trkpt>
      <trkpt lat="44.32546" lon="2.64804">
        <ele>650.4692383</ele>
        <time>2014-03-01T07:51:56Z</time>
      </trkpt>
      <trkpt lat="44.32533" lon="2.64803">
        <ele>652.3918457</ele>
        <time>2014-03-01T07:52:01Z</time>
      </trkpt>
      <trkpt lat="44.32521" lon="2.64802">
        <ele>653.3532715</ele>
        <time>2014-03-01T07:52:06Z</time>
      </trkpt>
      <trkpt lat="44.32509" lon="2.648">
        <ele>655.7565918</ele>
        <time>2014-03-01T07:52:11Z</time>
      </trkpt>
      <trkpt lat="44.32497" lon="2.64797">
        <ele>657.1984863</ele>
        <time>2014-03-01T07:52:16Z</time>
      </trkpt>
      <trkpt lat="44.32484" lon="2.64795">
        <ele>657.6791992</ele>
        <time>2014-03-01T07:52:21Z</time>
      </trkpt>
      <trkpt lat="44.32475" lon="2.64791">
        <ele>658.6403809</ele>
        <time>2014-03-01T07:52:25Z</time>
      </trkpt>
      <trkpt lat="44.32463" lon="2.64785">
        <ele>660.0822754</ele>
        <time>2014-03-01T07:52:30Z</time>
      </trkpt>
      <trkpt lat="44.32454" lon="2.64781">
        <ele>660.5629883</ele>
        <time>2014-03-01T07:52:34Z</time>
      </trkpt>
      <trkpt lat="44.32446" lon="2.64778">
        <ele>661.0437012</ele>
        <time>2014-03-01T07:52:38Z</time>
      </trkpt>
      <trkpt lat="44.32437" lon="2.64774">
        <ele>662.9663086</ele>
        <time>2014-03-01T07:52:42Z</time>
      </trkpt>
      <trkpt lat="44.32423" lon="2.64768">
        <ele>665.3696289</ele>
        <time>2014-03-01T07:52:48Z</time>
      </trkpt>
      <trkpt lat="44.32411" lon="2.64762">
        <ele>666.3308105</ele>
        <time>2014-03-01T07:52:53Z</time>
      </trkpt>
      <trkpt lat="44.32399" lon="2.64756">
        <ele>667.2922363</ele>
        <time>2014-03-01T07:52:58Z</time>
      </trkpt>
      <trkpt lat="44.32385" lon="2.64752">
        <ele>668.2536621</ele>
        <time>2014-03-01T07:53:03Z</time>
      </trkpt>
      <trkpt lat="44.32369" lon="2.64752">
        <ele>670.1762695</ele>
        <time>2014-03-01T07:53:09Z</time>
      </trkpt>
      <trkpt lat="44.32354" lon="2.64754">
        <ele>670.6569824</ele>
        <time>2014-03-01T07:53:15Z</time>
      </trkpt>
      <trkpt lat="44.32342" lon="2.64761">
        <ele>672.098877</ele>
        <time>2014-03-01T07:53:20Z</time>
      </trkpt>
      <trkpt lat="44.32332" lon="2.64772">
        <ele>672.5795898</ele>
        <time>2014-03-01T07:53:25Z</time>
      </trkpt>
      <trkpt lat="44.32321" lon="2.64793">
        <ele>674.5021973</ele>
        <time>2014-03-01T07:53:32Z</time>
      </trkpt>
      <trkpt lat="44.32313" lon="2.6481">
        <ele>675.9440918</ele>
        <time>2014-03-01T07:53:38Z</time>
      </trkpt>
      <trkpt lat="44.32306" lon="2.64821">
        <ele>676.4248047</ele>
        <time>2014-03-01T07:53:42Z</time>
      </trkpt>
      <trkpt lat="44.323" lon="2.64828">
        <ele>677.8666992</ele>
        <time>2014-03-01T07:53:45Z</time>
      </trkpt>
      <trkpt lat="44.32291" lon="2.64817">
        <ele>678.828125</ele>
        <time>2014-03-01T07:53:50Z</time>
      </trkpt>
      <trkpt lat="44.32289" lon="2.64814">
        <ele>679.3085938</ele>
        <time>2014-03-01T07:53:51Z</time>
      </trkpt>
      <trkpt lat="44.3228" lon="2.64794">
        <ele>680.2700195</ele>
        <time>2014-03-01T07:53:57Z</time>
      </trkpt>
      <trkpt lat="44.32274" lon="2.64777">
        <ele>680.2700195</ele>
        <time>2014-03-01T07:54:02Z</time>
      </trkpt>
      <trkpt lat="44.3227" lon="2.64755">
        <ele>679.7893066</ele>
        <time>2014-03-01T07:54:08Z</time>
      </trkpt>
      <trkpt lat="44.32267" lon="2.64735">
        <ele>678.828125</ele>
        <time>2014-03-01T07:54:14Z</time>
      </trkpt>
      <trkpt lat="44.32261" lon="2.64716">
        <ele>678.828125</ele>
        <time>2014-03-01T07:54:20Z</time>
      </trkpt>
      <trkpt lat="44.32252" lon="2.64699">
        <ele>679.7893066</ele>
        <time>2014-03-01T07:54:26Z</time>
      </trkpt>
      <trkpt lat="44.32241" lon="2.64686">
        <ele>680.7507324</ele>
        <time>2014-03-01T07:54:32Z</time>
      </trkpt>
      <trkpt lat="44.32231" lon="2.64677">
        <ele>682.192627</ele>
        <time>2014-03-01T07:54:37Z</time>
      </trkpt>
      <trkpt lat="44.32218" lon="2.6467">
        <ele>683.6345215</ele>
        <time>2014-03-01T07:54:43Z</time>
      </trkpt>
      <trkpt lat="44.32207" lon="2.64663">
        <ele>684.1154785</ele>
        <time>2014-03-01T07:54:48Z</time>
      </trkpt>
      <trkpt lat="44.32194" lon="2.64659">
        <ele>685.0769043</ele>
        <time>2014-03-01T07:54:54Z</time>
      </trkpt>
      <trkpt lat="44.32183" lon="2.64658">
        <ele>686.0380859</ele>
        <time>2014-03-01T07:54:59Z</time>
      </trkpt>
      <trkpt lat="44.32169" lon="2.64656">
        <ele>686.9992676</ele>
        <time>2014-03-01T07:55:05Z</time>
      </trkpt>
      <trkpt lat="44.32154" lon="2.64654">
        <ele>686.9992676</ele>
        <time>2014-03-01T07:55:11Z</time>
      </trkpt>
      <trkpt lat="44.3214" lon="2.6465">
        <ele>687.4799805</ele>
        <time>2014-03-01T07:55:17Z</time>
      </trkpt>
      <trkpt lat="44.32126" lon="2.64648">
        <ele>687.4799805</ele>
        <time>2014-03-01T07:55:22Z</time>
      </trkpt>
      <trkpt lat="44.32113" lon="2.64645">
        <ele>686.9992676</ele>
        <time>2014-03-01T07:55:27Z</time>
      </trkpt>
      <trkpt lat="44.32097" lon="2.64642">
        <ele>686.0380859</ele>
        <time>2014-03-01T07:55:33Z</time>
      </trkpt>
      <trkpt lat="44.32083" lon="2.64641">
        <ele>685.557373</ele>
        <time>2014-03-01T07:55:38Z</time>
      </trkpt>
      <trkpt lat="44.32068" lon="2.64635">
        <ele>683.6345215</ele>
        <time>2014-03-01T07:55:44Z</time>
      </trkpt>
      <trkpt lat="44.32051" lon="2.64632">
        <ele>682.192627</ele>
        <time>2014-03-01T07:55:50Z</time>
      </trkpt>
      <trkpt lat="44.32038" lon="2.64628">
        <ele>679.7893066</ele>
        <time>2014-03-01T07:55:55Z</time>
      </trkpt>
      <trkpt lat="44.32022" lon="2.64626">
        <ele>677.3862305</ele>
        <time>2014-03-01T07:56:01Z</time>
      </trkpt>
      <trkpt lat="44.32008" lon="2.64626">
        <ele>675.9440918</ele>
        <time>2014-03-01T07:56:06Z</time>
      </trkpt>
      <trkpt lat="44.32005" lon="2.64626">
        <ele>675.9440918</ele>
        <time>2014-03-01T07:56:07Z</time>
      </trkpt>
      <trkpt lat="44.31986" lon="2.64621">
        <ele>673.5410156</ele>
        <time>2014-03-01T07:56:14Z</time>
      </trkpt>
      <trkpt lat="44.3197" lon="2.64617">
        <ele>671.1376953</ele>
        <time>2014-03-01T07:56:20Z</time>
      </trkpt>
      <trkpt lat="44.31952" lon="2.64614">
        <ele>670.1762695</ele>
        <time>2014-03-01T07:56:26Z</time>
      </trkpt>
      <trkpt lat="44.31936" lon="2.64612">
        <ele>669.2150879</ele>
        <time>2014-03-01T07:56:32Z</time>
      </trkpt>
      <trkpt lat="44.31924" lon="2.64614">
        <ele>668.2536621</ele>
        <time>2014-03-01T07:56:36Z</time>
      </trkpt>
      <trkpt lat="44.31911" lon="2.64617">
        <ele>667.2922363</ele>
        <time>2014-03-01T07:56:41Z</time>
      </trkpt>
      <trkpt lat="44.31897" lon="2.6462">
        <ele>666.3308105</ele>
        <time>2014-03-01T07:56:46Z</time>
      </trkpt>
      <trkpt lat="44.31885" lon="2.64622">
        <ele>665.3696289</ele>
        <time>2014-03-01T07:56:50Z</time>
      </trkpt>
      <trkpt lat="44.31874" lon="2.64621">
        <ele>663.9274902</ele>
        <time>2014-03-01T07:56:54Z</time>
      </trkpt>
      <trkpt lat="44.3186" lon="2.64615">
        <ele>663.4470215</ele>
        <time>2014-03-01T07:56:59Z</time>
      </trkpt>
      <trkpt lat="44.3185" lon="2.64601">
        <ele>663.9274902</ele>
        <time>2014-03-01T07:57:04Z</time>
      </trkpt>
      <trkpt lat="44.31841" lon="2.64586">
        <ele>664.888916</ele>
        <time>2014-03-01T07:57:09Z</time>
      </trkpt>
      <trkpt lat="44.31831" lon="2.64571">
        <ele>664.888916</ele>
        <time>2014-03-01T07:57:14Z</time>
      </trkpt>
      <trkpt lat="44.3182" lon="2.64557">
        <ele>664.4082031</ele>
        <time>2014-03-01T07:57:19Z</time>
      </trkpt>
      <trkpt lat="44.31806" lon="2.64544">
        <ele>664.4082031</ele>
        <time>2014-03-01T07:57:25Z</time>
      </trkpt>
      <trkpt lat="44.31789" lon="2.64531">
        <ele>663.4470215</ele>
        <time>2014-03-01T07:57:32Z</time>
      </trkpt>
      <trkpt lat="44.31775" lon="2.64526">
        <ele>662.4855957</ele>
        <time>2014-03-01T07:57:37Z</time>
      </trkpt>
      <trkpt lat="44.31762" lon="2.64522">
        <ele>661.5244141</ele>
        <time>2014-03-01T07:57:42Z</time>
      </trkpt>
      <trkpt lat="44.3175" lon="2.64519">
        <ele>659.6018066</ele>
        <time>2014-03-01T07:57:47Z</time>
      </trkpt>
      <trkpt lat="44.31738" lon="2.64519">
        <ele>658.1599121</ele>
        <time>2014-03-01T07:57:51Z</time>
      </trkpt>
      <trkpt lat="44.31723" lon="2.64517">
        <ele>656.2370605</ele>
        <time>2014-03-01T07:57:56Z</time>
      </trkpt>
      <trkpt lat="44.31709" lon="2.64517">
        <ele>654.795166</ele>
        <time>2014-03-01T07:58:01Z</time>
      </trkpt>
      <trkpt lat="44.31692" lon="2.64515">
        <ele>653.3532715</ele>
        <time>2014-03-01T07:58:07Z</time>
      </trkpt>
      <trkpt lat="44.31678" lon="2.64513">
        <ele>649.5078125</ele>
        <time>2014-03-01T07:58:12Z</time>
      </trkpt>
      <trkpt lat="44.31665" lon="2.64505">
        <ele>647.1044922</ele>
        <time>2014-03-01T07:58:17Z</time>
      </trkpt>
      <trkpt lat="44.31653" lon="2.64492">
        <ele>643.7399902</ele>
        <time>2014-03-01T07:58:22Z</time>
      </trkpt>
      <trkpt lat="44.31642" lon="2.64486">
        <ele>641.3366699</ele>
        <time>2014-03-01T07:58:26Z</time>
      </trkpt>
      <trkpt lat="44.3164" lon="2.64485">
        <ele>640.855957</ele>
        <time>2014-03-01T07:58:27Z</time>
      </trkpt>
      <trkpt lat="44.3163" lon="2.6449">
        <ele>639.8947754</ele>
        <time>2014-03-01T07:58:31Z</time>
      </trkpt>
      <trkpt lat="44.3162" lon="2.64508">
        <ele>637.0107422</ele>
        <time>2014-03-01T07:58:37Z</time>
      </trkpt>
      <trkpt lat="44.3161" lon="2.64529">
        <ele>636.5302734</ele>
        <time>2014-03-01T07:58:43Z</time>
      </trkpt>
      <trkpt lat="44.31603" lon="2.64541">
        <ele>637.0107422</ele>
        <time>2014-03-01T07:58:47Z</time>
      </trkpt>
      <trkpt lat="44.31593" lon="2.64555">
        <ele>637.972168</ele>
        <time>2014-03-01T07:58:52Z</time>
      </trkpt>
      <trkpt lat="44.31579" lon="2.6457">
        <ele>639.4140625</ele>
        <time>2014-03-01T07:58:58Z</time>
      </trkpt>
      <trkpt lat="44.31572" lon="2.64578">
        <ele>639.8947754</ele>
        <time>2014-03-01T07:59:01Z</time>
      </trkpt>
      <trkpt lat="44.31569" lon="2.64595">
        <ele>640.855957</ele>
        <time>2014-03-01T07:59:06Z</time>
      </trkpt>
      <trkpt lat="44.31571" lon="2.64608">
        <ele>640.855957</ele>
        <time>2014-03-01T07:59:10Z</time>
      </trkpt>
      <trkpt lat="44.31571" lon="2.64621">
        <ele>642.2980957</ele>
        <time>2014-03-01T07:59:14Z</time>
      </trkpt>
      <trkpt lat="44.31571" lon="2.64644">
        <ele>644.7011719</ele>
        <time>2014-03-01T07:59:21Z</time>
      </trkpt>
      <trkpt lat="44.31565" lon="2.64659">
        <ele>645.6625977</ele>
        <time>2014-03-01T07:59:26Z</time>
      </trkpt>
      <trkpt lat="44.31555" lon="2.64673">
        <ele>646.6240234</ele>
        <time>2014-03-01T07:59:32Z</time>
      </trkpt>
      <trkpt lat="44.31545" lon="2.64691">
        <ele>647.1044922</ele>
        <time>2014-03-01T07:59:38Z</time>
      </trkpt>
      <trkpt lat="44.31541" lon="2.64705">
        <ele>648.5463867</ele>
        <time>2014-03-01T07:59:42Z</time>
      </trkpt>
      <trkpt lat="44.31544" lon="2.6472">
        <ele>649.0270996</ele>
        <time>2014-03-01T07:59:47Z</time>
      </trkpt>
      <trkpt lat="44.31549" lon="2.64733">
        <ele>649.0270996</ele>
        <time>2014-03-01T07:59:52Z</time>
      </trkpt>
      <trkpt lat="44.31553" lon="2.64741">
        <ele>649.5078125</ele>
        <time>2014-03-01T07:59:56Z</time>
      </trkpt>
      <trkpt lat="44.31559" lon="2.64753">
        <ele>651.4304199</ele>
        <time>2014-03-01T08:00:01Z</time>
      </trkpt>
      <trkpt lat="44.31563" lon="2.64764">
        <ele>652.8725586</ele>
        <time>2014-03-01T08:00:05Z</time>
      </trkpt>
      <trkpt lat="44.31565" lon="2.64779">
        <ele>654.3146973</ele>
        <time>2014-03-01T08:00:10Z</time>
      </trkpt>
      <trkpt lat="44.31567" lon="2.64797">
        <ele>656.2370605</ele>
        <time>2014-03-01T08:00:16Z</time>
      </trkpt>
      <trkpt lat="44.31568" lon="2.64815">
        <ele>658.6403809</ele>
        <time>2014-03-01T08:00:22Z</time>
      </trkpt>
      <trkpt lat="44.31569" lon="2.64834">
        <ele>660.5629883</ele>
        <time>2014-03-01T08:00:28Z</time>
      </trkpt>
      <trkpt lat="44.31568" lon="2.64849">
        <ele>661.0437012</ele>
        <time>2014-03-01T08:00:33Z</time>
      </trkpt>
      <trkpt lat="44.31569" lon="2.64866">
        <ele>662.9663086</ele>
        <time>2014-03-01T08:00:39Z</time>
      </trkpt>
      <trkpt lat="44.31572" lon="2.64883">
        <ele>665.8503418</ele>
        <time>2014-03-01T08:00:45Z</time>
      </trkpt>
      <trkpt lat="44.31575" lon="2.64895">
        <ele>667.7727051</ele>
        <time>2014-03-01T08:00:50Z</time>
      </trkpt>
      <trkpt lat="44.31577" lon="2.64906">
        <ele>668.2536621</ele>
        <time>2014-03-01T08:00:54Z</time>
      </trkpt>
      <trkpt lat="44.31576" lon="2.64928">
        <ele>669.2150879</ele>
        <time>2014-03-01T08:01:01Z</time>
      </trkpt>
      <trkpt lat="44.31576" lon="2.64946">
        <ele>669.6958008</ele>
        <time>2014-03-01T08:01:07Z</time>
      </trkpt>
      <trkpt lat="44.31575" lon="2.64964">
        <ele>671.6181641</ele>
        <time>2014-03-01T08:01:13Z</time>
      </trkpt>
      <trkpt lat="44.31574" lon="2.64979">
        <ele>672.5795898</ele>
        <time>2014-03-01T08:01:18Z</time>
      </trkpt>
      <trkpt lat="44.31571" lon="2.64997">
        <ele>673.5410156</ele>
        <time>2014-03-01T08:01:24Z</time>
      </trkpt>
      <trkpt lat="44.31566" lon="2.65011">
        <ele>674.5021973</ele>
        <time>2014-03-01T08:01:29Z</time>
      </trkpt>
      <trkpt lat="44.31555" lon="2.65024">
        <ele>674.9829102</ele>
        <time>2014-03-01T08:01:35Z</time>
      </trkpt>
      <trkpt lat="44.31544" lon="2.65034">
        <ele>676.4248047</ele>
        <time>2014-03-01T08:01:40Z</time>
      </trkpt>
      <trkpt lat="44.31533" lon="2.65042">
        <ele>677.3862305</ele>
        <time>2014-03-01T08:01:45Z</time>
      </trkpt>
      <trkpt lat="44.31531" lon="2.65044">
        <ele>677.3862305</ele>
        <time>2014-03-01T08:01:46Z</time>
      </trkpt>
      <trkpt lat="44.3152" lon="2.6505">
        <ele>677.8666992</ele>
        <time>2014-03-01T08:01:51Z</time>
      </trkpt>
      <trkpt lat="44.31509" lon="2.65056">
        <ele>679.7893066</ele>
        <time>2014-03-01T08:01:56Z</time>
      </trkpt>
      <trkpt lat="44.31497" lon="2.65062">
        <ele>681.7119141</ele>
        <time>2014-03-01T08:02:01Z</time>
      </trkpt>
      <trkpt lat="44.31486" lon="2.65064">
        <ele>683.1538086</ele>
        <time>2014-03-01T08:02:06Z</time>
      </trkpt>
      <trkpt lat="44.31474" lon="2.65067">
        <ele>684.1154785</ele>
        <time>2014-03-01T08:02:12Z</time>
      </trkpt>
      <trkpt lat="44.31466" lon="2.65073">
        <ele>685.0769043</ele>
        <time>2014-03-01T08:02:16Z</time>
      </trkpt>
      <trkpt lat="44.31457" lon="2.6508">
        <ele>687.9606934</ele>
        <time>2014-03-01T08:02:21Z</time>
      </trkpt>
      <trkpt lat="44.31447" lon="2.65084">
        <ele>690.8444824</ele>
        <time>2014-03-01T08:02:26Z</time>
      </trkpt>
      <trkpt lat="44.31436" lon="2.65087">
        <ele>692.2866211</ele>
        <time>2014-03-01T08:02:31Z</time>
      </trkpt>
      <trkpt lat="44.31424" lon="2.65092">
        <ele>694.6896973</ele>
        <time>2014-03-01T08:02:37Z</time>
      </trkpt>
      <trkpt lat="44.31415" lon="2.65102">
        <ele>695.1704102</ele>
        <time>2014-03-01T08:02:42Z</time>
      </trkpt>
      <trkpt lat="44.31405" lon="2.65114">
        <ele>694.6896973</ele>
        <time>2014-03-01T08:02:47Z</time>
      </trkpt>
      <trkpt lat="44.31393" lon="2.65127">
        <ele>695.651123</ele>
        <time>2014-03-01T08:02:53Z</time>
      </trkpt>
      <trkpt lat="44.31384" lon="2.65138">
        <ele>695.651123</ele>
        <time>2014-03-01T08:02:58Z</time>
      </trkpt>
      <trkpt lat="44.31375" lon="2.65148">
        <ele>694.6896973</ele>
        <time>2014-03-01T08:03:03Z</time>
      </trkpt>
      <trkpt lat="44.31368" lon="2.65158">
        <ele>694.2092285</ele>
        <time>2014-03-01T08:03:07Z</time>
      </trkpt>
      <trkpt lat="44.3136" lon="2.65171">
        <ele>694.2092285</ele>
        <time>2014-03-01T08:03:12Z</time>
      </trkpt>
      <trkpt lat="44.31358" lon="2.65174">
        <ele>693.7285156</ele>
        <time>2014-03-01T08:03:13Z</time>
      </trkpt>
      <trkpt lat="44.3135" lon="2.65184">
        <ele>694.2092285</ele>
        <time>2014-03-01T08:03:17Z</time>
      </trkpt>
      <trkpt lat="44.31343" lon="2.65194">
        <ele>693.7285156</ele>
        <time>2014-03-01T08:03:20Z</time>
      </trkpt>
      <trkpt lat="44.31334" lon="2.65203">
        <ele>693.2478027</ele>
        <time>2014-03-01T08:03:24Z</time>
      </trkpt>
      <trkpt lat="44.31324" lon="2.65215">
        <ele>693.7285156</ele>
        <time>2014-03-01T08:03:29Z</time>
      </trkpt>
      <trkpt lat="44.31315" lon="2.65225">
        <ele>693.7285156</ele>
        <time>2014-03-01T08:03:33Z</time>
      </trkpt>
      <trkpt lat="44.31305" lon="2.65237">
        <ele>694.2092285</ele>
        <time>2014-03-01T08:03:38Z</time>
      </trkpt>
      <trkpt lat="44.31296" lon="2.65247">
        <ele>693.7285156</ele>
        <time>2014-03-01T08:03:42Z</time>
      </trkpt>
      <trkpt lat="44.31288" lon="2.65255">
        <ele>693.7285156</ele>
        <time>2014-03-01T08:03:46Z</time>
      </trkpt>
      <trkpt lat="44.31287" lon="2.65259">
        <ele>693.2478027</ele>
        <time>2014-03-01T08:03:48Z</time>
      </trkpt>
      <trkpt lat="44.31276" lon="2.6527">
        <ele>688.9221191</ele>
        <time>2014-03-01T08:03:54Z</time>
      </trkpt>
      <trkpt lat="44.31274" lon="2.65273">
        <ele>688.4414063</ele>
        <time>2014-03-01T08:03:55Z</time>
      </trkpt>
      <trkpt lat="44.31258" lon="2.65295">
        <ele>685.557373</ele>
        <time>2014-03-01T08:04:02Z</time>
      </trkpt>
      <trkpt lat="44.31251" lon="2.65301">
        <ele>683.6345215</ele>
        <time>2014-03-01T08:04:05Z</time>
      </trkpt>
      <trkpt lat="44.31239" lon="2.65313">
        <ele>682.192627</ele>
        <time>2014-03-01T08:04:10Z</time>
      </trkpt>
      <trkpt lat="44.31228" lon="2.65325">
        <ele>680.7507324</ele>
        <time>2014-03-01T08:04:15Z</time>
      </trkpt>
      <trkpt lat="44.31217" lon="2.65338">
        <ele>680.2700195</ele>
        <time>2014-03-01T08:04:20Z</time>
      </trkpt>
      <trkpt lat="44.31204" lon="2.65355">
        <ele>678.3474121</ele>
        <time>2014-03-01T08:04:26Z</time>
      </trkpt>
      <trkpt lat="44.31193" lon="2.65368">
        <ele>676.9055176</ele>
        <time>2014-03-01T08:04:31Z</time>
      </trkpt>
      <trkpt lat="44.31177" lon="2.65376">
        <ele>674.0214844</ele>
        <time>2014-03-01T08:04:37Z</time>
      </trkpt>
      <trkpt lat="44.31171" lon="2.65376">
        <ele>673.0603027</ele>
        <time>2014-03-01T08:04:39Z</time>
      </trkpt>
      <trkpt lat="44.31157" lon="2.65375">
        <ele>669.6958008</ele>
        <time>2014-03-01T08:04:44Z</time>
      </trkpt>
      <trkpt lat="44.31154" lon="2.65375">
        <ele>669.2150879</ele>
        <time>2014-03-01T08:04:45Z</time>
      </trkpt>
      <trkpt lat="44.3114" lon="2.65376">
        <ele>665.8503418</ele>
        <time>2014-03-01T08:04:51Z</time>
      </trkpt>
      <trkpt lat="44.31133" lon="2.65374">
        <ele>663.9274902</ele>
        <time>2014-03-01T08:04:55Z</time>
      </trkpt>
      <trkpt lat="44.31124" lon="2.65367">
        <ele>660.0822754</ele>
        <time>2014-03-01T08:05:00Z</time>
      </trkpt>
      <trkpt lat="44.31116" lon="2.65362">
        <ele>659.1210938</ele>
        <time>2014-03-01T08:05:04Z</time>
      </trkpt>
      <trkpt lat="44.31103" lon="2.65362">
        <ele>656.2370605</ele>
        <time>2014-03-01T08:05:09Z</time>
      </trkpt>
      <trkpt lat="44.31091" lon="2.65362">
        <ele>656.2370605</ele>
        <time>2014-03-01T08:05:14Z</time>
      </trkpt>
      <trkpt lat="44.31083" lon="2.65363">
        <ele>655.7565918</ele>
        <time>2014-03-01T08:05:18Z</time>
      </trkpt>
      <trkpt lat="44.31069" lon="2.65372">
        <ele>653.3532715</ele>
        <time>2014-03-01T08:05:23Z</time>
      </trkpt>
      <trkpt lat="44.31057" lon="2.65382">
        <ele>653.3532715</ele>
        <time>2014-03-01T08:05:28Z</time>
      </trkpt>
      <trkpt lat="44.31046" lon="2.65385">
        <ele>651.9111328</ele>
        <time>2014-03-01T08:05:33Z</time>
      </trkpt>
      <trkpt lat="44.31033" lon="2.65393">
        <ele>650.4692383</ele>
        <time>2014-03-01T08:05:39Z</time>
      </trkpt>
      <trkpt lat="44.31021" lon="2.65398">
        <ele>649.5078125</ele>
        <time>2014-03-01T08:05:44Z</time>
      </trkpt>
      <trkpt lat="44.31017" lon="2.654">
        <ele>649.0270996</ele>
        <time>2014-03-01T08:05:46Z</time>
      </trkpt>
      <trkpt lat="44.31009" lon="2.65403">
        <ele>647.5852051</ele>
        <time>2014-03-01T08:05:50Z</time>
      </trkpt>
      <trkpt lat="44.30998" lon="2.65411">
        <ele>645.6625977</ele>
        <time>2014-03-01T08:05:56Z</time>
      </trkpt>
      <trkpt lat="44.30988" lon="2.65419">
        <ele>643.7399902</ele>
        <time>2014-03-01T08:06:01Z</time>
      </trkpt>
      <trkpt lat="44.30987" lon="2.65419">
        <ele>643.2592773</ele>
        <time>2014-03-01T08:06:02Z</time>
      </trkpt>
      <trkpt lat="44.30976" lon="2.65425">
        <ele>639.8947754</ele>
        <time>2014-03-01T08:06:07Z</time>
      </trkpt>
      <trkpt lat="44.30966" lon="2.6543">
        <ele>637.4914551</ele>
        <time>2014-03-01T08:06:11Z</time>
      </trkpt>
      <trkpt lat="44.30955" lon="2.65435">
        <ele>634.126709</ele>
        <time>2014-03-01T08:06:17Z</time>
      </trkpt>
      <trkpt lat="44.30944" lon="2.65439">
        <ele>631.2429199</ele>
        <time>2014-03-01T08:06:22Z</time>
      </trkpt>
      <trkpt lat="44.30928" lon="2.65444">
        <ele>628.3588867</ele>
        <time>2014-03-01T08:06:28Z</time>
      </trkpt>
      <trkpt lat="44.30924" lon="2.65445">
        <ele>626.4362793</ele>
        <time>2014-03-01T08:06:30Z</time>
      </trkpt>
      <trkpt lat="44.30915" lon="2.65465">
        <ele>625.4748535</ele>
        <time>2014-03-01T08:06:36Z</time>
      </trkpt>
      <trkpt lat="44.30912" lon="2.65476">
        <ele>624.5136719</ele>
        <time>2014-03-01T08:06:40Z</time>
      </trkpt>
      <trkpt lat="44.30901" lon="2.65487">
        <ele>622.5910645</ele>
        <time>2014-03-01T08:06:46Z</time>
      </trkpt>
      <trkpt lat="44.30899" lon="2.65489">
        <ele>622.5910645</ele>
        <time>2014-03-01T08:06:47Z</time>
      </trkpt>
      <trkpt lat="44.30895" lon="2.65496">
        <ele>624.032959</ele>
        <time>2014-03-01T08:06:50Z</time>
      </trkpt>
      <trkpt lat="44.30882" lon="2.65505">
        <ele>625.4748535</ele>
        <time>2014-03-01T08:06:56Z</time>
      </trkpt>
      <trkpt lat="44.30877" lon="2.65507">
        <ele>624.9943848</ele>
        <time>2014-03-01T08:06:58Z</time>
      </trkpt>
      <trkpt lat="44.30878" lon="2.65519">
        <ele>626.4362793</ele>
        <time>2014-03-01T08:07:03Z</time>
      </trkpt>
      <trkpt lat="44.30879" lon="2.65521">
        <ele>626.4362793</ele>
        <time>2014-03-01T08:07:04Z</time>
      </trkpt>
      <trkpt lat="44.30887" lon="2.65532">
        <ele>627.8781738</ele>
        <time>2014-03-01T08:07:10Z</time>
      </trkpt>
      <trkpt lat="44.30896" lon="2.65536">
        <ele>628.8395996</ele>
        <time>2014-03-01T08:07:15Z</time>
      </trkpt>
      <trkpt lat="44.30907" lon="2.65537">
        <ele>629.8007813</ele>
        <time>2014-03-01T08:07:20Z</time>
      </trkpt>
      <trkpt lat="44.30922" lon="2.65538">
        <ele>633.6459961</ele>
        <time>2014-03-01T08:07:27Z</time>
      </trkpt>
      <trkpt lat="44.30935" lon="2.6554">
        <ele>637.4914551</ele>
        <time>2014-03-01T08:07:33Z</time>
      </trkpt>
      <trkpt lat="44.30948" lon="2.65541">
        <ele>642.7788086</ele>
        <time>2014-03-01T08:07:40Z</time>
      </trkpt>
      <trkpt lat="44.30959" lon="2.65543">
        <ele>646.1433105</ele>
        <time>2014-03-01T08:07:45Z</time>
      </trkpt>
      <trkpt lat="44.3097" lon="2.65544">
        <ele>647.5852051</ele>
        <time>2014-03-01T08:07:51Z</time>
      </trkpt>
      <trkpt lat="44.3098" lon="2.65545">
        <ele>649.0270996</ele>
        <time>2014-03-01T08:07:56Z</time>
      </trkpt>
      <trkpt lat="44.30991" lon="2.65548">
        <ele>649.9885254</ele>
        <time>2014-03-01T08:08:01Z</time>
      </trkpt>
      <trkpt lat="44.31" lon="2.65551">
        <ele>651.4304199</ele>
        <time>2014-03-01T08:08:06Z</time>
      </trkpt>
      <trkpt lat="44.31011" lon="2.65557">
        <ele>650.949707</ele>
        <time>2014-03-01T08:08:12Z</time>
      </trkpt>
      <trkpt lat="44.31023" lon="2.65561">
        <ele>650.949707</ele>
        <time>2014-03-01T08:08:18Z</time>
      </trkpt>
      <trkpt lat="44.31034" lon="2.65569">
        <ele>650.949707</ele>
        <time>2014-03-01T08:08:24Z</time>
      </trkpt>
      <trkpt lat="44.31044" lon="2.65577">
        <ele>651.9111328</ele>
        <time>2014-03-01T08:08:29Z</time>
      </trkpt>
      <trkpt lat="44.31055" lon="2.65587">
        <ele>653.3532715</ele>
        <time>2014-03-01T08:08:35Z</time>
      </trkpt>
      <trkpt lat="44.31063" lon="2.65595">
        <ele>654.3146973</ele>
        <time>2014-03-01T08:08:40Z</time>
      </trkpt>
      <trkpt lat="44.31066" lon="2.65597">
        <ele>654.3146973</ele>
        <time>2014-03-01T08:08:42Z</time>
      </trkpt>
      <trkpt lat="44.31077" lon="2.65607">
        <ele>653.8339844</ele>
        <time>2014-03-01T08:08:49Z</time>
      </trkpt>
      <trkpt lat="44.31084" lon="2.65615">
        <ele>654.3146973</ele>
        <time>2014-03-01T08:08:54Z</time>
      </trkpt>
      <trkpt lat="44.31095" lon="2.65624">
        <ele>655.2758789</ele>
        <time>2014-03-01T08:09:00Z</time>
      </trkpt>
      <trkpt lat="44.31106" lon="2.65633">
        <ele>656.7177734</ele>
        <time>2014-03-01T08:09:06Z</time>
      </trkpt>
      <trkpt lat="44.31115" lon="2.65643">
        <ele>658.6403809</ele>
        <time>2014-03-01T08:09:11Z</time>
      </trkpt>
      <trkpt lat="44.31124" lon="2.65649">
        <ele>660.0822754</ele>
        <time>2014-03-01T08:09:15Z</time>
      </trkpt>
      <trkpt lat="44.31135" lon="2.65659">
        <ele>662.005127</ele>
        <time>2014-03-01T08:09:21Z</time>
      </trkpt>
      <trkpt lat="44.3114" lon="2.65666">
        <ele>662.9663086</ele>
        <time>2014-03-01T08:09:24Z</time>
      </trkpt>
      <trkpt lat="44.31149" lon="2.65688">
        <ele>664.4082031</ele>
        <time>2014-03-01T08:09:32Z</time>
      </trkpt>
      <trkpt lat="44.31153" lon="2.65701">
        <ele>665.8503418</ele>
        <time>2014-03-01T08:09:37Z</time>
      </trkpt>
      <trkpt lat="44.31155" lon="2.65715">
        <ele>667.2922363</ele>
        <time>2014-03-01T08:09:42Z</time>
      </trkpt>
      <trkpt lat="44.3116" lon="2.65732">
        <ele>668.734375</ele>
        <time>2014-03-01T08:09:48Z</time>
      </trkpt>
      <trkpt lat="44.31167" lon="2.65752">
        <ele>670.1762695</ele>
        <time>2014-03-01T08:09:55Z</time>
      </trkpt>
      <trkpt lat="44.31172" lon="2.65764">
        <ele>670.1762695</ele>
        <time>2014-03-01T08:09:59Z</time>
      </trkpt>
      <trkpt lat="44.31179" lon="2.65778">
        <ele>670.1762695</ele>
        <time>2014-03-01T08:10:05Z</time>
      </trkpt>
      <trkpt lat="44.31185" lon="2.6579">
        <ele>670.6569824</ele>
        <time>2014-03-01T08:10:10Z</time>
      </trkpt>
      <trkpt lat="44.31191" lon="2.65808">
        <ele>670.6569824</ele>
        <time>2014-03-01T08:10:16Z</time>
      </trkpt>
      <trkpt lat="44.31192" lon="2.65824">
        <ele>672.098877</ele>
        <time>2014-03-01T08:10:21Z</time>
      </trkpt>
      <trkpt lat="44.31192" lon="2.65841">
        <ele>674.5021973</ele>
        <time>2014-03-01T08:10:27Z</time>
      </trkpt>
      <trkpt lat="44.3119" lon="2.65856">
        <ele>675.9440918</ele>
        <time>2014-03-01T08:10:32Z</time>
      </trkpt>
      <trkpt lat="44.31189" lon="2.65874">
        <ele>677.8666992</ele>
        <time>2014-03-01T08:10:38Z</time>
      </trkpt>
      <trkpt lat="44.31189" lon="2.65889">
        <ele>679.7893066</ele>
        <time>2014-03-01T08:10:43Z</time>
      </trkpt>
      <trkpt lat="44.31189" lon="2.65892">
        <ele>679.7893066</ele>
        <time>2014-03-01T08:10:44Z</time>
      </trkpt>
      <trkpt lat="44.31191" lon="2.65911">
        <ele>681.7119141</ele>
        <time>2014-03-01T08:10:50Z</time>
      </trkpt>
      <trkpt lat="44.31191" lon="2.65917">
        <ele>682.192627</ele>
        <time>2014-03-01T08:10:52Z</time>
      </trkpt>
      <trkpt lat="44.31188" lon="2.65939">
        <ele>685.557373</ele>
        <time>2014-03-01T08:10:59Z</time>
      </trkpt>
      <trkpt lat="44.31188" lon="2.65956">
        <ele>686.9992676</ele>
        <time>2014-03-01T08:11:04Z</time>
      </trkpt>
      <trkpt lat="44.31189" lon="2.65972">
        <ele>689.4025879</ele>
        <time>2014-03-01T08:11:09Z</time>
      </trkpt>
      <trkpt lat="44.31197" lon="2.65985">
        <ele>689.4025879</ele>
        <time>2014-03-01T08:11:14Z</time>
      </trkpt>
      <trkpt lat="44.31206" lon="2.65995">
        <ele>689.4025879</ele>
        <time>2014-03-01T08:11:18Z</time>
      </trkpt>
      <trkpt lat="44.31207" lon="2.65997">
        <ele>689.8833008</ele>
        <time>2014-03-01T08:11:19Z</time>
      </trkpt>
      <trkpt lat="44.31216" lon="2.66009">
        <ele>690.8444824</ele>
        <time>2014-03-01T08:11:25Z</time>
      </trkpt>
      <trkpt lat="44.31227" lon="2.6602">
        <ele>691.8059082</ele>
        <time>2014-03-01T08:11:31Z</time>
      </trkpt>
      <trkpt lat="44.31236" lon="2.66032">
        <ele>692.2866211</ele>
        <time>2014-03-01T08:11:37Z</time>
      </trkpt>
      <trkpt lat="44.31246" lon="2.66043">
        <ele>693.7285156</ele>
        <time>2014-03-01T08:11:43Z</time>
      </trkpt>
      <trkpt lat="44.31249" lon="2.66046">
        <ele>694.2092285</ele>
        <time>2014-03-01T08:11:45Z</time>
      </trkpt>
      <trkpt lat="44.31262" lon="2.66054">
        <ele>696.6125488</ele>
        <time>2014-03-01T08:11:51Z</time>
      </trkpt>
      <trkpt lat="44.31275" lon="2.66052">
        <ele>699.4963379</ele>
        <time>2014-03-01T08:11:57Z</time>
      </trkpt>
      <trkpt lat="44.31282" lon="2.66058">
        <ele>701.4191895</ele>
        <time>2014-03-01T08:12:03Z</time>
      </trkpt>
      <trkpt lat="44.31285" lon="2.6606">
        <ele>701.8999023</ele>
        <time>2014-03-01T08:12:05Z</time>
      </trkpt>
      <trkpt lat="44.31292" lon="2.66073">
        <ele>703.3417969</ele>
        <time>2014-03-01T08:12:12Z</time>
      </trkpt>
      <trkpt lat="44.31293" lon="2.66074">
        <ele>702.861084</ele>
        <time>2014-03-01T08:12:13Z</time>
      </trkpt>
      <trkpt lat="44.31297" lon="2.66085">
        <ele>702.861084</ele>
        <time>2014-03-01T08:12:18Z</time>
      </trkpt>
      <trkpt lat="44.31303" lon="2.66098">
        <ele>702.861084</ele>
        <time>2014-03-01T08:12:24Z</time>
      </trkpt>
      <trkpt lat="44.31308" lon="2.6611">
        <ele>701.4191895</ele>
        <time>2014-03-01T08:12:29Z</time>
      </trkpt>
      <trkpt lat="44.31314" lon="2.66128">
        <ele>703.3417969</ele>
        <time>2014-03-01T08:12:36Z</time>
      </trkpt>
      <trkpt lat="44.31314" lon="2.66131">
        <ele>703.3417969</ele>
        <time>2014-03-01T08:12:37Z</time>
      </trkpt>
      <trkpt lat="44.31319" lon="2.66148">
        <ele>704.3032227</ele>
        <time>2014-03-01T08:12:43Z</time>
      </trkpt>
      <trkpt lat="44.31323" lon="2.66158">
        <ele>704.3032227</ele>
        <time>2014-03-01T08:12:47Z</time>
      </trkpt>
      <trkpt lat="44.31327" lon="2.66174">
        <ele>704.3032227</ele>
        <time>2014-03-01T08:12:53Z</time>
      </trkpt>
      <trkpt lat="44.31331" lon="2.66192">
        <ele>703.8225098</ele>
        <time>2014-03-01T08:12:59Z</time>
      </trkpt>
      <trkpt lat="44.31334" lon="2.66208">
        <ele>705.7451172</ele>
        <time>2014-03-01T08:13:05Z</time>
      </trkpt>
      <trkpt lat="44.31338" lon="2.66222">
        <ele>708.1484375</ele>
        <time>2014-03-01T08:13:10Z</time>
      </trkpt>
      <trkpt lat="44.31344" lon="2.66232">
        <ele>710.5515137</ele>
        <time>2014-03-01T08:13:15Z</time>
      </trkpt>
      <trkpt lat="44.31354" lon="2.66247">
        <ele>712.954834</ele>
        <time>2014-03-01T08:13:22Z</time>
      </trkpt>
      <trkpt lat="44.31361" lon="2.66256">
        <ele>713.9160156</ele>
        <time>2014-03-01T08:13:27Z</time>
      </trkpt>
      <trkpt lat="44.31368" lon="2.66267">
        <ele>714.8774414</ele>
        <time>2014-03-01T08:13:32Z</time>
      </trkpt>
      <trkpt lat="44.31376" lon="2.6628">
        <ele>715.8388672</ele>
        <time>2014-03-01T08:13:38Z</time>
      </trkpt>
      <trkpt lat="44.3138" lon="2.66296">
        <ele>718.7229004</ele>
        <time>2014-03-01T08:13:44Z</time>
      </trkpt>
      <trkpt lat="44.3138" lon="2.66312">
        <ele>724.4907227</ele>
        <time>2014-03-01T08:13:50Z</time>
      </trkpt>
      <trkpt lat="44.31381" lon="2.66323">
        <ele>727.3747559</ele>
        <time>2014-03-01T08:13:55Z</time>
      </trkpt>
      <trkpt lat="44.31388" lon="2.66337">
        <ele>726.894043</ele>
        <time>2014-03-01T08:14:01Z</time>
      </trkpt>
      <trkpt lat="44.31389" lon="2.6634">
        <ele>727.3747559</ele>
        <time>2014-03-01T08:14:02Z</time>
      </trkpt>
      <trkpt lat="44.31395" lon="2.66352">
        <ele>728.3359375</ele>
        <time>2014-03-01T08:14:08Z</time>
      </trkpt>
      <trkpt lat="44.31403" lon="2.66359">
        <ele>730.7392578</ele>
        <time>2014-03-01T08:14:14Z</time>
      </trkpt>
      <trkpt lat="44.31415" lon="2.66367">
        <ele>733.623291</ele>
        <time>2014-03-01T08:14:20Z</time>
      </trkpt>
      <trkpt lat="44.31424" lon="2.66373">
        <ele>734.1040039</ele>
        <time>2014-03-01T08:14:25Z</time>
      </trkpt>
      <trkpt lat="44.31434" lon="2.66375">
        <ele>735.5458984</ele>
        <time>2014-03-01T08:14:30Z</time>
      </trkpt>
      <trkpt lat="44.31444" lon="2.66375">
        <ele>737.4685059</ele>
        <time>2014-03-01T08:14:35Z</time>
      </trkpt>
      <trkpt lat="44.31454" lon="2.66378">
        <ele>738.4299316</ele>
        <time>2014-03-01T08:14:41Z</time>
      </trkpt>
      <trkpt lat="44.31462" lon="2.66383">
        <ele>738.9106445</ele>
        <time>2014-03-01T08:14:48Z</time>
      </trkpt>
      <trkpt lat="44.31466" lon="2.66385">
        <ele>740.3525391</ele>
        <time>2014-03-01T08:14:51Z</time>
      </trkpt>
      <trkpt lat="44.31476" lon="2.66392">
        <ele>742.7558594</ele>
        <time>2014-03-01T08:14:57Z</time>
      </trkpt>
      <trkpt lat="44.31481" lon="2.66398">
        <ele>742.7558594</ele>
        <time>2014-03-01T08:15:01Z</time>
      </trkpt>
      <trkpt lat="44.31487" lon="2.66403">
        <ele>745.1589355</ele>
        <time>2014-03-01T08:15:05Z</time>
      </trkpt>
      <trkpt lat="44.31493" lon="2.66411">
        <ele>746.1203613</ele>
        <time>2014-03-01T08:15:12Z</time>
      </trkpt>
      <trkpt lat="44.31499" lon="2.66416">
        <ele>747.5622559</ele>
        <time>2014-03-01T08:15:17Z</time>
      </trkpt>
      <trkpt lat="44.31504" lon="2.66422">
        <ele>747.081543</ele>
        <time>2014-03-01T08:15:23Z</time>
      </trkpt>
      <trkpt lat="44.31511" lon="2.66429">
        <ele>745.6396484</ele>
        <time>2014-03-01T08:15:30Z</time>
      </trkpt>
      <trkpt lat="44.31518" lon="2.66437">
        <ele>748.5236816</ele>
        <time>2014-03-01T08:15:37Z</time>
      </trkpt>
      <trkpt lat="44.31528" lon="2.66452">
        <ele>750.927002</ele>
        <time>2014-03-01T08:15:46Z</time>
      </trkpt>
      <trkpt lat="44.31532" lon="2.66463">
        <ele>753.3303223</ele>
        <time>2014-03-01T08:15:50Z</time>
      </trkpt>
      <trkpt lat="44.31531" lon="2.66476">
        <ele>754.7722168</ele>
        <time>2014-03-01T08:15:54Z</time>
      </trkpt>
      <trkpt lat="44.31526" lon="2.66492">
        <ele>755.2529297</ele>
        <time>2014-03-01T08:16:00Z</time>
      </trkpt>
      <trkpt lat="44.3152" lon="2.66505">
        <ele>755.7336426</ele>
        <time>2014-03-01T08:16:04Z</time>
      </trkpt>
      <trkpt lat="44.31509" lon="2.66514">
        <ele>756.6948242</ele>
        <time>2014-03-01T08:16:10Z</time>
      </trkpt>
      <trkpt lat="44.31497" lon="2.66518">
        <ele>756.6948242</ele>
        <time>2014-03-01T08:16:16Z</time>
      </trkpt>
      <trkpt lat="44.31484" lon="2.66523">
        <ele>757.65625</ele>
        <time>2014-03-01T08:16:21Z</time>
      </trkpt>
      <trkpt lat="44.31468" lon="2.66534">
        <ele>759.5788574</ele>
        <time>2014-03-01T08:16:28Z</time>
      </trkpt>
      <trkpt lat="44.31461" lon="2.66548">
        <ele>760.5400391</ele>
        <time>2014-03-01T08:16:33Z</time>
      </trkpt>
      <trkpt lat="44.31457" lon="2.66564">
        <ele>761.020752</ele>
        <time>2014-03-01T08:16:38Z</time>
      </trkpt>
      <trkpt lat="44.31457" lon="2.66581">
        <ele>760.5400391</ele>
        <time>2014-03-01T08:16:43Z</time>
      </trkpt>
      <trkpt lat="44.31461" lon="2.66594">
        <ele>760.5400391</ele>
        <time>2014-03-01T08:16:47Z</time>
      </trkpt>
      <trkpt lat="44.31472" lon="2.66611">
        <ele>761.020752</ele>
        <time>2014-03-01T08:16:53Z</time>
      </trkpt>
      <trkpt lat="44.31484" lon="2.6662">
        <ele>761.9821777</ele>
        <time>2014-03-01T08:16:58Z</time>
      </trkpt>
      <trkpt lat="44.31501" lon="2.66632">
        <ele>763.904541</ele>
        <time>2014-03-01T08:17:05Z</time>
      </trkpt>
      <trkpt lat="44.3151" lon="2.66646">
        <ele>764.385498</ele>
        <time>2014-03-01T08:17:10Z</time>
      </trkpt>
      <trkpt lat="44.31518" lon="2.66662">
        <ele>763.904541</ele>
        <time>2014-03-01T08:17:15Z</time>
      </trkpt>
      <trkpt lat="44.31527" lon="2.66682">
        <ele>761.9821777</ele>
        <time>2014-03-01T08:17:21Z</time>
      </trkpt>
      <trkpt lat="44.31535" lon="2.66703">
        <ele>759.0981445</ele>
        <time>2014-03-01T08:17:27Z</time>
      </trkpt>
      <trkpt lat="44.31541" lon="2.66724">
        <ele>756.2141113</ele>
        <time>2014-03-01T08:17:33Z</time>
      </trkpt>
      <trkpt lat="44.31546" lon="2.66743">
        <ele>754.7722168</ele>
        <time>2014-03-01T08:17:38Z</time>
      </trkpt>
      <trkpt lat="44.31547" lon="2.66765">
        <ele>754.291748</ele>
        <time>2014-03-01T08:17:43Z</time>
      </trkpt>
      <trkpt lat="44.3154" lon="2.66785">
        <ele>756.6948242</ele>
        <time>2014-03-01T08:17:49Z</time>
      </trkpt>
      <trkpt lat="44.31531" lon="2.66802">
        <ele>757.1755371</ele>
        <time>2014-03-01T08:17:54Z</time>
      </trkpt>
      <trkpt lat="44.31518" lon="2.66817">
        <ele>757.65625</ele>
        <time>2014-03-01T08:18:00Z</time>
      </trkpt>
      <trkpt lat="44.31507" lon="2.66827">
        <ele>757.1755371</ele>
        <time>2014-03-01T08:18:05Z</time>
      </trkpt>
      <trkpt lat="44.31499" lon="2.66835">
        <ele>757.1755371</ele>
        <time>2014-03-01T08:18:09Z</time>
      </trkpt>
      <trkpt lat="44.31487" lon="2.66846">
        <ele>757.1755371</ele>
        <time>2014-03-01T08:18:14Z</time>
      </trkpt>
      <trkpt lat="44.31476" lon="2.66856">
        <ele>756.2141113</ele>
        <time>2014-03-01T08:18:19Z</time>
      </trkpt>
      <trkpt lat="44.31467" lon="2.66864">
        <ele>757.1755371</ele>
        <time>2014-03-01T08:18:23Z</time>
      </trkpt>
      <trkpt lat="44.31453" lon="2.66876">
        <ele>758.1369629</ele>
        <time>2014-03-01T08:18:29Z</time>
      </trkpt>
      <trkpt lat="44.31443" lon="2.66887">
        <ele>758.6174316</ele>
        <time>2014-03-01T08:18:34Z</time>
      </trkpt>
      <trkpt lat="44.31433" lon="2.66902">
        <ele>760.0593262</ele>
        <time>2014-03-01T08:18:40Z</time>
      </trkpt>
      <trkpt lat="44.31423" lon="2.66914">
        <ele>761.5014648</ele>
        <time>2014-03-01T08:18:45Z</time>
      </trkpt>
      <trkpt lat="44.31414" lon="2.66926">
        <ele>762.9433594</ele>
        <time>2014-03-01T08:18:50Z</time>
      </trkpt>
      <trkpt lat="44.31398" lon="2.66944">
        <ele>764.385498</ele>
        <time>2014-03-01T08:18:58Z</time>
      </trkpt>
      <trkpt lat="44.31386" lon="2.66958">
        <ele>765.8276367</ele>
        <time>2014-03-01T08:19:04Z</time>
      </trkpt>
      <trkpt lat="44.31375" lon="2.66974">
        <ele>767.75</ele>
        <time>2014-03-01T08:19:10Z</time>
      </trkpt>
      <trkpt lat="44.31364" lon="2.66988">
        <ele>768.7114258</ele>
        <time>2014-03-01T08:19:16Z</time>
      </trkpt>
      <trkpt lat="44.31354" lon="2.67002">
        <ele>769.6728516</ele>
        <time>2014-03-01T08:19:22Z</time>
      </trkpt>
      <trkpt lat="44.31346" lon="2.67014">
        <ele>770.6340332</ele>
        <time>2014-03-01T08:19:27Z</time>
      </trkpt>
      <trkpt lat="44.31334" lon="2.67029">
        <ele>770.1533203</ele>
        <time>2014-03-01T08:19:33Z</time>
      </trkpt>
      <trkpt lat="44.31318" lon="2.67048">
        <ele>768.7114258</ele>
        <time>2014-03-01T08:19:40Z</time>
      </trkpt>
      <trkpt lat="44.31302" lon="2.67067">
        <ele>767.2695313</ele>
        <time>2014-03-01T08:19:47Z</time>
      </trkpt>
      <trkpt lat="44.31291" lon="2.67081">
        <ele>765.3469238</ele>
        <time>2014-03-01T08:19:52Z</time>
      </trkpt>
      <trkpt lat="44.31283" lon="2.67097">
        <ele>763.904541</ele>
        <time>2014-03-01T08:19:57Z</time>
      </trkpt>
      <trkpt lat="44.31273" lon="2.67117">
        <ele>761.020752</ele>
        <time>2014-03-01T08:20:03Z</time>
      </trkpt>
      <trkpt lat="44.31264" lon="2.67132">
        <ele>757.1755371</ele>
        <time>2014-03-01T08:20:08Z</time>
      </trkpt>
      <trkpt lat="44.31253" lon="2.67156">
        <ele>753.8110352</ele>
        <time>2014-03-01T08:20:15Z</time>
      </trkpt>
      <trkpt lat="44.31245" lon="2.67172">
        <ele>751.4077148</ele>
        <time>2014-03-01T08:20:20Z</time>
      </trkpt>
      <trkpt lat="44.31234" lon="2.67197">
        <ele>748.5236816</ele>
        <time>2014-03-01T08:20:27Z</time>
      </trkpt>
      <trkpt lat="44.31227" lon="2.67212">
        <ele>746.6010742</ele>
        <time>2014-03-01T08:20:32Z</time>
      </trkpt>
      <trkpt lat="44.31216" lon="2.67227">
        <ele>745.6396484</ele>
        <time>2014-03-01T08:20:37Z</time>
      </trkpt>
      <trkpt lat="44.31202" lon="2.67244">
        <ele>745.1589355</ele>
        <time>2014-03-01T08:20:43Z</time>
      </trkpt>
      <trkpt lat="44.31188" lon="2.67261">
        <ele>742.7558594</ele>
        <time>2014-03-01T08:20:49Z</time>
      </trkpt>
      <trkpt lat="44.31174" lon="2.67275">
        <ele>740.8330078</ele>
        <time>2014-03-01T08:20:55Z</time>
      </trkpt>
      <trkpt lat="44.31161" lon="2.67284">
        <ele>736.987793</ele>
        <time>2014-03-01T08:21:00Z</time>
      </trkpt>
      <trkpt lat="44.31147" lon="2.67294">
        <ele>734.1040039</ele>
        <time>2014-03-01T08:21:06Z</time>
      </trkpt>
      <trkpt lat="44.31145" lon="2.67297">
        <ele>733.623291</ele>
        <time>2014-03-01T08:21:07Z</time>
      </trkpt>
      <trkpt lat="44.31143" lon="2.67315">
        <ele>731.7004395</ele>
        <time>2014-03-01T08:21:12Z</time>
      </trkpt>
      <trkpt lat="44.31145" lon="2.67318">
        <ele>731.7004395</ele>
        <time>2014-03-01T08:21:13Z</time>
      </trkpt>
      <trkpt lat="44.31155" lon="2.67335">
        <ele>730.2585449</ele>
        <time>2014-03-01T08:21:19Z</time>
      </trkpt>
      <trkpt lat="44.31166" lon="2.67348">
        <ele>730.7392578</ele>
        <time>2014-03-01T08:21:24Z</time>
      </trkpt>
      <trkpt lat="44.31175" lon="2.67362">
        <ele>732.1813965</ele>
        <time>2014-03-01T08:21:29Z</time>
      </trkpt>
      <trkpt lat="44.31187" lon="2.67377">
        <ele>734.1040039</ele>
        <time>2014-03-01T08:21:35Z</time>
      </trkpt>
      <trkpt lat="44.31196" lon="2.67392">
        <ele>734.5847168</ele>
        <time>2014-03-01T08:21:40Z</time>
      </trkpt>
      <trkpt lat="44.31201" lon="2.67407">
        <ele>736.0266113</ele>
        <time>2014-03-01T08:21:45Z</time>
      </trkpt>
      <trkpt lat="44.31206" lon="2.67426">
        <ele>739.8718262</ele>
        <time>2014-03-01T08:21:51Z</time>
      </trkpt>
      <trkpt lat="44.3121" lon="2.67447">
        <ele>744.1977539</ele>
        <time>2014-03-01T08:21:58Z</time>
      </trkpt>
      <trkpt lat="44.3121" lon="2.6745">
        <ele>744.6782227</ele>
        <time>2014-03-01T08:21:59Z</time>
      </trkpt>
      <trkpt lat="44.31215" lon="2.67467">
        <ele>744.6782227</ele>
        <time>2014-03-01T08:22:05Z</time>
      </trkpt>
      <trkpt lat="44.31216" lon="2.67474">
        <ele>746.6010742</ele>
        <time>2014-03-01T08:22:07Z</time>
      </trkpt>
      <trkpt lat="44.3122" lon="2.67495">
        <ele>749.9658203</ele>
        <time>2014-03-01T08:22:13Z</time>
      </trkpt>
      <trkpt lat="44.31224" lon="2.67506">
        <ele>750.4465332</ele>
        <time>2014-03-01T08:22:17Z</time>
      </trkpt>
      <trkpt lat="44.3123" lon="2.67526">
        <ele>752.3688965</ele>
        <time>2014-03-01T08:22:23Z</time>
      </trkpt>
      <trkpt lat="44.31231" lon="2.67535">
        <ele>752.8496094</ele>
        <time>2014-03-01T08:22:26Z</time>
      </trkpt>
      <trkpt lat="44.31233" lon="2.67558">
        <ele>757.1755371</ele>
        <time>2014-03-01T08:22:34Z</time>
      </trkpt>
      <trkpt lat="44.31238" lon="2.67578">
        <ele>758.1369629</ele>
        <time>2014-03-01T08:22:41Z</time>
      </trkpt>
      <trkpt lat="44.31239" lon="2.6758">
        <ele>758.6174316</ele>
        <time>2014-03-01T08:22:42Z</time>
      </trkpt>
      <trkpt lat="44.31239" lon="2.67599">
        <ele>759.5788574</ele>
        <time>2014-03-01T08:22:48Z</time>
      </trkpt>
      <trkpt lat="44.31238" lon="2.67618">
        <ele>760.5400391</ele>
        <time>2014-03-01T08:22:53Z</time>
      </trkpt>
      <trkpt lat="44.31238" lon="2.67643">
        <ele>763.904541</ele>
        <time>2014-03-01T08:23:00Z</time>
      </trkpt>
      <trkpt lat="44.31238" lon="2.67659">
        <ele>765.8276367</ele>
        <time>2014-03-01T08:23:05Z</time>
      </trkpt>
      <trkpt lat="44.31238" lon="2.67671">
        <ele>766.3081055</ele>
        <time>2014-03-01T08:23:11Z</time>
      </trkpt>
      <trkpt lat="44.31238" lon="2.6768">
        <ele>767.75</ele>
        <time>2014-03-01T08:23:15Z</time>
      </trkpt>
      <trkpt lat="44.31237" lon="2.67694">
        <ele>768.7114258</ele>
        <time>2014-03-01T08:23:23Z</time>
      </trkpt>
      <trkpt lat="44.31235" lon="2.67712">
        <ele>770.1533203</ele>
        <time>2014-03-01T08:23:31Z</time>
      </trkpt>
      <trkpt lat="44.31231" lon="2.6773">
        <ele>771.1147461</ele>
        <time>2014-03-01T08:23:39Z</time>
      </trkpt>
      <trkpt lat="44.31227" lon="2.67745">
        <ele>772.5566406</ele>
        <time>2014-03-01T08:23:46Z</time>
      </trkpt>
      <trkpt lat="44.31223" lon="2.67766">
        <ele>774.479248</ele>
        <time>2014-03-01T08:23:55Z</time>
      </trkpt>
      <trkpt lat="44.31221" lon="2.67775">
        <ele>775.4404297</ele>
        <time>2014-03-01T08:23:59Z</time>
      </trkpt>
      <trkpt lat="44.31219" lon="2.67788">
        <ele>775.9211426</ele>
        <time>2014-03-01T08:24:04Z</time>
      </trkpt>
      <trkpt lat="44.31217" lon="2.67804">
        <ele>776.8825684</ele>
        <time>2014-03-01T08:24:10Z</time>
      </trkpt>
      <trkpt lat="44.31216" lon="2.67816">
        <ele>775.9211426</ele>
        <time>2014-03-01T08:24:14Z</time>
      </trkpt>
      <trkpt lat="44.31214" lon="2.67828">
        <ele>776.8825684</ele>
        <time>2014-03-01T08:24:19Z</time>
      </trkpt>
      <trkpt lat="44.31213" lon="2.67841">
        <ele>777.3632813</ele>
        <time>2014-03-01T08:24:24Z</time>
      </trkpt>
      <trkpt lat="44.31209" lon="2.67855">
        <ele>780.2473145</ele>
        <time>2014-03-01T08:24:29Z</time>
      </trkpt>
      <trkpt lat="44.31204" lon="2.67867">
        <ele>783.1311035</ele>
        <time>2014-03-01T08:24:34Z</time>
      </trkpt>
      <trkpt lat="44.31197" lon="2.67875">
        <ele>783.6118164</ele>
        <time>2014-03-01T08:24:38Z</time>
      </trkpt>
      <trkpt lat="44.31195" lon="2.67877">
        <ele>783.6118164</ele>
        <time>2014-03-01T08:24:39Z</time>
      </trkpt>
      <trkpt lat="44.31185" lon="2.67886">
        <ele>783.6118164</ele>
        <time>2014-03-01T08:24:44Z</time>
      </trkpt>
      <trkpt lat="44.31173" lon="2.67895">
        <ele>783.6118164</ele>
        <time>2014-03-01T08:24:49Z</time>
      </trkpt>
      <trkpt lat="44.31165" lon="2.67902">
        <ele>783.1311035</ele>
        <time>2014-03-01T08:24:52Z</time>
      </trkpt>
      <trkpt lat="44.31157" lon="2.67921">
        <ele>783.1311035</ele>
        <time>2014-03-01T08:24:58Z</time>
      </trkpt>
      <trkpt lat="44.31155" lon="2.67942">
        <ele>782.6506348</ele>
        <time>2014-03-01T08:25:04Z</time>
      </trkpt>
      <trkpt lat="44.31152" lon="2.67962">
        <ele>782.1699219</ele>
        <time>2014-03-01T08:25:09Z</time>
      </trkpt>
      <trkpt lat="44.31148" lon="2.67986">
        <ele>781.689209</ele>
        <time>2014-03-01T08:25:15Z</time>
      </trkpt>
      <trkpt lat="44.31143" lon="2.68008">
        <ele>781.2087402</ele>
        <time>2014-03-01T08:25:21Z</time>
      </trkpt>
      <trkpt lat="44.31137" lon="2.68032">
        <ele>782.6506348</ele>
        <time>2014-03-01T08:25:28Z</time>
      </trkpt>
      <trkpt lat="44.31133" lon="2.68047">
        <ele>784.0925293</ele>
        <time>2014-03-01T08:25:33Z</time>
      </trkpt>
      <trkpt lat="44.31128" lon="2.68062">
        <ele>786.9763184</ele>
        <time>2014-03-01T08:25:38Z</time>
      </trkpt>
      <trkpt lat="44.31124" lon="2.68072">
        <ele>788.8991699</ele>
        <time>2014-03-01T08:25:43Z</time>
      </trkpt>
      <trkpt lat="44.31124" lon="2.68074">
        <ele>789.3796387</ele>
        <time>2014-03-01T08:25:44Z</time>
      </trkpt>
      <trkpt lat="44.31123" lon="2.6809">
        <ele>791.782959</ele>
        <time>2014-03-01T08:25:51Z</time>
      </trkpt>
      <trkpt lat="44.31126" lon="2.68106">
        <ele>792.2636719</ele>
        <time>2014-03-01T08:25:57Z</time>
      </trkpt>
      <trkpt lat="44.31126" lon="2.68107">
        <ele>793.2248535</ele>
        <time>2014-03-01T08:26:01Z</time>
      </trkpt>
      <trkpt lat="44.31128" lon="2.68114">
        <ele>792.7443848</ele>
        <time>2014-03-01T08:26:04Z</time>
      </trkpt>
      <trkpt lat="44.31129" lon="2.68127">
        <ele>793.2248535</ele>
        <time>2014-03-01T08:26:08Z</time>
      </trkpt>
      <trkpt lat="44.31127" lon="2.68135">
        <ele>793.2248535</ele>
        <time>2014-03-01T08:26:13Z</time>
      </trkpt>
      <trkpt lat="44.31127" lon="2.68138">
        <ele>794.1862793</ele>
        <time>2014-03-01T08:26:15Z</time>
      </trkpt>
      <trkpt lat="44.31128" lon="2.68154">
        <ele>795.6281738</ele>
        <time>2014-03-01T08:26:20Z</time>
      </trkpt>
      <trkpt lat="44.31131" lon="2.68176">
        <ele>796.5898438</ele>
        <time>2014-03-01T08:26:26Z</time>
      </trkpt>
      <trkpt lat="44.31132" lon="2.68193">
        <ele>797.0703125</ele>
        <time>2014-03-01T08:26:31Z</time>
      </trkpt>
      <trkpt lat="44.31133" lon="2.682">
        <ele>798.0317383</ele>
        <time>2014-03-01T08:26:33Z</time>
      </trkpt>
      <trkpt lat="44.31134" lon="2.68226">
        <ele>797.5510254</ele>
        <time>2014-03-01T08:26:40Z</time>
      </trkpt>
      <trkpt lat="44.31134" lon="2.68244">
        <ele>798.0317383</ele>
        <time>2014-03-01T08:26:45Z</time>
      </trkpt>
      <trkpt lat="44.31133" lon="2.68261">
        <ele>798.0317383</ele>
        <time>2014-03-01T08:26:50Z</time>
      </trkpt>
      <trkpt lat="44.31128" lon="2.68279">
        <ele>798.0317383</ele>
        <time>2014-03-01T08:26:55Z</time>
      </trkpt>
      <trkpt lat="44.3112" lon="2.68297">
        <ele>798.0317383</ele>
        <time>2014-03-01T08:27:01Z</time>
      </trkpt>
      <trkpt lat="44.31114" lon="2.68314">
        <ele>797.0703125</ele>
        <time>2014-03-01T08:27:06Z</time>
      </trkpt>
      <trkpt lat="44.31106" lon="2.68335">
        <ele>798.0317383</ele>
        <time>2014-03-01T08:27:12Z</time>
      </trkpt>
      <trkpt lat="44.31101" lon="2.68357">
        <ele>798.512207</ele>
        <time>2014-03-01T08:27:18Z</time>
      </trkpt>
      <trkpt lat="44.31101" lon="2.68383">
        <ele>800.4350586</ele>
        <time>2014-03-01T08:27:24Z</time>
      </trkpt>
      <trkpt lat="44.31095" lon="2.68408">
        <ele>801.8769531</ele>
        <time>2014-03-01T08:27:30Z</time>
      </trkpt>
      <trkpt lat="44.31087" lon="2.68421">
        <ele>802.8381348</ele>
        <time>2014-03-01T08:27:35Z</time>
      </trkpt>
      <trkpt lat="44.31075" lon="2.68441">
        <ele>803.3188477</ele>
        <time>2014-03-01T08:27:41Z</time>
      </trkpt>
      <trkpt lat="44.31063" lon="2.68458">
        <ele>803.7995605</ele>
        <time>2014-03-01T08:27:47Z</time>
      </trkpt>
      <trkpt lat="44.31053" lon="2.68473">
        <ele>804.2802734</ele>
        <time>2014-03-01T08:27:52Z</time>
      </trkpt>
      <trkpt lat="44.31041" lon="2.68489">
        <ele>805.2414551</ele>
        <time>2014-03-01T08:27:58Z</time>
      </trkpt>
      <trkpt lat="44.31031" lon="2.68499">
        <ele>806.2026367</ele>
        <time>2014-03-01T08:28:02Z</time>
      </trkpt>
      <trkpt lat="44.31014" lon="2.68516">
        <ele>805.722168</ele>
        <time>2014-03-01T08:28:09Z</time>
      </trkpt>
      <trkpt lat="44.31003" lon="2.68526">
        <ele>806.2026367</ele>
        <time>2014-03-01T08:28:14Z</time>
      </trkpt>
      <trkpt lat="44.30992" lon="2.68538">
        <ele>806.2026367</ele>
        <time>2014-03-01T08:28:19Z</time>
      </trkpt>
      <trkpt lat="44.3098" lon="2.68551">
        <ele>806.2026367</ele>
        <time>2014-03-01T08:28:24Z</time>
      </trkpt>
      <trkpt lat="44.30976" lon="2.68556">
        <ele>805.722168</ele>
        <time>2014-03-01T08:28:27Z</time>
      </trkpt>
      <trkpt lat="44.30976" lon="2.68555">
        <ele>804.7607422</ele>
        <time>2014-03-01T08:28:33Z</time>
      </trkpt>
      <trkpt lat="44.30975" lon="2.68557">
        <ele>804.2802734</ele>
        <time>2014-03-01T08:28:42Z</time>
      </trkpt>
      <trkpt lat="44.30972" lon="2.68559">
        <ele>803.3188477</ele>
        <time>2014-03-01T08:28:48Z</time>
      </trkpt>
      <trkpt lat="44.30965" lon="2.68568">
        <ele>802.3574219</ele>
        <time>2014-03-01T08:28:56Z</time>
      </trkpt>
      <trkpt lat="44.30953" lon="2.68582">
        <ele>801.3962402</ele>
        <time>2014-03-01T08:29:03Z</time>
      </trkpt>
      <trkpt lat="44.30941" lon="2.68588">
        <ele>799.4736328</ele>
        <time>2014-03-01T08:29:08Z</time>
      </trkpt>
      <trkpt lat="44.30927" lon="2.68591">
        <ele>797.5510254</ele>
        <time>2014-03-01T08:29:13Z</time>
      </trkpt>
      <trkpt lat="44.30914" lon="2.68603">
        <ele>796.5898438</ele>
        <time>2014-03-01T08:29:18Z</time>
      </trkpt>
      <trkpt lat="44.309" lon="2.68615">
        <ele>795.1474609</ele>
        <time>2014-03-01T08:29:23Z</time>
      </trkpt>
      <trkpt lat="44.30883" lon="2.68632">
        <ele>793.2248535</ele>
        <time>2014-03-01T08:29:30Z</time>
      </trkpt>
      <trkpt lat="44.3087" lon="2.68642">
        <ele>792.7443848</ele>
        <time>2014-03-01T08:29:35Z</time>
      </trkpt>
      <trkpt lat="44.30859" lon="2.68654">
        <ele>792.7443848</ele>
        <time>2014-03-01T08:29:40Z</time>
      </trkpt>
      <trkpt lat="44.30851" lon="2.68664">
        <ele>793.2248535</ele>
        <time>2014-03-01T08:29:44Z</time>
      </trkpt>
      <trkpt lat="44.30844" lon="2.68676">
        <ele>794.666748</ele>
        <time>2014-03-01T08:29:49Z</time>
      </trkpt>
      <trkpt lat="44.30836" lon="2.68694">
        <ele>796.5898438</ele>
        <time>2014-03-01T08:29:55Z</time>
      </trkpt>
      <trkpt lat="44.30829" lon="2.68708">
        <ele>797.0703125</ele>
        <time>2014-03-01T08:30:00Z</time>
      </trkpt>
      <trkpt lat="44.3082" lon="2.68718">
        <ele>798.9929199</ele>
        <time>2014-03-01T08:30:05Z</time>
      </trkpt>
      <trkpt lat="44.30807" lon="2.6873">
        <ele>799.4736328</ele>
        <time>2014-03-01T08:30:11Z</time>
      </trkpt>
      <trkpt lat="44.30794" lon="2.68738">
        <ele>800.9155273</ele>
        <time>2014-03-01T08:30:17Z</time>
      </trkpt>
      <trkpt lat="44.30783" lon="2.68746">
        <ele>800.9155273</ele>
        <time>2014-03-01T08:30:22Z</time>
      </trkpt>
      <trkpt lat="44.30771" lon="2.68757">
        <ele>799.9543457</ele>
        <time>2014-03-01T08:30:28Z</time>
      </trkpt>
      <trkpt lat="44.30765" lon="2.68763">
        <ele>799.9543457</ele>
        <time>2014-03-01T08:30:31Z</time>
      </trkpt>
      <trkpt lat="44.30752" lon="2.68782">
        <ele>801.8769531</ele>
        <time>2014-03-01T08:30:39Z</time>
      </trkpt>
      <trkpt lat="44.30742" lon="2.68794">
        <ele>801.8769531</ele>
        <time>2014-03-01T08:30:45Z</time>
      </trkpt>
      <trkpt lat="44.30732" lon="2.68808">
        <ele>801.8769531</ele>
        <time>2014-03-01T08:30:51Z</time>
      </trkpt>
      <trkpt lat="44.30723" lon="2.6882">
        <ele>802.8381348</ele>
        <time>2014-03-01T08:30:56Z</time>
      </trkpt>
      <trkpt lat="44.30714" lon="2.68833">
        <ele>804.2802734</ele>
        <time>2014-03-01T08:31:02Z</time>
      </trkpt>
      <trkpt lat="44.30707" lon="2.68843">
        <ele>805.2414551</ele>
        <time>2014-03-01T08:31:07Z</time>
      </trkpt>
      <trkpt lat="44.30695" lon="2.6886">
        <ele>807.6447754</ele>
        <time>2014-03-01T08:31:14Z</time>
      </trkpt>
      <trkpt lat="44.30683" lon="2.68877">
        <ele>809.5673828</ele>
        <time>2014-03-01T08:31:21Z</time>
      </trkpt>
      <trkpt lat="44.30675" lon="2.68891">
        <ele>810.5285645</ele>
        <time>2014-03-01T08:31:26Z</time>
      </trkpt>
      <trkpt lat="44.30664" lon="2.68909">
        <ele>811.9707031</ele>
        <time>2014-03-01T08:31:32Z</time>
      </trkpt>
      <trkpt lat="44.30655" lon="2.68923">
        <ele>812.451416</ele>
        <time>2014-03-01T08:31:37Z</time>
      </trkpt>
      <trkpt lat="44.30648" lon="2.68937">
        <ele>813.4128418</ele>
        <time>2014-03-01T08:31:42Z</time>
      </trkpt>
      <trkpt lat="44.30639" lon="2.68956">
        <ele>813.8933105</ele>
        <time>2014-03-01T08:31:48Z</time>
      </trkpt>
      <trkpt lat="44.30631" lon="2.68978">
        <ele>815.3354492</ele>
        <time>2014-03-01T08:31:54Z</time>
      </trkpt>
      <trkpt lat="44.30627" lon="2.69001">
        <ele>817.2580566</ele>
        <time>2014-03-01T08:32:00Z</time>
      </trkpt>
      <trkpt lat="44.30623" lon="2.69027">
        <ele>818.2192383</ele>
        <time>2014-03-01T08:32:07Z</time>
      </trkpt>
      <trkpt lat="44.30619" lon="2.69045">
        <ele>818.2192383</ele>
        <time>2014-03-01T08:32:12Z</time>
      </trkpt>
      <trkpt lat="44.30616" lon="2.69067">
        <ele>819.1806641</ele>
        <time>2014-03-01T08:32:18Z</time>
      </trkpt>
      <trkpt lat="44.30611" lon="2.69093">
        <ele>819.1806641</ele>
        <time>2014-03-01T08:32:25Z</time>
      </trkpt>
      <trkpt lat="44.30608" lon="2.69113">
        <ele>820.1418457</ele>
        <time>2014-03-01T08:32:30Z</time>
      </trkpt>
      <trkpt lat="44.30605" lon="2.69137">
        <ele>820.6225586</ele>
        <time>2014-03-01T08:32:36Z</time>
      </trkpt>
      <trkpt lat="44.30602" lon="2.6916">
        <ele>821.5837402</ele>
        <time>2014-03-01T08:32:42Z</time>
      </trkpt>
      <trkpt lat="44.30598" lon="2.69187">
        <ele>822.0644531</ele>
        <time>2014-03-01T08:32:49Z</time>
      </trkpt>
      <trkpt lat="44.30594" lon="2.69207">
        <ele>822.545166</ele>
        <time>2014-03-01T08:32:54Z</time>
      </trkpt>
      <trkpt lat="44.30588" lon="2.69234">
        <ele>823.9870605</ele>
        <time>2014-03-01T08:33:01Z</time>
      </trkpt>
      <trkpt lat="44.30578" lon="2.69252">
        <ele>823.9870605</ele>
        <time>2014-03-01T08:33:07Z</time>
      </trkpt>
      <trkpt lat="44.30564" lon="2.69266">
        <ele>824.4677734</ele>
        <time>2014-03-01T08:33:13Z</time>
      </trkpt>
      <trkpt lat="44.30552" lon="2.69271">
        <ele>823.5065918</ele>
        <time>2014-03-01T08:33:18Z</time>
      </trkpt>
      <trkpt lat="44.3055" lon="2.69272">
        <ele>823.5065918</ele>
        <time>2014-03-01T08:33:19Z</time>
      </trkpt>
      <trkpt lat="44.3055" lon="2.69281">
        <ele>823.0258789</ele>
        <time>2014-03-01T08:33:23Z</time>
      </trkpt>
      <trkpt lat="44.30551" lon="2.69282">
        <ele>822.545166</ele>
        <time>2014-03-01T08:33:24Z</time>
      </trkpt>
      <trkpt lat="44.30567" lon="2.6929">
        <ele>822.545166</ele>
        <time>2014-03-01T08:33:30Z</time>
      </trkpt>
      <trkpt lat="44.3058" lon="2.69299">
        <ele>823.5065918</ele>
        <time>2014-03-01T08:33:35Z</time>
      </trkpt>
      <trkpt lat="44.30598" lon="2.69313">
        <ele>823.0258789</ele>
        <time>2014-03-01T08:33:42Z</time>
      </trkpt>
      <trkpt lat="44.30615" lon="2.69319">
        <ele>825.4289551</ele>
        <time>2014-03-01T08:33:48Z</time>
      </trkpt>
      <trkpt lat="44.30627" lon="2.69321">
        <ele>825.909668</ele>
        <time>2014-03-01T08:33:52Z</time>
      </trkpt>
      <trkpt lat="44.30644" lon="2.69328">
        <ele>826.8710938</ele>
        <time>2014-03-01T08:33:58Z</time>
      </trkpt>
      <trkpt lat="44.30657" lon="2.69335">
        <ele>827.8322754</ele>
        <time>2014-03-01T08:34:03Z</time>
      </trkpt>
      <trkpt lat="44.30671" lon="2.69344">
        <ele>827.3518066</ele>
        <time>2014-03-01T08:34:08Z</time>
      </trkpt>
      <trkpt lat="44.30681" lon="2.69358">
        <ele>826.3903809</ele>
        <time>2014-03-01T08:34:13Z</time>
      </trkpt>
      <trkpt lat="44.30688" lon="2.69373">
        <ele>824.9484863</ele>
        <time>2014-03-01T08:34:18Z</time>
      </trkpt>
      <trkpt lat="44.30699" lon="2.6939">
        <ele>823.5065918</ele>
        <time>2014-03-01T08:34:24Z</time>
      </trkpt>
      <trkpt lat="44.30713" lon="2.69403">
        <ele>822.545166</ele>
        <time>2014-03-01T08:34:30Z</time>
      </trkpt>
      <trkpt lat="44.30726" lon="2.69413">
        <ele>822.0644531</ele>
        <time>2014-03-01T08:34:35Z</time>
      </trkpt>
      <trkpt lat="44.30739" lon="2.69423">
        <ele>822.545166</ele>
        <time>2014-03-01T08:34:40Z</time>
      </trkpt>
      <trkpt lat="44.30749" lon="2.69433">
        <ele>823.5065918</ele>
        <time>2014-03-01T08:34:44Z</time>
      </trkpt>
      <trkpt lat="44.30763" lon="2.6945">
        <ele>824.4677734</ele>
        <time>2014-03-01T08:34:50Z</time>
      </trkpt>
      <trkpt lat="44.30775" lon="2.69467">
        <ele>824.9484863</ele>
        <time>2014-03-01T08:34:55Z</time>
      </trkpt>
      <trkpt lat="44.30785" lon="2.69483">
        <ele>825.909668</ele>
        <time>2014-03-01T08:35:00Z</time>
      </trkpt>
      <trkpt lat="44.30793" lon="2.69498">
        <ele>825.4289551</ele>
        <time>2014-03-01T08:35:05Z</time>
      </trkpt>
      <trkpt lat="44.30803" lon="2.69514">
        <ele>826.3903809</ele>
        <time>2014-03-01T08:35:10Z</time>
      </trkpt>
      <trkpt lat="44.30813" lon="2.6953">
        <ele>826.3903809</ele>
        <time>2014-03-01T08:35:15Z</time>
      </trkpt>
      <trkpt lat="44.30824" lon="2.69542">
        <ele>826.3903809</ele>
        <time>2014-03-01T08:35:20Z</time>
      </trkpt>
      <trkpt lat="44.30835" lon="2.69556">
        <ele>825.909668</ele>
        <time>2014-03-01T08:35:25Z</time>
      </trkpt>
      <trkpt lat="44.30848" lon="2.69571">
        <ele>825.909668</ele>
        <time>2014-03-01T08:35:31Z</time>
      </trkpt>
      <trkpt lat="44.30856" lon="2.69582">
        <ele>825.909668</ele>
        <time>2014-03-01T08:35:35Z</time>
      </trkpt>
      <trkpt lat="44.30865" lon="2.69597">
        <ele>826.8710938</ele>
        <time>2014-03-01T08:35:40Z</time>
      </trkpt>
      <trkpt lat="44.30877" lon="2.69615">
        <ele>827.8322754</ele>
        <time>2014-03-01T08:35:46Z</time>
      </trkpt>
      <trkpt lat="44.30886" lon="2.69635">
        <ele>828.3132324</ele>
        <time>2014-03-01T08:35:52Z</time>
      </trkpt>
      <trkpt lat="44.30889" lon="2.69653">
        <ele>828.7939453</ele>
        <time>2014-03-01T08:35:57Z</time>
      </trkpt>
      <trkpt lat="44.30894" lon="2.69678">
        <ele>830.7165527</ele>
        <time>2014-03-01T08:36:04Z</time>
      </trkpt>
      <trkpt lat="44.30901" lon="2.697">
        <ele>832.1584473</ele>
        <time>2014-03-01T08:36:10Z</time>
      </trkpt>
      <trkpt lat="44.30906" lon="2.69717">
        <ele>832.1584473</ele>
        <time>2014-03-01T08:36:15Z</time>
      </trkpt>
      <trkpt lat="44.30914" lon="2.69736">
        <ele>831.1972656</ele>
        <time>2014-03-01T08:36:21Z</time>
      </trkpt>
      <trkpt lat="44.30921" lon="2.69749">
        <ele>829.755127</ele>
        <time>2014-03-01T08:36:25Z</time>
      </trkpt>
      <trkpt lat="44.3093" lon="2.69766">
        <ele>831.1972656</ele>
        <time>2014-03-01T08:36:31Z</time>
      </trkpt>
      <trkpt lat="44.30943" lon="2.69785">
        <ele>832.1584473</ele>
        <time>2014-03-01T08:36:38Z</time>
      </trkpt>
      <trkpt lat="44.30955" lon="2.69799">
        <ele>832.6391602</ele>
        <time>2014-03-01T08:36:44Z</time>
      </trkpt>
      <trkpt lat="44.30965" lon="2.69811">
        <ele>833.1196289</ele>
        <time>2014-03-01T08:36:49Z</time>
      </trkpt>
      <trkpt lat="44.30978" lon="2.69825">
        <ele>834.0810547</ele>
        <time>2014-03-01T08:36:55Z</time>
      </trkpt>
      <trkpt lat="44.30991" lon="2.69837">
        <ele>835.5229492</ele>
        <time>2014-03-01T08:37:01Z</time>
      </trkpt>
      <trkpt lat="44.31003" lon="2.69847">
        <ele>836.0036621</ele>
        <time>2014-03-01T08:37:06Z</time>
      </trkpt>
      <trkpt lat="44.31015" lon="2.69857">
        <ele>836.0036621</ele>
        <time>2014-03-01T08:37:11Z</time>
      </trkpt>
      <trkpt lat="44.31028" lon="2.69867">
        <ele>836.484375</ele>
        <time>2014-03-01T08:37:16Z</time>
      </trkpt>
      <trkpt lat="44.31043" lon="2.69878">
        <ele>836.484375</ele>
        <time>2014-03-01T08:37:22Z</time>
      </trkpt>
      <trkpt lat="44.31058" lon="2.69882">
        <ele>837.4455566</ele>
        <time>2014-03-01T08:37:28Z</time>
      </trkpt>
      <trkpt lat="44.31081" lon="2.69884">
        <ele>838.8876953</ele>
        <time>2014-03-01T08:37:36Z</time>
      </trkpt>
      <trkpt lat="44.31097" lon="2.69885">
        <ele>839.848877</ele>
        <time>2014-03-01T08:37:42Z</time>
      </trkpt>
      <trkpt lat="44.31106" lon="2.6988">
        <ele>840.3295898</ele>
        <time>2014-03-01T08:37:46Z</time>
      </trkpt>
      <trkpt lat="44.31112" lon="2.69867">
        <ele>840.8100586</ele>
        <time>2014-03-01T08:37:50Z</time>
      </trkpt>
      <trkpt lat="44.3112" lon="2.6985">
        <ele>840.3295898</ele>
        <time>2014-03-01T08:37:55Z</time>
      </trkpt>
      <trkpt lat="44.31127" lon="2.69832">
        <ele>841.2907715</ele>
        <time>2014-03-01T08:38:00Z</time>
      </trkpt>
      <trkpt lat="44.31136" lon="2.69811">
        <ele>843.2133789</ele>
        <time>2014-03-01T08:38:06Z</time>
      </trkpt>
      <trkpt lat="44.31144" lon="2.69793">
        <ele>845.1362305</ele>
        <time>2014-03-01T08:38:11Z</time>
      </trkpt>
      <trkpt lat="44.31151" lon="2.69776">
        <ele>845.1362305</ele>
        <time>2014-03-01T08:38:16Z</time>
      </trkpt>
      <trkpt lat="44.31159" lon="2.6976">
        <ele>844.6555176</ele>
        <time>2014-03-01T08:38:21Z</time>
      </trkpt>
      <trkpt lat="44.31163" lon="2.69745">
        <ele>844.1750488</ele>
        <time>2014-03-01T08:38:25Z</time>
      </trkpt>
      <trkpt lat="44.3117" lon="2.69734">
        <ele>843.6940918</ele>
        <time>2014-03-01T08:38:30Z</time>
      </trkpt>
      <trkpt lat="44.31176" lon="2.69735">
        <ele>842.7329102</ele>
        <time>2014-03-01T08:38:33Z</time>
      </trkpt>
      <trkpt lat="44.31178" lon="2.69737">
        <ele>842.2521973</ele>
        <time>2014-03-01T08:38:35Z</time>
      </trkpt>
      <trkpt lat="44.31183" lon="2.69747">
        <ele>840.3295898</ele>
        <time>2014-03-01T08:38:40Z</time>
      </trkpt>
      <trkpt lat="44.31196" lon="2.69763">
        <ele>838.8876953</ele>
        <time>2014-03-01T08:38:48Z</time>
      </trkpt>
      <trkpt lat="44.31204" lon="2.69773">
        <ele>838.8876953</ele>
        <time>2014-03-01T08:38:53Z</time>
      </trkpt>
      <trkpt lat="44.31212" lon="2.69783">
        <ele>837.4455566</ele>
        <time>2014-03-01T08:38:58Z</time>
      </trkpt>
      <trkpt lat="44.31222" lon="2.69794">
        <ele>836.9648438</ele>
        <time>2014-03-01T08:39:04Z</time>
      </trkpt>
      <trkpt lat="44.31232" lon="2.69806">
        <ele>836.484375</ele>
        <time>2014-03-01T08:39:10Z</time>
      </trkpt>
      <trkpt lat="44.3124" lon="2.69816">
        <ele>836.9648438</ele>
        <time>2014-03-01T08:39:15Z</time>
      </trkpt>
      <trkpt lat="44.31248" lon="2.69825">
        <ele>836.9648438</ele>
        <time>2014-03-01T08:39:20Z</time>
      </trkpt>
      <trkpt lat="44.3126" lon="2.69838">
        <ele>837.4455566</ele>
        <time>2014-03-01T08:39:27Z</time>
      </trkpt>
      <trkpt lat="44.31268" lon="2.69844">
        <ele>837.9262695</ele>
        <time>2014-03-01T08:39:32Z</time>
      </trkpt>
      <trkpt lat="44.31278" lon="2.69853">
        <ele>841.7714844</ele>
        <time>2014-03-01T08:39:37Z</time>
      </trkpt>
      <trkpt lat="44.31288" lon="2.69864">
        <ele>842.2521973</ele>
        <time>2014-03-01T08:39:42Z</time>
      </trkpt>
      <trkpt lat="44.31303" lon="2.69876">
        <ele>844.1750488</ele>
        <time>2014-03-01T08:39:49Z</time>
      </trkpt>
      <trkpt lat="44.31313" lon="2.69887">
        <ele>845.1362305</ele>
        <time>2014-03-01T08:39:54Z</time>
      </trkpt>
      <trkpt lat="44.31327" lon="2.69898">
        <ele>848.0202637</ele>
        <time>2014-03-01T08:40:00Z</time>
      </trkpt>
      <trkpt lat="44.31341" lon="2.69912">
        <ele>850.423584</ele>
        <time>2014-03-01T08:40:06Z</time>
      </trkpt>
      <trkpt lat="44.31353" lon="2.69925">
        <ele>850.9040527</ele>
        <time>2014-03-01T08:40:12Z</time>
      </trkpt>
      <trkpt lat="44.31364" lon="2.69935">
        <ele>850.9040527</ele>
        <time>2014-03-01T08:40:17Z</time>
      </trkpt>
      <trkpt lat="44.31378" lon="2.69945">
        <ele>850.423584</ele>
        <time>2014-03-01T08:40:23Z</time>
      </trkpt>
      <trkpt lat="44.31389" lon="2.69956">
        <ele>849.4621582</ele>
        <time>2014-03-01T08:40:28Z</time>
      </trkpt>
      <trkpt lat="44.31395" lon="2.6997">
        <ele>849.9428711</ele>
        <time>2014-03-01T08:40:32Z</time>
      </trkpt>
      <trkpt lat="44.31397" lon="2.69987">
        <ele>850.9040527</ele>
        <time>2014-03-01T08:40:37Z</time>
      </trkpt>
      <trkpt lat="44.31396" lon="2.70007">
        <ele>851.8654785</ele>
        <time>2014-03-01T08:40:43Z</time>
      </trkpt>
      <trkpt lat="44.31396" lon="2.70029">
        <ele>852.3459473</ele>
        <time>2014-03-01T08:40:49Z</time>
      </trkpt>
      <trkpt lat="44.31397" lon="2.70049">
        <ele>851.8654785</ele>
        <time>2014-03-01T08:40:54Z</time>
      </trkpt>
      <trkpt lat="44.31397" lon="2.70059">
        <ele>851.8654785</ele>
        <time>2014-03-01T08:40:57Z</time>
      </trkpt>
      <trkpt lat="44.31405" lon="2.70065">
        <ele>850.423584</ele>
        <time>2014-03-01T08:41:02Z</time>
      </trkpt>
      <trkpt lat="44.31413" lon="2.70069">
        <ele>848.9814453</ele>
        <time>2014-03-01T08:41:06Z</time>
      </trkpt>
      <trkpt lat="44.31418" lon="2.70074">
        <ele>848.9814453</ele>
        <time>2014-03-01T08:41:09Z</time>
      </trkpt>
      <trkpt lat="44.31433" lon="2.70081">
        <ele>845.6169434</ele>
        <time>2014-03-01T08:41:16Z</time>
      </trkpt>
      <trkpt lat="44.31443" lon="2.70085">
        <ele>844.6555176</ele>
        <time>2014-03-01T08:41:21Z</time>
      </trkpt>
      <trkpt lat="44.31458" lon="2.7009">
        <ele>843.6940918</ele>
        <time>2014-03-01T08:41:28Z</time>
      </trkpt>
      <trkpt lat="44.3147" lon="2.70092">
        <ele>844.1750488</ele>
        <time>2014-03-01T08:41:33Z</time>
      </trkpt>
      <trkpt lat="44.31486" lon="2.70098">
        <ele>846.5783691</ele>
        <time>2014-03-01T08:41:38Z</time>
      </trkpt>
      <trkpt lat="44.31503" lon="2.70106">
        <ele>847.5395508</ele>
        <time>2014-03-01T08:41:44Z</time>
      </trkpt>
      <trkpt lat="44.31519" lon="2.70112">
        <ele>848.0202637</ele>
        <time>2014-03-01T08:41:50Z</time>
      </trkpt>
      <trkpt lat="44.31535" lon="2.70119">
        <ele>848.5007324</ele>
        <time>2014-03-01T08:41:56Z</time>
      </trkpt>
      <trkpt lat="44.31548" lon="2.70119">
        <ele>849.4621582</ele>
        <time>2014-03-01T08:42:01Z</time>
      </trkpt>
      <trkpt lat="44.31564" lon="2.70108">
        <ele>847.5395508</ele>
        <time>2014-03-01T08:42:07Z</time>
      </trkpt>
      <trkpt lat="44.31576" lon="2.70095">
        <ele>845.6169434</ele>
        <time>2014-03-01T08:42:12Z</time>
      </trkpt>
      <trkpt lat="44.31588" lon="2.7008">
        <ele>844.1750488</ele>
        <time>2014-03-01T08:42:18Z</time>
      </trkpt>
      <trkpt lat="44.31595" lon="2.70075">
        <ele>844.1750488</ele>
        <time>2014-03-01T08:42:21Z</time>
      </trkpt>
      <trkpt lat="44.3161" lon="2.70062">
        <ele>843.6940918</ele>
        <time>2014-03-01T08:42:27Z</time>
      </trkpt>
      <trkpt lat="44.31617" lon="2.70055">
        <ele>843.6940918</ele>
        <time>2014-03-01T08:42:30Z</time>
      </trkpt>
      <trkpt lat="44.31629" lon="2.70043">
        <ele>841.2907715</ele>
        <time>2014-03-01T08:42:35Z</time>
      </trkpt>
      <trkpt lat="44.31642" lon="2.70027">
        <ele>838.4069824</ele>
        <time>2014-03-01T08:42:41Z</time>
      </trkpt>
      <trkpt lat="44.31656" lon="2.70013">
        <ele>836.484375</ele>
        <time>2014-03-01T08:42:47Z</time>
      </trkpt>
      <trkpt lat="44.31667" lon="2.69999">
        <ele>836.0036621</ele>
        <time>2014-03-01T08:42:52Z</time>
      </trkpt>
      <trkpt lat="44.31679" lon="2.69988">
        <ele>836.0036621</ele>
        <time>2014-03-01T08:42:57Z</time>
      </trkpt>
      <trkpt lat="44.3169" lon="2.69976">
        <ele>834.5617676</ele>
        <time>2014-03-01T08:43:02Z</time>
      </trkpt>
      <trkpt lat="44.31701" lon="2.69963">
        <ele>834.5617676</ele>
        <time>2014-03-01T08:43:07Z</time>
      </trkpt>
      <trkpt lat="44.31711" lon="2.69951">
        <ele>835.5229492</ele>
        <time>2014-03-01T08:43:12Z</time>
      </trkpt>
      <trkpt lat="44.31722" lon="2.69937">
        <ele>837.4455566</ele>
        <time>2014-03-01T08:43:18Z</time>
      </trkpt>
      <trkpt lat="44.31735" lon="2.69926">
        <ele>838.8876953</ele>
        <time>2014-03-01T08:43:24Z</time>
      </trkpt>
      <trkpt lat="44.31743" lon="2.69917">
        <ele>838.8876953</ele>
        <time>2014-03-01T08:43:28Z</time>
      </trkpt>
      <trkpt lat="44.31756" lon="2.69905">
        <ele>837.9262695</ele>
        <time>2014-03-01T08:43:34Z</time>
      </trkpt>
      <trkpt lat="44.31766" lon="2.69894">
        <ele>836.484375</ele>
        <time>2014-03-01T08:43:39Z</time>
      </trkpt>
      <trkpt lat="44.31779" lon="2.69882">
        <ele>835.0424805</ele>
        <time>2014-03-01T08:43:45Z</time>
      </trkpt>
      <trkpt lat="44.31792" lon="2.69869">
        <ele>832.6391602</ele>
        <time>2014-03-01T08:43:51Z</time>
      </trkpt>
      <trkpt lat="44.318" lon="2.69857">
        <ele>831.6777344</ele>
        <time>2014-03-01T08:43:56Z</time>
      </trkpt>
      <trkpt lat="44.31811" lon="2.69843">
        <ele>830.7165527</ele>
        <time>2014-03-01T08:44:01Z</time>
      </trkpt>
      <trkpt lat="44.31822" lon="2.69829">
        <ele>830.7165527</ele>
        <time>2014-03-01T08:44:07Z</time>
      </trkpt>
      <trkpt lat="44.31836" lon="2.69816">
        <ele>830.2358398</ele>
        <time>2014-03-01T08:44:13Z</time>
      </trkpt>
      <trkpt lat="44.31849" lon="2.69805">
        <ele>829.755127</ele>
        <time>2014-03-01T08:44:19Z</time>
      </trkpt>
      <trkpt lat="44.31858" lon="2.69794">
        <ele>828.3132324</ele>
        <time>2014-03-01T08:44:24Z</time>
      </trkpt>
      <trkpt lat="44.31865" lon="2.69788">
        <ele>827.8322754</ele>
        <time>2014-03-01T08:44:28Z</time>
      </trkpt>
      <trkpt lat="44.31874" lon="2.69776">
        <ele>825.909668</ele>
        <time>2014-03-01T08:44:33Z</time>
      </trkpt>
      <trkpt lat="44.31888" lon="2.69762">
        <ele>824.4677734</ele>
        <time>2014-03-01T08:44:40Z</time>
      </trkpt>
      <trkpt lat="44.31894" lon="2.69759">
        <ele>823.0258789</ele>
        <time>2014-03-01T08:44:43Z</time>
      </trkpt>
      <trkpt lat="44.31907" lon="2.69746">
        <ele>819.661377</ele>
        <time>2014-03-01T08:44:49Z</time>
      </trkpt>
      <trkpt lat="44.31917" lon="2.69737">
        <ele>820.1418457</ele>
        <time>2014-03-01T08:44:54Z</time>
      </trkpt>
      <trkpt lat="44.3193" lon="2.69724">
        <ele>816.7773438</ele>
        <time>2014-03-01T08:45:00Z</time>
      </trkpt>
      <trkpt lat="44.31942" lon="2.69716">
        <ele>813.8933105</ele>
        <time>2014-03-01T08:45:05Z</time>
      </trkpt>
      <trkpt lat="44.31947" lon="2.69712">
        <ele>813.8933105</ele>
        <time>2014-03-01T08:45:07Z</time>
      </trkpt>
      <trkpt lat="44.31957" lon="2.69704">
        <ele>815.3354492</ele>
        <time>2014-03-01T08:45:11Z</time>
      </trkpt>
      <trkpt lat="44.31975" lon="2.6969">
        <ele>818.6999512</ele>
        <time>2014-03-01T08:45:18Z</time>
      </trkpt>
      <trkpt lat="44.31987" lon="2.69677">
        <ele>819.1806641</ele>
        <time>2014-03-01T08:45:23Z</time>
      </trkpt>
      <trkpt lat="44.31996" lon="2.69666">
        <ele>818.6999512</ele>
        <time>2014-03-01T08:45:27Z</time>
      </trkpt>
      <trkpt lat="44.32008" lon="2.69656">
        <ele>819.661377</ele>
        <time>2014-03-01T08:45:32Z</time>
      </trkpt>
      <trkpt lat="44.3202" lon="2.69645">
        <ele>819.1806641</ele>
        <time>2014-03-01T08:45:37Z</time>
      </trkpt>
      <trkpt lat="44.32033" lon="2.69635">
        <ele>817.7385254</ele>
        <time>2014-03-01T08:45:42Z</time>
      </trkpt>
      <trkpt lat="44.32043" lon="2.69626">
        <ele>816.2966309</ele>
        <time>2014-03-01T08:45:46Z</time>
      </trkpt>
      <trkpt lat="44.32054" lon="2.69613">
        <ele>813.4128418</ele>
        <time>2014-03-01T08:45:51Z</time>
      </trkpt>
      <trkpt lat="44.32064" lon="2.69603">
        <ele>811.9707031</ele>
        <time>2014-03-01T08:45:55Z</time>
      </trkpt>
      <trkpt lat="44.32077" lon="2.69593">
        <ele>810.0478516</ele>
        <time>2014-03-01T08:46:00Z</time>
      </trkpt>
      <trkpt lat="44.32085" lon="2.69587">
        <ele>808.605957</ele>
        <time>2014-03-01T08:46:03Z</time>
      </trkpt>
      <trkpt lat="44.32095" lon="2.69595">
        <ele>805.2414551</ele>
        <time>2014-03-01T08:46:07Z</time>
      </trkpt>
      <trkpt lat="44.32097" lon="2.696">
        <ele>804.2802734</ele>
        <time>2014-03-01T08:46:09Z</time>
      </trkpt>
      <trkpt lat="44.321" lon="2.69592">
        <ele>802.8381348</ele>
        <time>2014-03-01T08:46:13Z</time>
      </trkpt>
      <trkpt lat="44.321" lon="2.69589">
        <ele>802.3574219</ele>
        <time>2014-03-01T08:46:14Z</time>
      </trkpt>
      <trkpt lat="44.32097" lon="2.6957">
        <ele>800.4350586</ele>
        <time>2014-03-01T08:46:19Z</time>
      </trkpt>
      <trkpt lat="44.32098" lon="2.69544">
        <ele>798.512207</ele>
        <time>2014-03-01T08:46:25Z</time>
      </trkpt>
      <trkpt lat="44.321" lon="2.69528">
        <ele>798.0317383</ele>
        <time>2014-03-01T08:46:29Z</time>
      </trkpt>
      <trkpt lat="44.32105" lon="2.69509">
        <ele>798.512207</ele>
        <time>2014-03-01T08:46:34Z</time>
      </trkpt>
      <trkpt lat="44.32106" lon="2.69506">
        <ele>798.512207</ele>
        <time>2014-03-01T08:46:35Z</time>
      </trkpt>
      <trkpt lat="44.32111" lon="2.69487">
        <ele>800.4350586</ele>
        <time>2014-03-01T08:46:41Z</time>
      </trkpt>
      <trkpt lat="44.32118" lon="2.69475">
        <ele>802.3574219</ele>
        <time>2014-03-01T08:46:46Z</time>
      </trkpt>
      <trkpt lat="44.32125" lon="2.6946">
        <ele>802.8381348</ele>
        <time>2014-03-01T08:46:52Z</time>
      </trkpt>
      <trkpt lat="44.32127" lon="2.69445">
        <ele>800.4350586</ele>
        <time>2014-03-01T08:46:57Z</time>
      </trkpt>
      <trkpt lat="44.32128" lon="2.69427">
        <ele>801.3962402</ele>
        <time>2014-03-01T08:47:03Z</time>
      </trkpt>
      <trkpt lat="44.32129" lon="2.69412">
        <ele>803.7995605</ele>
        <time>2014-03-01T08:47:08Z</time>
      </trkpt>
      <trkpt lat="44.3213" lon="2.69393">
        <ele>807.1640625</ele>
        <time>2014-03-01T08:47:14Z</time>
      </trkpt>
      <trkpt lat="44.32132" lon="2.69374">
        <ele>809.5673828</ele>
        <time>2014-03-01T08:47:20Z</time>
      </trkpt>
      <trkpt lat="44.32134" lon="2.69359">
        <ele>811.4899902</ele>
        <time>2014-03-01T08:47:25Z</time>
      </trkpt>
      <trkpt lat="44.32136" lon="2.69342">
        <ele>812.451416</ele>
        <time>2014-03-01T08:47:31Z</time>
      </trkpt>
      <trkpt lat="44.32137" lon="2.69324">
        <ele>813.4128418</ele>
        <time>2014-03-01T08:47:37Z</time>
      </trkpt>
      <trkpt lat="44.32141" lon="2.69303">
        <ele>813.8933105</ele>
        <time>2014-03-01T08:47:44Z</time>
      </trkpt>
      <trkpt lat="44.32143" lon="2.6929">
        <ele>814.8547363</ele>
        <time>2014-03-01T08:47:49Z</time>
      </trkpt>
      <trkpt lat="44.32145" lon="2.6927">
        <ele>815.8161621</ele>
        <time>2014-03-01T08:47:56Z</time>
      </trkpt>
      <trkpt lat="44.32146" lon="2.69256">
        <ele>816.7773438</ele>
        <time>2014-03-01T08:48:01Z</time>
      </trkpt>
      <trkpt lat="44.32147" lon="2.69234">
        <ele>819.1806641</ele>
        <time>2014-03-01T08:48:08Z</time>
      </trkpt>
      <trkpt lat="44.32145" lon="2.69212">
        <ele>821.5837402</ele>
        <time>2014-03-01T08:48:15Z</time>
      </trkpt>
      <trkpt lat="44.32144" lon="2.69196">
        <ele>822.0644531</ele>
        <time>2014-03-01T08:48:20Z</time>
      </trkpt>
      <trkpt lat="44.32143" lon="2.69177">
        <ele>823.5065918</ele>
        <time>2014-03-01T08:48:26Z</time>
      </trkpt>
      <trkpt lat="44.32143" lon="2.69162">
        <ele>823.0258789</ele>
        <time>2014-03-01T08:48:31Z</time>
      </trkpt>
      <trkpt lat="44.32143" lon="2.69148">
        <ele>823.5065918</ele>
        <time>2014-03-01T08:48:36Z</time>
      </trkpt>
      <trkpt lat="44.32142" lon="2.69134">
        <ele>824.9484863</ele>
        <time>2014-03-01T08:48:41Z</time>
      </trkpt>
      <trkpt lat="44.32141" lon="2.69119">
        <ele>827.3518066</ele>
        <time>2014-03-01T08:48:46Z</time>
      </trkpt>
      <trkpt lat="44.32138" lon="2.69104">
        <ele>828.7939453</ele>
        <time>2014-03-01T08:48:51Z</time>
      </trkpt>
      <trkpt lat="44.32133" lon="2.69088">
        <ele>828.3132324</ele>
        <time>2014-03-01T08:48:57Z</time>
      </trkpt>
      <trkpt lat="44.3213" lon="2.69077">
        <ele>827.8322754</ele>
        <time>2014-03-01T08:49:01Z</time>
      </trkpt>
      <trkpt lat="44.32125" lon="2.69056">
        <ele>827.8322754</ele>
        <time>2014-03-01T08:49:09Z</time>
      </trkpt>
      <trkpt lat="44.32119" lon="2.69039">
        <ele>827.8322754</ele>
        <time>2014-03-01T08:49:15Z</time>
      </trkpt>
      <trkpt lat="44.32114" lon="2.69025">
        <ele>829.755127</ele>
        <time>2014-03-01T08:49:20Z</time>
      </trkpt>
      <trkpt lat="44.32105" lon="2.69007">
        <ele>832.1584473</ele>
        <time>2014-03-01T08:49:26Z</time>
      </trkpt>
      <trkpt lat="44.32098" lon="2.68988">
        <ele>835.0424805</ele>
        <time>2014-03-01T08:49:32Z</time>
      </trkpt>
      <trkpt lat="44.32092" lon="2.68969">
        <ele>836.0036621</ele>
        <time>2014-03-01T08:49:38Z</time>
      </trkpt>
      <trkpt lat="44.32084" lon="2.68939">
        <ele>836.0036621</ele>
        <time>2014-03-01T08:49:46Z</time>
      </trkpt>
      <trkpt lat="44.32079" lon="2.68917">
        <ele>835.0424805</ele>
        <time>2014-03-01T08:49:52Z</time>
      </trkpt>
      <trkpt lat="44.32074" lon="2.689">
        <ele>834.5617676</ele>
        <time>2014-03-01T08:49:57Z</time>
      </trkpt>
      <trkpt lat="44.32066" lon="2.68877">
        <ele>834.5617676</ele>
        <time>2014-03-01T08:50:03Z</time>
      </trkpt>
      <trkpt lat="44.32059" lon="2.68857">
        <ele>833.6003418</ele>
        <time>2014-03-01T08:50:09Z</time>
      </trkpt>
      <trkpt lat="44.32054" lon="2.68838">
        <ele>832.6391602</ele>
        <time>2014-03-01T08:50:14Z</time>
      </trkpt>
      <trkpt lat="44.3205" lon="2.68824">
        <ele>831.6777344</ele>
        <time>2014-03-01T08:50:18Z</time>
      </trkpt>
      <trkpt lat="44.32046" lon="2.68805">
        <ele>830.7165527</ele>
        <time>2014-03-01T08:50:23Z</time>
      </trkpt>
      <trkpt lat="44.32041" lon="2.6879">
        <ele>830.2358398</ele>
        <time>2014-03-01T08:50:27Z</time>
      </trkpt>
      <trkpt lat="44.32037" lon="2.68779">
        <ele>829.755127</ele>
        <time>2014-03-01T08:50:30Z</time>
      </trkpt>
      <trkpt lat="44.32032" lon="2.68756">
        <ele>830.7165527</ele>
        <time>2014-03-01T08:50:36Z</time>
      </trkpt>
      <trkpt lat="44.32028" lon="2.68744">
        <ele>829.755127</ele>
        <time>2014-03-01T08:50:39Z</time>
      </trkpt>
      <trkpt lat="44.32022" lon="2.68722">
        <ele>829.755127</ele>
        <time>2014-03-01T08:50:45Z</time>
      </trkpt>
      <trkpt lat="44.32013" lon="2.68704">
        <ele>829.2744141</ele>
        <time>2014-03-01T08:50:50Z</time>
      </trkpt>
      <trkpt lat="44.32007" lon="2.68686">
        <ele>828.3132324</ele>
        <time>2014-03-01T08:50:55Z</time>
      </trkpt>
      <trkpt lat="44.32004" lon="2.68667">
        <ele>825.4289551</ele>
        <time>2014-03-01T08:51:00Z</time>
      </trkpt>
      <trkpt lat="44.32004" lon="2.68664">
        <ele>824.9484863</ele>
        <time>2014-03-01T08:51:01Z</time>
      </trkpt>
      <trkpt lat="44.31997" lon="2.68647">
        <ele>823.9870605</ele>
        <time>2014-03-01T08:51:06Z</time>
      </trkpt>
      <trkpt lat="44.31991" lon="2.68624">
        <ele>824.4677734</ele>
        <time>2014-03-01T08:51:12Z</time>
      </trkpt>
      <trkpt lat="44.31986" lon="2.68611">
        <ele>823.5065918</ele>
        <time>2014-03-01T08:51:16Z</time>
      </trkpt>
      <trkpt lat="44.31976" lon="2.68598">
        <ele>823.9870605</ele>
        <time>2014-03-01T08:51:21Z</time>
      </trkpt>
      <trkpt lat="44.31967" lon="2.68585">
        <ele>824.9484863</ele>
        <time>2014-03-01T08:51:25Z</time>
      </trkpt>
      <trkpt lat="44.31956" lon="2.68571">
        <ele>825.4289551</ele>
        <time>2014-03-01T08:51:30Z</time>
      </trkpt>
      <trkpt lat="44.31941" lon="2.6856">
        <ele>825.4289551</ele>
        <time>2014-03-01T08:51:35Z</time>
      </trkpt>
      <trkpt lat="44.31926" lon="2.68552">
        <ele>823.5065918</ele>
        <time>2014-03-01T08:51:40Z</time>
      </trkpt>
      <trkpt lat="44.31914" lon="2.68543">
        <ele>822.545166</ele>
        <time>2014-03-01T08:51:45Z</time>
      </trkpt>
      <trkpt lat="44.31914" lon="2.68528">
        <ele>822.545166</ele>
        <time>2014-03-01T08:51:49Z</time>
      </trkpt>
      <trkpt lat="44.31924" lon="2.68509">
        <ele>823.5065918</ele>
        <time>2014-03-01T08:51:55Z</time>
      </trkpt>
      <trkpt lat="44.31935" lon="2.68488">
        <ele>825.4289551</ele>
        <time>2014-03-01T08:52:01Z</time>
      </trkpt>
      <trkpt lat="44.31952" lon="2.68473">
        <ele>826.3903809</ele>
        <time>2014-03-01T08:52:07Z</time>
      </trkpt>
      <trkpt lat="44.31964" lon="2.68463">
        <ele>825.909668</ele>
        <time>2014-03-01T08:52:12Z</time>
      </trkpt>
      <trkpt lat="44.31977" lon="2.68449">
        <ele>824.4677734</ele>
        <time>2014-03-01T08:52:18Z</time>
      </trkpt>
      <trkpt lat="44.31989" lon="2.68432">
        <ele>825.4289551</ele>
        <time>2014-03-01T08:52:24Z</time>
      </trkpt>
      <trkpt lat="44.31999" lon="2.68411">
        <ele>823.9870605</ele>
        <time>2014-03-01T08:52:30Z</time>
      </trkpt>
      <trkpt lat="44.32007" lon="2.6839">
        <ele>823.0258789</ele>
        <time>2014-03-01T08:52:36Z</time>
      </trkpt>
      <trkpt lat="44.32015" lon="2.68368">
        <ele>823.0258789</ele>
        <time>2014-03-01T08:52:42Z</time>
      </trkpt>
      <trkpt lat="44.32022" lon="2.68349">
        <ele>823.5065918</ele>
        <time>2014-03-01T08:52:47Z</time>
      </trkpt>
      <trkpt lat="44.32025" lon="2.68333">
        <ele>823.5065918</ele>
        <time>2014-03-01T08:52:51Z</time>
      </trkpt>
      <trkpt lat="44.32028" lon="2.68313">
        <ele>823.5065918</ele>
        <time>2014-03-01T08:52:56Z</time>
      </trkpt>
      <trkpt lat="44.32027" lon="2.68293">
        <ele>822.545166</ele>
        <time>2014-03-01T08:53:01Z</time>
      </trkpt>
      <trkpt lat="44.32034" lon="2.68285">
        <ele>823.0258789</ele>
        <time>2014-03-01T08:53:05Z</time>
      </trkpt>
      <trkpt lat="44.32043" lon="2.68282">
        <ele>822.545166</ele>
        <time>2014-03-01T08:53:09Z</time>
      </trkpt>
      <trkpt lat="44.32055" lon="2.68264">
        <ele>821.5837402</ele>
        <time>2014-03-01T08:53:16Z</time>
      </trkpt>
      <trkpt lat="44.32057" lon="2.68261">
        <ele>821.1032715</ele>
        <time>2014-03-01T08:53:17Z</time>
      </trkpt>
      <trkpt lat="44.32064" lon="2.68243">
        <ele>817.2580566</ele>
        <time>2014-03-01T08:53:23Z</time>
      </trkpt>
      <trkpt lat="44.32073" lon="2.68223">
        <ele>813.8933105</ele>
        <time>2014-03-01T08:53:30Z</time>
      </trkpt>
      <trkpt lat="44.32073" lon="2.68205">
        <ele>814.3740234</ele>
        <time>2014-03-01T08:53:35Z</time>
      </trkpt>
      <trkpt lat="44.3207" lon="2.68191">
        <ele>815.8161621</ele>
        <time>2014-03-01T08:53:40Z</time>
      </trkpt>
      <trkpt lat="44.32068" lon="2.68175">
        <ele>818.2192383</ele>
        <time>2014-03-01T08:53:46Z</time>
      </trkpt>
      <trkpt lat="44.32062" lon="2.68153">
        <ele>819.661377</ele>
        <time>2014-03-01T08:53:52Z</time>
      </trkpt>
      <trkpt lat="44.32061" lon="2.6813">
        <ele>819.661377</ele>
        <time>2014-03-01T08:53:58Z</time>
      </trkpt>
      <trkpt lat="44.32061" lon="2.68116">
        <ele>819.1806641</ele>
        <time>2014-03-01T08:54:02Z</time>
      </trkpt>
      <trkpt lat="44.32065" lon="2.68096">
        <ele>819.661377</ele>
        <time>2014-03-01T08:54:08Z</time>
      </trkpt>
      <trkpt lat="44.32068" lon="2.68074">
        <ele>820.1418457</ele>
        <time>2014-03-01T08:54:14Z</time>
      </trkpt>
      <trkpt lat="44.32071" lon="2.6806">
        <ele>820.1418457</ele>
        <time>2014-03-01T08:54:18Z</time>
      </trkpt>
      <trkpt lat="44.32072" lon="2.68045">
        <ele>820.6225586</ele>
        <time>2014-03-01T08:54:22Z</time>
      </trkpt>
      <trkpt lat="44.32077" lon="2.68026">
        <ele>821.5837402</ele>
        <time>2014-03-01T08:54:27Z</time>
      </trkpt>
      <trkpt lat="44.32082" lon="2.68004">
        <ele>823.0258789</ele>
        <time>2014-03-01T08:54:33Z</time>
      </trkpt>
      <trkpt lat="44.32087" lon="2.67985">
        <ele>823.0258789</ele>
        <time>2014-03-01T08:54:38Z</time>
      </trkpt>
      <trkpt lat="44.32093" lon="2.67963">
        <ele>825.909668</ele>
        <time>2014-03-01T08:54:44Z</time>
      </trkpt>
      <trkpt lat="44.32098" lon="2.67945">
        <ele>827.3518066</ele>
        <time>2014-03-01T08:54:49Z</time>
      </trkpt>
      <trkpt lat="44.32106" lon="2.67922">
        <ele>828.3132324</ele>
        <time>2014-03-01T08:54:56Z</time>
      </trkpt>
      <trkpt lat="44.32114" lon="2.67905">
        <ele>828.7939453</ele>
        <time>2014-03-01T08:55:01Z</time>
      </trkpt>
      <trkpt lat="44.32123" lon="2.67883">
        <ele>828.7939453</ele>
        <time>2014-03-01T08:55:07Z</time>
      </trkpt>
      <trkpt lat="44.32133" lon="2.67862">
        <ele>829.755127</ele>
        <time>2014-03-01T08:55:13Z</time>
      </trkpt>
      <trkpt lat="44.32136" lon="2.67846">
        <ele>829.755127</ele>
        <time>2014-03-01T08:55:17Z</time>
      </trkpt>
      <trkpt lat="44.32139" lon="2.67825">
        <ele>828.7939453</ele>
        <time>2014-03-01T08:55:23Z</time>
      </trkpt>
      <trkpt lat="44.32142" lon="2.67805">
        <ele>829.755127</ele>
        <time>2014-03-01T08:55:29Z</time>
      </trkpt>
      <trkpt lat="44.32144" lon="2.67787">
        <ele>830.7165527</ele>
        <time>2014-03-01T08:55:34Z</time>
      </trkpt>
      <trkpt lat="44.32148" lon="2.6777">
        <ele>830.2358398</ele>
        <time>2014-03-01T08:55:39Z</time>
      </trkpt>
      <trkpt lat="44.3215" lon="2.67753">
        <ele>830.7165527</ele>
        <time>2014-03-01T08:55:44Z</time>
      </trkpt>
      <trkpt lat="44.32152" lon="2.67736">
        <ele>832.1584473</ele>
        <time>2014-03-01T08:55:49Z</time>
      </trkpt>
      <trkpt lat="44.32155" lon="2.67716">
        <ele>833.1196289</ele>
        <time>2014-03-01T08:55:55Z</time>
      </trkpt>
      <trkpt lat="44.32157" lon="2.67698">
        <ele>834.0810547</ele>
        <time>2014-03-01T08:56:00Z</time>
      </trkpt>
      <trkpt lat="44.32159" lon="2.67679">
        <ele>834.0810547</ele>
        <time>2014-03-01T08:56:05Z</time>
      </trkpt>
      <trkpt lat="44.32162" lon="2.67652">
        <ele>833.6003418</ele>
        <time>2014-03-01T08:56:12Z</time>
      </trkpt>
      <trkpt lat="44.32164" lon="2.67629">
        <ele>832.1584473</ele>
        <time>2014-03-01T08:56:18Z</time>
      </trkpt>
      <trkpt lat="44.32167" lon="2.6761">
        <ele>830.7165527</ele>
        <time>2014-03-01T08:56:23Z</time>
      </trkpt>
      <trkpt lat="44.32171" lon="2.6759">
        <ele>830.7165527</ele>
        <time>2014-03-01T08:56:28Z</time>
      </trkpt>
      <trkpt lat="44.32174" lon="2.67571">
        <ele>829.755127</ele>
        <time>2014-03-01T08:56:33Z</time>
      </trkpt>
      <trkpt lat="44.3218" lon="2.67548">
        <ele>829.2744141</ele>
        <time>2014-03-01T08:56:39Z</time>
      </trkpt>
      <trkpt lat="44.32184" lon="2.67529">
        <ele>827.8322754</ele>
        <time>2014-03-01T08:56:44Z</time>
      </trkpt>
      <trkpt lat="44.32189" lon="2.67509">
        <ele>827.3518066</ele>
        <time>2014-03-01T08:56:49Z</time>
      </trkpt>
      <trkpt lat="44.32193" lon="2.6749">
        <ele>825.909668</ele>
        <time>2014-03-01T08:56:54Z</time>
      </trkpt>
      <trkpt lat="44.32198" lon="2.67475">
        <ele>824.9484863</ele>
        <time>2014-03-01T08:56:58Z</time>
      </trkpt>
      <trkpt lat="44.32204" lon="2.67453">
        <ele>823.5065918</ele>
        <time>2014-03-01T08:57:04Z</time>
      </trkpt>
      <trkpt lat="44.32207" lon="2.67437">
        <ele>822.0644531</ele>
        <time>2014-03-01T08:57:08Z</time>
      </trkpt>
      <trkpt lat="44.32209" lon="2.67416">
        <ele>819.661377</ele>
        <time>2014-03-01T08:57:13Z</time>
      </trkpt>
      <trkpt lat="44.32209" lon="2.67397">
        <ele>817.7385254</ele>
        <time>2014-03-01T08:57:18Z</time>
      </trkpt>
      <trkpt lat="44.32208" lon="2.67378">
        <ele>816.2966309</ele>
        <time>2014-03-01T08:57:23Z</time>
      </trkpt>
      <trkpt lat="44.32209" lon="2.67378">
        <ele>814.8547363</ele>
        <time>2014-03-01T08:57:27Z</time>
      </trkpt>
      <trkpt lat="44.32208" lon="2.67376">
        <ele>814.8547363</ele>
        <time>2014-03-01T08:57:29Z</time>
      </trkpt>
      <trkpt lat="44.32209" lon="2.67353">
        <ele>813.4128418</ele>
        <time>2014-03-01T08:57:36Z</time>
      </trkpt>
      <trkpt lat="44.3221" lon="2.67338">
        <ele>812.451416</ele>
        <time>2014-03-01T08:57:40Z</time>
      </trkpt>
      <trkpt lat="44.32213" lon="2.67319">
        <ele>811.9707031</ele>
        <time>2014-03-01T08:57:45Z</time>
      </trkpt>
      <trkpt lat="44.32219" lon="2.67299">
        <ele>811.9707031</ele>
        <time>2014-03-01T08:57:51Z</time>
      </trkpt>
      <trkpt lat="44.32225" lon="2.67283">
        <ele>810.5285645</ele>
        <time>2014-03-01T08:57:55Z</time>
      </trkpt>
      <trkpt lat="44.32232" lon="2.67267">
        <ele>808.605957</ele>
        <time>2014-03-01T08:58:00Z</time>
      </trkpt>
      <trkpt lat="44.32241" lon="2.67253">
        <ele>806.2026367</ele>
        <time>2014-03-01T08:58:05Z</time>
      </trkpt>
      <trkpt lat="44.32248" lon="2.67242">
        <ele>804.2802734</ele>
        <time>2014-03-01T08:58:09Z</time>
      </trkpt>
      <trkpt lat="44.32258" lon="2.67229">
        <ele>802.8381348</ele>
        <time>2014-03-01T08:58:14Z</time>
      </trkpt>
      <trkpt lat="44.32269" lon="2.67213">
        <ele>800.4350586</ele>
        <time>2014-03-01T08:58:20Z</time>
      </trkpt>
      <trkpt lat="44.32278" lon="2.67202">
        <ele>799.4736328</ele>
        <time>2014-03-01T08:58:25Z</time>
      </trkpt>
      <trkpt lat="44.32288" lon="2.67189">
        <ele>799.4736328</ele>
        <time>2014-03-01T08:58:30Z</time>
      </trkpt>
      <trkpt lat="44.32297" lon="2.6718">
        <ele>800.4350586</ele>
        <time>2014-03-01T08:58:34Z</time>
      </trkpt>
      <trkpt lat="44.32311" lon="2.67166">
        <ele>801.8769531</ele>
        <time>2014-03-01T08:58:40Z</time>
      </trkpt>
      <trkpt lat="44.32324" lon="2.6715">
        <ele>802.8381348</ele>
        <time>2014-03-01T08:58:47Z</time>
      </trkpt>
      <trkpt lat="44.32328" lon="2.67148">
        <ele>802.3574219</ele>
        <time>2014-03-01T08:58:49Z</time>
      </trkpt>
      <trkpt lat="44.32338" lon="2.67138">
        <ele>802.8381348</ele>
        <time>2014-03-01T08:58:54Z</time>
      </trkpt>
      <trkpt lat="44.32346" lon="2.67127">
        <ele>802.3574219</ele>
        <time>2014-03-01T08:58:59Z</time>
      </trkpt>
      <trkpt lat="44.32359" lon="2.67114">
        <ele>802.3574219</ele>
        <time>2014-03-01T08:59:05Z</time>
      </trkpt>
      <trkpt lat="44.32369" lon="2.67102">
        <ele>803.3188477</ele>
        <time>2014-03-01T08:59:10Z</time>
      </trkpt>
      <trkpt lat="44.3238" lon="2.67092">
        <ele>803.3188477</ele>
        <time>2014-03-01T08:59:15Z</time>
      </trkpt>
      <trkpt lat="44.32393" lon="2.6708">
        <ele>804.7607422</ele>
        <time>2014-03-01T08:59:21Z</time>
      </trkpt>
      <trkpt lat="44.32405" lon="2.67066">
        <ele>805.722168</ele>
        <time>2014-03-01T08:59:27Z</time>
      </trkpt>
      <trkpt lat="44.32415" lon="2.67055">
        <ele>805.2414551</ele>
        <time>2014-03-01T08:59:32Z</time>
      </trkpt>
      <trkpt lat="44.32429" lon="2.67043">
        <ele>806.2026367</ele>
        <time>2014-03-01T08:59:38Z</time>
      </trkpt>
      <trkpt lat="44.3244" lon="2.67033">
        <ele>807.1640625</ele>
        <time>2014-03-01T08:59:43Z</time>
      </trkpt>
      <trkpt lat="44.32454" lon="2.67022">
        <ele>806.2026367</ele>
        <time>2014-03-01T08:59:49Z</time>
      </trkpt>
      <trkpt lat="44.32468" lon="2.6701">
        <ele>805.2414551</ele>
        <time>2014-03-01T08:59:55Z</time>
      </trkpt>
      <trkpt lat="44.32481" lon="2.66997">
        <ele>803.7995605</ele>
        <time>2014-03-01T09:00:01Z</time>
      </trkpt>
      <trkpt lat="44.32497" lon="2.66981">
        <ele>802.8381348</ele>
        <time>2014-03-01T09:00:08Z</time>
      </trkpt>
      <trkpt lat="44.32509" lon="2.66971">
        <ele>802.3574219</ele>
        <time>2014-03-01T09:00:13Z</time>
      </trkpt>
      <trkpt lat="44.32525" lon="2.66962">
        <ele>801.3962402</ele>
        <time>2014-03-01T09:00:19Z</time>
      </trkpt>
      <trkpt lat="44.3254" lon="2.66953">
        <ele>800.4350586</ele>
        <time>2014-03-01T09:00:25Z</time>
      </trkpt>
      <trkpt lat="44.32553" lon="2.66945">
        <ele>799.9543457</ele>
        <time>2014-03-01T09:00:30Z</time>
      </trkpt>
      <trkpt lat="44.32566" lon="2.66936">
        <ele>799.4736328</ele>
        <time>2014-03-01T09:00:35Z</time>
      </trkpt>
      <trkpt lat="44.32581" lon="2.66926">
        <ele>797.5510254</ele>
        <time>2014-03-01T09:00:41Z</time>
      </trkpt>
      <trkpt lat="44.32591" lon="2.66918">
        <ele>797.0703125</ele>
        <time>2014-03-01T09:00:46Z</time>
      </trkpt>
      <trkpt lat="44.32601" lon="2.66908">
        <ele>795.6281738</ele>
        <time>2014-03-01T09:00:50Z</time>
      </trkpt>
      <trkpt lat="44.32614" lon="2.66892">
        <ele>794.666748</ele>
        <time>2014-03-01T09:00:56Z</time>
      </trkpt>
      <trkpt lat="44.32623" lon="2.66873">
        <ele>792.2636719</ele>
        <time>2014-03-01T09:01:02Z</time>
      </trkpt>
      <trkpt lat="44.32627" lon="2.66856">
        <ele>789.8603516</ele>
        <time>2014-03-01T09:01:07Z</time>
      </trkpt>
      <trkpt lat="44.32629" lon="2.66846">
        <ele>787.9377441</ele>
        <time>2014-03-01T09:01:10Z</time>
      </trkpt>
      <trkpt lat="44.32638" lon="2.6683">
        <ele>786.9763184</ele>
        <time>2014-03-01T09:01:15Z</time>
      </trkpt>
      <trkpt lat="44.32646" lon="2.66829">
        <ele>786.9763184</ele>
        <time>2014-03-01T09:01:18Z</time>
      </trkpt>
      <trkpt lat="44.32657" lon="2.66839">
        <ele>786.9763184</ele>
        <time>2014-03-01T09:01:24Z</time>
      </trkpt>
      <trkpt lat="44.3267" lon="2.66841">
        <ele>786.4958496</ele>
        <time>2014-03-01T09:01:29Z</time>
      </trkpt>
      <trkpt lat="44.3269" lon="2.66842">
        <ele>785.5344238</ele>
        <time>2014-03-01T09:01:36Z</time>
      </trkpt>
      <trkpt lat="44.3271" lon="2.66844">
        <ele>783.6118164</ele>
        <time>2014-03-01T09:01:44Z</time>
      </trkpt>
      <trkpt lat="44.32723" lon="2.66847">
        <ele>783.6118164</ele>
        <time>2014-03-01T09:01:49Z</time>
      </trkpt>
      <trkpt lat="44.32735" lon="2.66849">
        <ele>782.1699219</ele>
        <time>2014-03-01T09:01:54Z</time>
      </trkpt>
      <trkpt lat="44.32751" lon="2.66848">
        <ele>782.1699219</ele>
        <time>2014-03-01T09:01:59Z</time>
      </trkpt>
      <trkpt lat="44.32764" lon="2.66847">
        <ele>781.2087402</ele>
        <time>2014-03-01T09:02:04Z</time>
      </trkpt>
      <trkpt lat="44.32783" lon="2.66844">
        <ele>780.7280273</ele>
        <time>2014-03-01T09:02:11Z</time>
      </trkpt>
      <trkpt lat="44.32798" lon="2.6684">
        <ele>780.2473145</ele>
        <time>2014-03-01T09:02:17Z</time>
      </trkpt>
      <trkpt lat="44.32814" lon="2.66839">
        <ele>779.7663574</ele>
        <time>2014-03-01T09:02:23Z</time>
      </trkpt>
      <trkpt lat="44.32828" lon="2.66839">
        <ele>779.2856445</ele>
        <time>2014-03-01T09:02:28Z</time>
      </trkpt>
      <trkpt lat="44.32837" lon="2.6684">
        <ele>779.2856445</ele>
        <time>2014-03-01T09:02:32Z</time>
      </trkpt>
      <trkpt lat="44.32847" lon="2.66843">
        <ele>780.7280273</ele>
        <time>2014-03-01T09:02:36Z</time>
      </trkpt>
      <trkpt lat="44.32863" lon="2.66842">
        <ele>782.1699219</ele>
        <time>2014-03-01T09:02:42Z</time>
      </trkpt>
      <trkpt lat="44.32881" lon="2.66842">
        <ele>783.6118164</ele>
        <time>2014-03-01T09:02:49Z</time>
      </trkpt>
      <trkpt lat="44.32895" lon="2.66843">
        <ele>785.0539551</ele>
        <time>2014-03-01T09:02:54Z</time>
      </trkpt>
      <trkpt lat="44.32909" lon="2.66841">
        <ele>786.9763184</ele>
        <time>2014-03-01T09:02:58Z</time>
      </trkpt>
      <trkpt lat="44.32925" lon="2.66837">
        <ele>786.9763184</ele>
        <time>2014-03-01T09:03:03Z</time>
      </trkpt>
      <trkpt lat="44.32941" lon="2.66831">
        <ele>784.5732422</ele>
        <time>2014-03-01T09:03:08Z</time>
      </trkpt>
      <trkpt lat="44.32959" lon="2.66818">
        <ele>777.84375</ele>
        <time>2014-03-01T09:03:14Z</time>
      </trkpt>
      <trkpt lat="44.32977" lon="2.66808">
        <ele>772.5566406</ele>
        <time>2014-03-01T09:03:19Z</time>
      </trkpt>
      <trkpt lat="44.32991" lon="2.66802">
        <ele>768.7114258</ele>
        <time>2014-03-01T09:03:23Z</time>
      </trkpt>
      <trkpt lat="44.33007" lon="2.66802">
        <ele>766.3081055</ele>
        <time>2014-03-01T09:03:27Z</time>
      </trkpt>
      <trkpt lat="44.33017" lon="2.668">
        <ele>765.3469238</ele>
        <time>2014-03-01T09:03:29Z</time>
      </trkpt>
      <trkpt lat="44.33028" lon="2.66797">
        <ele>763.904541</ele>
        <time>2014-03-01T09:03:31Z</time>
      </trkpt>
      <trkpt lat="44.33049" lon="2.66782">
        <ele>759.5788574</ele>
        <time>2014-03-01T09:03:37Z</time>
      </trkpt>
      <trkpt lat="44.33056" lon="2.66778">
        <ele>758.1369629</ele>
        <time>2014-03-01T09:03:39Z</time>
      </trkpt>
      <trkpt lat="44.33062" lon="2.66772">
        <ele>757.65625</ele>
        <time>2014-03-01T09:03:41Z</time>
      </trkpt>
      <trkpt lat="44.33077" lon="2.66769">
        <ele>754.291748</ele>
        <time>2014-03-01T09:03:45Z</time>
      </trkpt>
      <trkpt lat="44.33099" lon="2.66774">
        <ele>751.8884277</ele>
        <time>2014-03-01T09:03:51Z</time>
      </trkpt>
      <trkpt lat="44.33111" lon="2.66774">
        <ele>747.5622559</ele>
        <time>2014-03-01T09:03:55Z</time>
      </trkpt>
      <trkpt lat="44.33128" lon="2.66767">
        <ele>746.1203613</ele>
        <time>2014-03-01T09:04:00Z</time>
      </trkpt>
      <trkpt lat="44.33146" lon="2.66755">
        <ele>748.0432129</ele>
        <time>2014-03-01T09:04:05Z</time>
      </trkpt>
      <trkpt lat="44.33162" lon="2.66748">
        <ele>743.2363281</ele>
        <time>2014-03-01T09:04:10Z</time>
      </trkpt>
      <trkpt lat="44.33181" lon="2.6674">
        <ele>743.2363281</ele>
        <time>2014-03-01T09:04:15Z</time>
      </trkpt>
      <trkpt lat="44.332" lon="2.66728">
        <ele>741.3137207</ele>
        <time>2014-03-01T09:04:21Z</time>
      </trkpt>
      <trkpt lat="44.33216" lon="2.66718">
        <ele>737.9492188</ele>
        <time>2014-03-01T09:04:26Z</time>
      </trkpt>
      <trkpt lat="44.33232" lon="2.66709">
        <ele>734.5847168</ele>
        <time>2014-03-01T09:04:31Z</time>
      </trkpt>
      <trkpt lat="44.33248" lon="2.66701">
        <ele>734.5847168</ele>
        <time>2014-03-01T09:04:36Z</time>
      </trkpt>
      <trkpt lat="44.33263" lon="2.6669">
        <ele>732.1813965</ele>
        <time>2014-03-01T09:04:41Z</time>
      </trkpt>
      <trkpt lat="44.33278" lon="2.66679">
        <ele>729.2971191</ele>
        <time>2014-03-01T09:04:46Z</time>
      </trkpt>
      <trkpt lat="44.3329" lon="2.66669">
        <ele>726.4133301</ele>
        <time>2014-03-01T09:04:50Z</time>
      </trkpt>
      <trkpt lat="44.33301" lon="2.6666">
        <ele>724.9714355</ele>
        <time>2014-03-01T09:04:54Z</time>
      </trkpt>
      <trkpt lat="44.33322" lon="2.66638">
        <ele>725.4519043</ele>
        <time>2014-03-01T09:05:01Z</time>
      </trkpt>
      <trkpt lat="44.33339" lon="2.66623">
        <ele>725.4519043</ele>
        <time>2014-03-01T09:05:07Z</time>
      </trkpt>
      <trkpt lat="44.33352" lon="2.66615">
        <ele>724.4907227</ele>
        <time>2014-03-01T09:05:12Z</time>
      </trkpt>
      <trkpt lat="44.33364" lon="2.66606">
        <ele>725.9326172</ele>
        <time>2014-03-01T09:05:16Z</time>
      </trkpt>
      <trkpt lat="44.33381" lon="2.66597">
        <ele>728.8166504</ele>
        <time>2014-03-01T09:05:21Z</time>
      </trkpt>
      <trkpt lat="44.33397" lon="2.66588">
        <ele>729.2971191</ele>
        <time>2014-03-01T09:05:26Z</time>
      </trkpt>
      <trkpt lat="44.33414" lon="2.6658">
        <ele>726.894043</ele>
        <time>2014-03-01T09:05:31Z</time>
      </trkpt>
      <trkpt lat="44.33428" lon="2.66575">
        <ele>724.9714355</ele>
        <time>2014-03-01T09:05:36Z</time>
      </trkpt>
      <trkpt lat="44.33441" lon="2.66563">
        <ele>726.894043</ele>
        <time>2014-03-01T09:05:41Z</time>
      </trkpt>
      <trkpt lat="44.33455" lon="2.66547">
        <ele>726.894043</ele>
        <time>2014-03-01T09:05:46Z</time>
      </trkpt>
      <trkpt lat="44.33467" lon="2.66524">
        <ele>724.4907227</ele>
        <time>2014-03-01T09:05:52Z</time>
      </trkpt>
      <trkpt lat="44.33476" lon="2.66511">
        <ele>722.0874023</ele>
        <time>2014-03-01T09:05:56Z</time>
      </trkpt>
      <trkpt lat="44.3348" lon="2.66504">
        <ele>720.6455078</ele>
        <time>2014-03-01T09:05:58Z</time>
      </trkpt>
      <trkpt lat="44.33489" lon="2.66497">
        <ele>718.2421875</ele>
        <time>2014-03-01T09:06:02Z</time>
      </trkpt>
      <trkpt lat="44.33491" lon="2.66494">
        <ele>717.2810059</ele>
        <time>2014-03-01T09:06:03Z</time>
      </trkpt>
      <trkpt lat="44.33503" lon="2.66479">
        <ele>713.4355469</ele>
        <time>2014-03-01T09:06:08Z</time>
      </trkpt>
      <trkpt lat="44.33511" lon="2.66467">
        <ele>710.5515137</ele>
        <time>2014-03-01T09:06:12Z</time>
      </trkpt>
      <trkpt lat="44.33511" lon="2.6645">
        <ele>708.6289063</ele>
        <time>2014-03-01T09:06:16Z</time>
      </trkpt>
      <trkpt lat="44.33498" lon="2.66429">
        <ele>709.1096191</ele>
        <time>2014-03-01T09:06:22Z</time>
      </trkpt>
      <trkpt lat="44.33496" lon="2.66425">
        <ele>709.1096191</ele>
        <time>2014-03-01T09:06:23Z</time>
      </trkpt>
      <trkpt lat="44.33484" lon="2.66403">
        <ele>705.2644043</ele>
        <time>2014-03-01T09:06:29Z</time>
      </trkpt>
      <trkpt lat="44.33482" lon="2.66401">
        <ele>703.8225098</ele>
        <time>2014-03-01T09:06:30Z</time>
      </trkpt>
      <trkpt lat="44.33481" lon="2.66382">
        <ele>697.5737305</ele>
        <time>2014-03-01T09:06:35Z</time>
      </trkpt>
      <trkpt lat="44.33487" lon="2.66381">
        <ele>694.2092285</ele>
        <time>2014-03-01T09:06:39Z</time>
      </trkpt>
      <trkpt lat="44.33502" lon="2.66392">
        <ele>693.7285156</ele>
        <time>2014-03-01T09:06:45Z</time>
      </trkpt>
      <trkpt lat="44.33505" lon="2.66393">
        <ele>693.2478027</ele>
        <time>2014-03-01T09:06:48Z</time>
      </trkpt>
      <trkpt lat="44.33511" lon="2.66397">
        <ele>694.6896973</ele>
        <time>2014-03-01T09:06:57Z</time>
      </trkpt>
      <trkpt lat="44.33511" lon="2.66394">
        <ele>700.4580078</ele>
        <time>2014-03-01T09:07:07Z</time>
      </trkpt>
      <trkpt lat="44.33511" lon="2.66393">
        <ele>701.4191895</ele>
        <time>2014-03-01T09:07:28Z</time>
      </trkpt>
      <trkpt lat="44.33514" lon="2.66394">
        <ele>702.3803711</ele>
        <time>2014-03-01T09:07:33Z</time>
      </trkpt>
      <trkpt lat="44.33527" lon="2.66402">
        <ele>702.861084</ele>
        <time>2014-03-01T09:07:39Z</time>
      </trkpt>
      <trkpt lat="44.33544" lon="2.66414">
        <ele>699.9770508</ele>
        <time>2014-03-01T09:07:45Z</time>
      </trkpt>
      <trkpt lat="44.33557" lon="2.66428">
        <ele>697.0930176</ele>
        <time>2014-03-01T09:07:50Z</time>
      </trkpt>
      <trkpt lat="44.33569" lon="2.66446">
        <ele>696.1318359</ele>
        <time>2014-03-01T09:07:55Z</time>
      </trkpt>
      <trkpt lat="44.33574" lon="2.66463">
        <ele>696.1318359</ele>
        <time>2014-03-01T09:07:59Z</time>
      </trkpt>
      <trkpt lat="44.33572" lon="2.66481">
        <ele>696.1318359</ele>
        <time>2014-03-01T09:08:03Z</time>
      </trkpt>
      <trkpt lat="44.33567" lon="2.66498">
        <ele>697.5737305</ele>
        <time>2014-03-01T09:08:07Z</time>
      </trkpt>
      <trkpt lat="44.33563" lon="2.66519">
        <ele>699.015625</ele>
        <time>2014-03-01T09:08:12Z</time>
      </trkpt>
      <trkpt lat="44.33556" lon="2.66544">
        <ele>701.4191895</ele>
        <time>2014-03-01T09:08:18Z</time>
      </trkpt>
      <trkpt lat="44.33549" lon="2.66565">
        <ele>702.861084</ele>
        <time>2014-03-01T09:08:23Z</time>
      </trkpt>
      <trkpt lat="44.33543" lon="2.6659">
        <ele>702.861084</ele>
        <time>2014-03-01T09:08:29Z</time>
      </trkpt>
      <trkpt lat="44.33534" lon="2.66612">
        <ele>703.3417969</ele>
        <time>2014-03-01T09:08:34Z</time>
      </trkpt>
      <trkpt lat="44.33532" lon="2.66615">
        <ele>703.3417969</ele>
        <time>2014-03-01T09:08:35Z</time>
      </trkpt>
      <trkpt lat="44.33521" lon="2.6663">
        <ele>697.0930176</ele>
        <time>2014-03-01T09:08:39Z</time>
      </trkpt>
      <trkpt lat="44.33514" lon="2.66646">
        <ele>693.2478027</ele>
        <time>2014-03-01T09:08:43Z</time>
      </trkpt>
      <trkpt lat="44.33503" lon="2.66665">
        <ele>688.9221191</ele>
        <time>2014-03-01T09:08:48Z</time>
      </trkpt>
      <trkpt lat="44.33499" lon="2.66674">
        <ele>687.9606934</ele>
        <time>2014-03-01T09:08:50Z</time>
      </trkpt>
      <trkpt lat="44.33496" lon="2.66692">
        <ele>686.5187988</ele>
        <time>2014-03-01T09:08:54Z</time>
      </trkpt>
      <trkpt lat="44.33488" lon="2.66704">
        <ele>684.5961914</ele>
        <time>2014-03-01T09:08:58Z</time>
      </trkpt>
      <trkpt lat="44.33479" lon="2.66719">
        <ele>681.2314453</ele>
        <time>2014-03-01T09:09:02Z</time>
      </trkpt>
      <trkpt lat="44.3347" lon="2.66728">
        <ele>679.7893066</ele>
        <time>2014-03-01T09:09:06Z</time>
      </trkpt>
      <trkpt lat="44.33469" lon="2.66746">
        <ele>681.2314453</ele>
        <time>2014-03-01T09:09:10Z</time>
      </trkpt>
      <trkpt lat="44.3347" lon="2.66764">
        <ele>680.2700195</ele>
        <time>2014-03-01T09:09:14Z</time>
      </trkpt>
      <trkpt lat="44.33469" lon="2.66769">
        <ele>680.2700195</ele>
        <time>2014-03-01T09:09:15Z</time>
      </trkpt>
      <trkpt lat="44.33472" lon="2.66796">
        <ele>684.5961914</ele>
        <time>2014-03-01T09:09:20Z</time>
      </trkpt>
      <trkpt lat="44.33472" lon="2.66797">
        <ele>682.192627</ele>
        <time>2014-03-01T09:09:21Z</time>
      </trkpt>
      <trkpt lat="44.33472" lon="2.66781">
        <ele>674.5021973</ele>
        <time>2014-03-01T09:09:25Z</time>
      </trkpt>
      <trkpt lat="44.33472" lon="2.66759">
        <ele>669.2150879</ele>
        <time>2014-03-01T09:09:30Z</time>
      </trkpt>
      <trkpt lat="44.33477" lon="2.66745">
        <ele>665.3696289</ele>
        <time>2014-03-01T09:09:34Z</time>
      </trkpt>
      <trkpt lat="44.33481" lon="2.6674">
        <ele>662.9663086</ele>
        <time>2014-03-01T09:09:36Z</time>
      </trkpt>
      <trkpt lat="44.33493" lon="2.66723">
        <ele>660.0822754</ele>
        <time>2014-03-01T09:09:42Z</time>
      </trkpt>
      <trkpt lat="44.33503" lon="2.66706">
        <ele>656.2370605</ele>
        <time>2014-03-01T09:09:47Z</time>
      </trkpt>
      <trkpt lat="44.33516" lon="2.66689">
        <ele>650.949707</ele>
        <time>2014-03-01T09:09:53Z</time>
      </trkpt>
      <trkpt lat="44.3353" lon="2.66668">
        <ele>646.6240234</ele>
        <time>2014-03-01T09:09:59Z</time>
      </trkpt>
      <trkpt lat="44.33546" lon="2.66653">
        <ele>650.949707</ele>
        <time>2014-03-01T09:10:04Z</time>
      </trkpt>
      <trkpt lat="44.33554" lon="2.66646">
        <ele>652.8725586</ele>
        <time>2014-03-01T09:10:07Z</time>
      </trkpt>
      <trkpt lat="44.33573" lon="2.66623">
        <ele>649.5078125</ele>
        <time>2014-03-01T09:10:14Z</time>
      </trkpt>
      <trkpt lat="44.33584" lon="2.66611">
        <ele>649.5078125</ele>
        <time>2014-03-01T09:10:18Z</time>
      </trkpt>
      <trkpt lat="44.33596" lon="2.66595">
        <ele>649.0270996</ele>
        <time>2014-03-01T09:10:23Z</time>
      </trkpt>
      <trkpt lat="44.33603" lon="2.66579">
        <ele>647.5852051</ele>
        <time>2014-03-01T09:10:27Z</time>
      </trkpt>
      <trkpt lat="44.3361" lon="2.66557">
        <ele>644.7011719</ele>
        <time>2014-03-01T09:10:33Z</time>
      </trkpt>
      <trkpt lat="44.33619" lon="2.66538">
        <ele>646.6240234</ele>
        <time>2014-03-01T09:10:38Z</time>
      </trkpt>
      <trkpt lat="44.33633" lon="2.66523">
        <ele>641.8173828</ele>
        <time>2014-03-01T09:10:44Z</time>
      </trkpt>
      <trkpt lat="44.33649" lon="2.66516">
        <ele>638.4528809</ele>
        <time>2014-03-01T09:10:49Z</time>
      </trkpt>
      <trkpt lat="44.33665" lon="2.6651">
        <ele>634.6074219</ele>
        <time>2014-03-01T09:10:54Z</time>
      </trkpt>
      <trkpt lat="44.3368" lon="2.66507">
        <ele>633.1652832</ele>
        <time>2014-03-01T09:10:59Z</time>
      </trkpt>
      <trkpt lat="44.33696" lon="2.66496">
        <ele>630.2814941</ele>
        <time>2014-03-01T09:11:04Z</time>
      </trkpt>
      <trkpt lat="44.33709" lon="2.66482">
        <ele>628.3588867</ele>
        <time>2014-03-01T09:11:09Z</time>
      </trkpt>
      <trkpt lat="44.33712" lon="2.66479">
        <ele>629.3200684</ele>
        <time>2014-03-01T09:11:10Z</time>
      </trkpt>
      <trkpt lat="44.33711" lon="2.66457">
        <ele>625.4748535</ele>
        <time>2014-03-01T09:11:15Z</time>
      </trkpt>
      <trkpt lat="44.33702" lon="2.66443">
        <ele>623.5524902</ele>
        <time>2014-03-01T09:11:19Z</time>
      </trkpt>
      <trkpt lat="44.33686" lon="2.6643">
        <ele>619.2263184</ele>
        <time>2014-03-01T09:11:25Z</time>
      </trkpt>
      <trkpt lat="44.33674" lon="2.66415">
        <ele>616.3422852</ele>
        <time>2014-03-01T09:11:30Z</time>
      </trkpt>
      <trkpt lat="44.3366" lon="2.66407">
        <ele>613.4584961</ele>
        <time>2014-03-01T09:11:35Z</time>
      </trkpt>
      <trkpt lat="44.33651" lon="2.66398">
        <ele>609.6132813</ele>
        <time>2014-03-01T09:11:39Z</time>
      </trkpt>
      <trkpt lat="44.33644" lon="2.66376">
        <ele>602.8837891</ele>
        <time>2014-03-01T09:11:45Z</time>
      </trkpt>
      <trkpt lat="44.3364" lon="2.66355">
        <ele>599.5192871</ele>
        <time>2014-03-01T09:11:50Z</time>
      </trkpt>
      <trkpt lat="44.33636" lon="2.66338">
        <ele>601.9226074</ele>
        <time>2014-03-01T09:11:54Z</time>
      </trkpt>
      <trkpt lat="44.33635" lon="2.66318">
        <ele>604.8066406</ele>
        <time>2014-03-01T09:11:58Z</time>
      </trkpt>
      <trkpt lat="44.33646" lon="2.66312">
        <ele>611.5358887</ele>
        <time>2014-03-01T09:12:03Z</time>
      </trkpt>
      <trkpt lat="44.33653" lon="2.66323">
        <ele>615.3811035</ele>
        <time>2014-03-01T09:12:06Z</time>
      </trkpt>
      <trkpt lat="44.33656" lon="2.66327">
        <ele>616.3422852</ele>
        <time>2014-03-01T09:12:07Z</time>
      </trkpt>
      <trkpt lat="44.33668" lon="2.66346">
        <ele>616.822998</ele>
        <time>2014-03-01T09:12:12Z</time>
      </trkpt>
      <trkpt lat="44.33681" lon="2.66358">
        <ele>620.1877441</ele>
        <time>2014-03-01T09:12:18Z</time>
      </trkpt>
      <trkpt lat="44.33695" lon="2.66364">
        <ele>622.5910645</ele>
        <time>2014-03-01T09:12:23Z</time>
      </trkpt>
      <trkpt lat="44.33707" lon="2.66371">
        <ele>623.5524902</ele>
        <time>2014-03-01T09:12:27Z</time>
      </trkpt>
      <trkpt lat="44.33724" lon="2.66379">
        <ele>626.4362793</ele>
        <time>2014-03-01T09:12:33Z</time>
      </trkpt>
      <trkpt lat="44.33736" lon="2.66387">
        <ele>627.8781738</ele>
        <time>2014-03-01T09:12:37Z</time>
      </trkpt>
      <trkpt lat="44.33753" lon="2.664">
        <ele>624.9943848</ele>
        <time>2014-03-01T09:12:43Z</time>
      </trkpt>
      <trkpt lat="44.33763" lon="2.66409">
        <ele>622.5910645</ele>
        <time>2014-03-01T09:12:47Z</time>
      </trkpt>
      <trkpt lat="44.33776" lon="2.66422">
        <ele>617.7841797</ele>
        <time>2014-03-01T09:12:53Z</time>
      </trkpt>
      <trkpt lat="44.33787" lon="2.6643">
        <ele>616.3422852</ele>
        <time>2014-03-01T09:12:57Z</time>
      </trkpt>
      <trkpt lat="44.33798" lon="2.66432">
        <ele>613.9389648</ele>
        <time>2014-03-01T09:13:01Z</time>
      </trkpt>
      <trkpt lat="44.33802" lon="2.6643">
        <ele>612.0166016</ele>
        <time>2014-03-01T09:13:03Z</time>
      </trkpt>
      <trkpt lat="44.33814" lon="2.6643">
        <ele>607.6906738</ele>
        <time>2014-03-01T09:13:09Z</time>
      </trkpt>
      <trkpt lat="44.33826" lon="2.66431">
        <ele>600.9611816</ele>
        <time>2014-03-01T09:13:13Z</time>
      </trkpt>
      <trkpt lat="44.3384" lon="2.66432">
        <ele>599.0385742</ele>
        <time>2014-03-01T09:13:18Z</time>
      </trkpt>
      <trkpt lat="44.33843" lon="2.66432">
        <ele>598.5578613</ele>
        <time>2014-03-01T09:13:19Z</time>
      </trkpt>
      <trkpt lat="44.33858" lon="2.66431">
        <ele>598.5578613</ele>
        <time>2014-03-01T09:13:25Z</time>
      </trkpt>
      <trkpt lat="44.33874" lon="2.66432">
        <ele>594.7126465</ele>
        <time>2014-03-01T09:13:30Z</time>
      </trkpt>
      <trkpt lat="44.33886" lon="2.66429">
        <ele>593.270752</ele>
        <time>2014-03-01T09:13:34Z</time>
      </trkpt>
      <trkpt lat="44.33898" lon="2.66421">
        <ele>593.7514648</ele>
        <time>2014-03-01T09:13:38Z</time>
      </trkpt>
      <trkpt lat="44.33912" lon="2.66411">
        <ele>591.3481445</ele>
        <time>2014-03-01T09:13:43Z</time>
      </trkpt>
      <trkpt lat="44.33919" lon="2.66407">
        <ele>590.8674316</ele>
        <time>2014-03-01T09:13:46Z</time>
      </trkpt>
      <trkpt lat="44.33936" lon="2.66395">
        <ele>599.0385742</ele>
        <time>2014-03-01T09:13:52Z</time>
      </trkpt>
      <trkpt lat="44.33952" lon="2.66388">
        <ele>594.2321777</ele>
        <time>2014-03-01T09:13:58Z</time>
      </trkpt>
      <trkpt lat="44.33962" lon="2.66386">
        <ele>590.8674316</ele>
        <time>2014-03-01T09:14:02Z</time>
      </trkpt>
      <trkpt lat="44.33971" lon="2.66384">
        <ele>588.4643555</ele>
        <time>2014-03-01T09:14:07Z</time>
      </trkpt>
      <trkpt lat="44.33988" lon="2.66385">
        <ele>585.0996094</ele>
        <time>2014-03-01T09:14:14Z</time>
      </trkpt>
      <trkpt lat="44.34004" lon="2.66391">
        <ele>587.0219727</ele>
        <time>2014-03-01T09:14:19Z</time>
      </trkpt>
      <trkpt lat="44.34012" lon="2.66392">
        <ele>586.5415039</ele>
        <time>2014-03-01T09:14:23Z</time>
      </trkpt>
      <trkpt lat="44.34024" lon="2.66392">
        <ele>585.0996094</ele>
        <time>2014-03-01T09:14:29Z</time>
      </trkpt>
      <trkpt lat="44.34029" lon="2.6639">
        <ele>585.5800781</ele>
        <time>2014-03-01T09:14:32Z</time>
      </trkpt>
      <trkpt lat="44.3404" lon="2.66385">
        <ele>584.6188965</ele>
        <time>2014-03-01T09:14:38Z</time>
      </trkpt>
      <trkpt lat="44.34045" lon="2.66383">
        <ele>583.6574707</ele>
        <time>2014-03-01T09:14:41Z</time>
      </trkpt>
      <trkpt lat="44.34054" lon="2.66383">
        <ele>577.8896484</ele>
        <time>2014-03-01T09:14:46Z</time>
      </trkpt>
      <trkpt lat="44.34063" lon="2.66381">
        <ele>579.8122559</ele>
        <time>2014-03-01T09:14:51Z</time>
      </trkpt>
      <trkpt lat="44.34068" lon="2.6638">
        <ele>579.8122559</ele>
        <time>2014-03-01T09:14:54Z</time>
      </trkpt>
      <trkpt lat="44.3408" lon="2.66375">
        <ele>583.1767578</ele>
        <time>2014-03-01T09:15:01Z</time>
      </trkpt>
      <trkpt lat="44.34091" lon="2.66365">
        <ele>584.6188965</ele>
        <time>2014-03-01T09:15:08Z</time>
      </trkpt>
      <trkpt lat="44.34099" lon="2.66358">
        <ele>586.5415039</ele>
        <time>2014-03-01T09:15:13Z</time>
      </trkpt>
      <trkpt lat="44.34104" lon="2.66349">
        <ele>585.0996094</ele>
        <time>2014-03-01T09:15:17Z</time>
      </trkpt>
      <trkpt lat="44.34111" lon="2.6634">
        <ele>586.060791</ele>
        <time>2014-03-01T09:15:23Z</time>
      </trkpt>
      <trkpt lat="44.34117" lon="2.6633">
        <ele>587.0219727</ele>
        <time>2014-03-01T09:15:28Z</time>
      </trkpt>
      <trkpt lat="44.34118" lon="2.66329">
        <ele>586.5415039</ele>
        <time>2014-03-01T09:15:29Z</time>
      </trkpt>
      <trkpt lat="44.34122" lon="2.66319">
        <ele>587.5026855</ele>
        <time>2014-03-01T09:15:34Z</time>
      </trkpt>
      <trkpt lat="44.34127" lon="2.66311">
        <ele>599.5192871</ele>
        <time>2014-03-01T09:15:41Z</time>
      </trkpt>
      <trkpt lat="44.34134" lon="2.66303">
        <ele>605.2873535</ele>
        <time>2014-03-01T09:15:47Z</time>
      </trkpt>
      <trkpt lat="44.34141" lon="2.66293">
        <ele>610.5744629</ele>
        <time>2014-03-01T09:15:54Z</time>
      </trkpt>
      <trkpt lat="44.34147" lon="2.66285">
        <ele>610.09375</ele>
        <time>2014-03-01T09:16:00Z</time>
      </trkpt>
      <trkpt lat="44.34148" lon="2.66283">
        <ele>610.09375</ele>
        <time>2014-03-01T09:16:01Z</time>
      </trkpt>
      <trkpt lat="44.34152" lon="2.66279">
        <ele>609.6132813</ele>
        <time>2014-03-01T09:16:05Z</time>
      </trkpt>
      <trkpt lat="44.34157" lon="2.66271">
        <ele>610.09375</ele>
        <time>2014-03-01T09:16:09Z</time>
      </trkpt>
      <trkpt lat="44.34166" lon="2.66262">
        <ele>609.6132813</ele>
        <time>2014-03-01T09:16:15Z</time>
      </trkpt>
      <trkpt lat="44.3417" lon="2.66258">
        <ele>609.6132813</ele>
        <time>2014-03-01T09:16:17Z</time>
      </trkpt>
      <trkpt lat="44.3418" lon="2.66252">
        <ele>613.9389648</ele>
        <time>2014-03-01T09:16:23Z</time>
      </trkpt>
      <trkpt lat="44.3419" lon="2.66243">
        <ele>615.3811035</ele>
        <time>2014-03-01T09:16:29Z</time>
      </trkpt>
      <trkpt lat="44.34199" lon="2.66234">
        <ele>616.822998</ele>
        <time>2014-03-01T09:16:35Z</time>
      </trkpt>
      <trkpt lat="44.3421" lon="2.66226">
        <ele>623.5524902</ele>
        <time>2014-03-01T09:16:40Z</time>
      </trkpt>
      <trkpt lat="44.3422" lon="2.66216">
        <ele>629.3200684</ele>
        <time>2014-03-01T09:16:45Z</time>
      </trkpt>
      <trkpt lat="44.34227" lon="2.66209">
        <ele>634.6074219</ele>
        <time>2014-03-01T09:16:49Z</time>
      </trkpt>
      <trkpt lat="44.34231" lon="2.66205">
        <ele>635.0881348</ele>
        <time>2014-03-01T09:16:52Z</time>
      </trkpt>
      <trkpt lat="44.34237" lon="2.66194">
        <ele>634.6074219</ele>
        <time>2014-03-01T09:16:58Z</time>
      </trkpt>
      <trkpt lat="44.34239" lon="2.66192">
        <ele>634.6074219</ele>
        <time>2014-03-01T09:16:59Z</time>
      </trkpt>
      <trkpt lat="44.34247" lon="2.6618">
        <ele>630.762207</ele>
        <time>2014-03-01T09:17:06Z</time>
      </trkpt>
      <trkpt lat="44.34252" lon="2.66167">
        <ele>627.3977051</ele>
        <time>2014-03-01T09:17:12Z</time>
      </trkpt>
      <trkpt lat="44.34252" lon="2.66165">
        <ele>626.9169922</ele>
        <time>2014-03-01T09:17:13Z</time>
      </trkpt>
      <trkpt lat="44.34259" lon="2.6615">
        <ele>631.2429199</ele>
        <time>2014-03-01T09:17:19Z</time>
      </trkpt>
      <trkpt lat="44.34263" lon="2.66137">
        <ele>629.3200684</ele>
        <time>2014-03-01T09:17:25Z</time>
      </trkpt>
      <trkpt lat="44.34264" lon="2.66121">
        <ele>626.9169922</ele>
        <time>2014-03-01T09:17:31Z</time>
      </trkpt>
      <trkpt lat="44.34261" lon="2.66113">
        <ele>627.3977051</ele>
        <time>2014-03-01T09:17:34Z</time>
      </trkpt>
      <trkpt lat="44.34254" lon="2.66097">
        <ele>625.4748535</ele>
        <time>2014-03-01T09:17:40Z</time>
      </trkpt>
      <trkpt lat="44.34248" lon="2.66085">
        <ele>628.8395996</ele>
        <time>2014-03-01T09:17:45Z</time>
      </trkpt>
      <trkpt lat="44.34243" lon="2.66076">
        <ele>630.762207</ele>
        <time>2014-03-01T09:17:49Z</time>
      </trkpt>
      <trkpt lat="44.34244" lon="2.66061">
        <ele>631.7233887</ele>
        <time>2014-03-01T09:17:54Z</time>
      </trkpt>
      <trkpt lat="44.34244" lon="2.66059">
        <ele>631.2429199</ele>
        <time>2014-03-01T09:17:55Z</time>
      </trkpt>
      <trkpt lat="44.34246" lon="2.66044">
        <ele>637.4914551</ele>
        <time>2014-03-01T09:18:03Z</time>
      </trkpt>
      <trkpt lat="44.34246" lon="2.66037">
        <ele>632.6848145</ele>
        <time>2014-03-01T09:18:07Z</time>
      </trkpt>
      <trkpt lat="44.34246" lon="2.66025">
        <ele>632.6848145</ele>
        <time>2014-03-01T09:18:14Z</time>
      </trkpt>
      <trkpt lat="44.34243" lon="2.66013">
        <ele>634.126709</ele>
        <time>2014-03-01T09:18:20Z</time>
      </trkpt>
      <trkpt lat="44.34243" lon="2.66008">
        <ele>634.126709</ele>
        <time>2014-03-01T09:18:22Z</time>
      </trkpt>
      <trkpt lat="44.3424" lon="2.65994">
        <ele>631.2429199</ele>
        <time>2014-03-01T09:18:28Z</time>
      </trkpt>
      <trkpt lat="44.34236" lon="2.65979">
        <ele>635.0881348</ele>
        <time>2014-03-01T09:18:34Z</time>
      </trkpt>
      <trkpt lat="44.34236" lon="2.65977">
        <ele>635.0881348</ele>
        <time>2014-03-01T09:18:35Z</time>
      </trkpt>
      <trkpt lat="44.34235" lon="2.65967">
        <ele>635.0881348</ele>
        <time>2014-03-01T09:18:39Z</time>
      </trkpt>
      <trkpt lat="44.34234" lon="2.65959">
        <ele>634.6074219</ele>
        <time>2014-03-01T09:18:44Z</time>
      </trkpt>
      <trkpt lat="44.34234" lon="2.65954">
        <ele>636.0495605</ele>
        <time>2014-03-01T09:18:47Z</time>
      </trkpt>
      <trkpt lat="44.34232" lon="2.65944">
        <ele>637.0107422</ele>
        <time>2014-03-01T09:18:53Z</time>
      </trkpt>
      <trkpt lat="44.34227" lon="2.65934">
        <ele>637.0107422</ele>
        <time>2014-03-01T09:19:00Z</time>
      </trkpt>
      <trkpt lat="44.34226" lon="2.6593">
        <ele>637.972168</ele>
        <time>2014-03-01T09:19:02Z</time>
      </trkpt>
      <trkpt lat="44.34221" lon="2.65924">
        <ele>638.9335938</ele>
        <time>2014-03-01T09:19:07Z</time>
      </trkpt>
      <trkpt lat="44.34213" lon="2.65917">
        <ele>640.855957</ele>
        <time>2014-03-01T09:19:14Z</time>
      </trkpt>
      <trkpt lat="44.34207" lon="2.65913">
        <ele>644.2207031</ele>
        <time>2014-03-01T09:19:18Z</time>
      </trkpt>
      <trkpt lat="44.34194" lon="2.65899">
        <ele>651.4304199</ele>
        <time>2014-03-01T09:19:26Z</time>
      </trkpt>
      <trkpt lat="44.34186" lon="2.65889">
        <ele>655.2758789</ele>
        <time>2014-03-01T09:19:32Z</time>
      </trkpt>
      <trkpt lat="44.34175" lon="2.65884">
        <ele>658.6403809</ele>
        <time>2014-03-01T09:19:38Z</time>
      </trkpt>
      <trkpt lat="44.34167" lon="2.65878">
        <ele>660.5629883</ele>
        <time>2014-03-01T09:19:43Z</time>
      </trkpt>
      <trkpt lat="44.34165" lon="2.65878">
        <ele>662.005127</ele>
        <time>2014-03-01T09:19:44Z</time>
      </trkpt>
      <trkpt lat="44.34158" lon="2.65873">
        <ele>664.888916</ele>
        <time>2014-03-01T09:19:49Z</time>
      </trkpt>
      <trkpt lat="44.34146" lon="2.65868">
        <ele>669.2150879</ele>
        <time>2014-03-01T09:19:58Z</time>
      </trkpt>
      <trkpt lat="44.34142" lon="2.65866">
        <ele>669.6958008</ele>
        <time>2014-03-01T09:20:01Z</time>
      </trkpt>
      <trkpt lat="44.34136" lon="2.65864">
        <ele>670.6569824</ele>
        <time>2014-03-01T09:20:07Z</time>
      </trkpt>
      <trkpt lat="44.34132" lon="2.65864">
        <ele>670.6569824</ele>
        <time>2014-03-01T09:20:10Z</time>
      </trkpt>
      <trkpt lat="44.34129" lon="2.65861">
        <ele>671.6181641</ele>
        <time>2014-03-01T09:20:14Z</time>
      </trkpt>
      <trkpt lat="44.34121" lon="2.6586">
        <ele>670.6569824</ele>
        <time>2014-03-01T09:20:21Z</time>
      </trkpt>
      <trkpt lat="44.34113" lon="2.65856">
        <ele>672.5795898</ele>
        <time>2014-03-01T09:20:28Z</time>
      </trkpt>
      <trkpt lat="44.34105" lon="2.65851">
        <ele>678.828125</ele>
        <time>2014-03-01T09:20:35Z</time>
      </trkpt>
      <trkpt lat="44.34098" lon="2.65849">
        <ele>681.2314453</ele>
        <time>2014-03-01T09:20:39Z</time>
      </trkpt>
      <trkpt lat="44.34087" lon="2.65848">
        <ele>684.1154785</ele>
        <time>2014-03-01T09:20:45Z</time>
      </trkpt>
      <trkpt lat="44.34086" lon="2.65848">
        <ele>685.0769043</ele>
        <time>2014-03-01T09:20:46Z</time>
      </trkpt>
      <trkpt lat="44.34078" lon="2.65849">
        <ele>685.0769043</ele>
        <time>2014-03-01T09:20:50Z</time>
      </trkpt>
      <trkpt lat="44.34062" lon="2.65852">
        <ele>685.557373</ele>
        <time>2014-03-01T09:20:57Z</time>
      </trkpt>
      <trkpt lat="44.3405" lon="2.65854">
        <ele>686.5187988</ele>
        <time>2014-03-01T09:21:02Z</time>
      </trkpt>
      <trkpt lat="44.3404" lon="2.65853">
        <ele>686.5187988</ele>
        <time>2014-03-01T09:21:08Z</time>
      </trkpt>
      <trkpt lat="44.34028" lon="2.65854">
        <ele>689.8833008</ele>
        <time>2014-03-01T09:21:14Z</time>
      </trkpt>
      <trkpt lat="44.34025" lon="2.65855">
        <ele>690.8444824</ele>
        <time>2014-03-01T09:21:16Z</time>
      </trkpt>
      <trkpt lat="44.34011" lon="2.65858">
        <ele>691.8059082</ele>
        <time>2014-03-01T09:21:23Z</time>
      </trkpt>
      <trkpt lat="44.33997" lon="2.65866">
        <ele>695.1704102</ele>
        <time>2014-03-01T09:21:29Z</time>
      </trkpt>
      <trkpt lat="44.33983" lon="2.65874">
        <ele>697.0930176</ele>
        <time>2014-03-01T09:21:35Z</time>
      </trkpt>
      <trkpt lat="44.33973" lon="2.65884">
        <ele>695.651123</ele>
        <time>2014-03-01T09:21:40Z</time>
      </trkpt>
      <trkpt lat="44.33972" lon="2.65884">
        <ele>695.651123</ele>
        <time>2014-03-01T09:21:41Z</time>
      </trkpt>
      <trkpt lat="44.33966" lon="2.65887">
        <ele>695.651123</ele>
        <time>2014-03-01T09:21:45Z</time>
      </trkpt>
      <trkpt lat="44.33953" lon="2.65886">
        <ele>694.2092285</ele>
        <time>2014-03-01T09:21:51Z</time>
      </trkpt>
      <trkpt lat="44.33945" lon="2.65885">
        <ele>693.2478027</ele>
        <time>2014-03-01T09:21:56Z</time>
      </trkpt>
      <trkpt lat="44.33937" lon="2.65886">
        <ele>692.767334</ele>
        <time>2014-03-01T09:22:01Z</time>
      </trkpt>
      <trkpt lat="44.33927" lon="2.65885">
        <ele>691.8059082</ele>
        <time>2014-03-01T09:22:05Z</time>
      </trkpt>
      <trkpt lat="44.33917" lon="2.65871">
        <ele>691.3251953</ele>
        <time>2014-03-01T09:22:10Z</time>
      </trkpt>
      <trkpt lat="44.33915" lon="2.65857">
        <ele>690.8444824</ele>
        <time>2014-03-01T09:22:14Z</time>
      </trkpt>
      <trkpt lat="44.33911" lon="2.65837">
        <ele>690.3640137</ele>
        <time>2014-03-01T09:22:19Z</time>
      </trkpt>
      <trkpt lat="44.33906" lon="2.65823">
        <ele>689.4025879</ele>
        <time>2014-03-01T09:22:23Z</time>
      </trkpt>
      <trkpt lat="44.33904" lon="2.65801">
        <ele>687.9606934</ele>
        <time>2014-03-01T09:22:29Z</time>
      </trkpt>
      <trkpt lat="44.33907" lon="2.65783">
        <ele>686.5187988</ele>
        <time>2014-03-01T09:22:34Z</time>
      </trkpt>
      <trkpt lat="44.33911" lon="2.65767">
        <ele>686.0380859</ele>
        <time>2014-03-01T09:22:39Z</time>
      </trkpt>
      <trkpt lat="44.33914" lon="2.65751">
        <ele>684.5961914</ele>
        <time>2014-03-01T09:22:44Z</time>
      </trkpt>
      <trkpt lat="44.33918" lon="2.65731">
        <ele>684.5961914</ele>
        <time>2014-03-01T09:22:50Z</time>
      </trkpt>
      <trkpt lat="44.33921" lon="2.65716">
        <ele>685.0769043</ele>
        <time>2014-03-01T09:22:55Z</time>
      </trkpt>
      <trkpt lat="44.33924" lon="2.65698">
        <ele>686.0380859</ele>
        <time>2014-03-01T09:23:00Z</time>
      </trkpt>
      <trkpt lat="44.33926" lon="2.65683">
        <ele>686.9992676</ele>
        <time>2014-03-01T09:23:04Z</time>
      </trkpt>
      <trkpt lat="44.3393" lon="2.65669">
        <ele>688.4414063</ele>
        <time>2014-03-01T09:23:08Z</time>
      </trkpt>
      <trkpt lat="44.33935" lon="2.65649">
        <ele>689.8833008</ele>
        <time>2014-03-01T09:23:14Z</time>
      </trkpt>
      <trkpt lat="44.33939" lon="2.65628">
        <ele>690.8444824</ele>
        <time>2014-03-01T09:23:20Z</time>
      </trkpt>
      <trkpt lat="44.33945" lon="2.65609">
        <ele>690.8444824</ele>
        <time>2014-03-01T09:23:26Z</time>
      </trkpt>
      <trkpt lat="44.33955" lon="2.6559">
        <ele>689.8833008</ele>
        <time>2014-03-01T09:23:33Z</time>
      </trkpt>
      <trkpt lat="44.33964" lon="2.65568">
        <ele>691.3251953</ele>
        <time>2014-03-01T09:23:40Z</time>
      </trkpt>
      <trkpt lat="44.33969" lon="2.65551">
        <ele>691.8059082</ele>
        <time>2014-03-01T09:23:45Z</time>
      </trkpt>
      <trkpt lat="44.33974" lon="2.65537">
        <ele>691.8059082</ele>
        <time>2014-03-01T09:23:49Z</time>
      </trkpt>
      <trkpt lat="44.33982" lon="2.65512">
        <ele>690.3640137</ele>
        <time>2014-03-01T09:23:56Z</time>
      </trkpt>
      <trkpt lat="44.33988" lon="2.65494">
        <ele>688.9221191</ele>
        <time>2014-03-01T09:24:01Z</time>
      </trkpt>
      <trkpt lat="44.33995" lon="2.65472">
        <ele>687.9606934</ele>
        <time>2014-03-01T09:24:07Z</time>
      </trkpt>
      <trkpt lat="44.34002" lon="2.65453">
        <ele>687.4799805</ele>
        <time>2014-03-01T09:24:12Z</time>
      </trkpt>
      <trkpt lat="44.34007" lon="2.6544">
        <ele>686.0380859</ele>
        <time>2014-03-01T09:24:16Z</time>
      </trkpt>
      <trkpt lat="44.34016" lon="2.6542">
        <ele>684.5961914</ele>
        <time>2014-03-01T09:24:22Z</time>
      </trkpt>
      <trkpt lat="44.34024" lon="2.654">
        <ele>684.5961914</ele>
        <time>2014-03-01T09:24:28Z</time>
      </trkpt>
      <trkpt lat="44.3403" lon="2.65385">
        <ele>684.1154785</ele>
        <time>2014-03-01T09:24:32Z</time>
      </trkpt>
      <trkpt lat="44.3404" lon="2.65364">
        <ele>683.6345215</ele>
        <time>2014-03-01T09:24:38Z</time>
      </trkpt>
      <trkpt lat="44.34047" lon="2.65348">
        <ele>683.6345215</ele>
        <time>2014-03-01T09:24:43Z</time>
      </trkpt>
      <trkpt lat="44.34056" lon="2.65333">
        <ele>684.1154785</ele>
        <time>2014-03-01T09:24:48Z</time>
      </trkpt>
      <trkpt lat="44.34065" lon="2.65317">
        <ele>684.1154785</ele>
        <time>2014-03-01T09:24:53Z</time>
      </trkpt>
      <trkpt lat="44.34074" lon="2.65302">
        <ele>683.1538086</ele>
        <time>2014-03-01T09:24:58Z</time>
      </trkpt>
      <trkpt lat="44.34085" lon="2.65286">
        <ele>681.7119141</ele>
        <time>2014-03-01T09:25:04Z</time>
      </trkpt>
      <trkpt lat="44.34094" lon="2.65274">
        <ele>680.7507324</ele>
        <time>2014-03-01T09:25:09Z</time>
      </trkpt>
      <trkpt lat="44.34103" lon="2.65259">
        <ele>681.2314453</ele>
        <time>2014-03-01T09:25:14Z</time>
      </trkpt>
      <trkpt lat="44.34112" lon="2.65244">
        <ele>681.7119141</ele>
        <time>2014-03-01T09:25:19Z</time>
      </trkpt>
      <trkpt lat="44.3412" lon="2.65234">
        <ele>682.192627</ele>
        <time>2014-03-01T09:25:23Z</time>
      </trkpt>
      <trkpt lat="44.3413" lon="2.6522">
        <ele>682.192627</ele>
        <time>2014-03-01T09:25:28Z</time>
      </trkpt>
      <trkpt lat="44.34143" lon="2.65203">
        <ele>681.2314453</ele>
        <time>2014-03-01T09:25:34Z</time>
      </trkpt>
      <trkpt lat="44.34153" lon="2.65187">
        <ele>681.2314453</ele>
        <time>2014-03-01T09:25:39Z</time>
      </trkpt>
      <trkpt lat="44.34163" lon="2.65171">
        <ele>680.7507324</ele>
        <time>2014-03-01T09:25:45Z</time>
      </trkpt>
      <trkpt lat="44.34173" lon="2.65155">
        <ele>681.2314453</ele>
        <time>2014-03-01T09:25:50Z</time>
      </trkpt>
      <trkpt lat="44.34175" lon="2.65137">
        <ele>681.2314453</ele>
        <time>2014-03-01T09:25:55Z</time>
      </trkpt>
      <trkpt lat="44.34172" lon="2.65115">
        <ele>681.2314453</ele>
        <time>2014-03-01T09:26:01Z</time>
      </trkpt>
      <trkpt lat="44.34171" lon="2.65097">
        <ele>680.2700195</ele>
        <time>2014-03-01T09:26:06Z</time>
      </trkpt>
      <trkpt lat="44.34169" lon="2.65076">
        <ele>678.828125</ele>
        <time>2014-03-01T09:26:12Z</time>
      </trkpt>
      <trkpt lat="44.34164" lon="2.65057">
        <ele>677.8666992</ele>
        <time>2014-03-01T09:26:18Z</time>
      </trkpt>
      <trkpt lat="44.34165" lon="2.65057">
        <ele>677.8666992</ele>
        <time>2014-03-01T09:26:22Z</time>
      </trkpt>
      <trkpt lat="44.34172" lon="2.65066">
        <ele>676.4248047</ele>
        <time>2014-03-01T09:26:27Z</time>
      </trkpt>
      <trkpt lat="44.34176" lon="2.65067">
        <ele>676.4248047</ele>
        <time>2014-03-01T09:26:29Z</time>
      </trkpt>
      <trkpt lat="44.34193" lon="2.65062">
        <ele>675.9440918</ele>
        <time>2014-03-01T09:26:35Z</time>
      </trkpt>
      <trkpt lat="44.34209" lon="2.65054">
        <ele>674.9829102</ele>
        <time>2014-03-01T09:26:41Z</time>
      </trkpt>
      <trkpt lat="44.34225" lon="2.65043">
        <ele>675.4633789</ele>
        <time>2014-03-01T09:26:47Z</time>
      </trkpt>
      <trkpt lat="44.3424" lon="2.65031">
        <ele>675.9440918</ele>
        <time>2014-03-01T09:26:53Z</time>
      </trkpt>
      <trkpt lat="44.34254" lon="2.65018">
        <ele>675.4633789</ele>
        <time>2014-03-01T09:26:59Z</time>
      </trkpt>
      <trkpt lat="44.34266" lon="2.65007">
        <ele>674.9829102</ele>
        <time>2014-03-01T09:27:04Z</time>
      </trkpt>
      <trkpt lat="44.34281" lon="2.64989">
        <ele>674.9829102</ele>
        <time>2014-03-01T09:27:11Z</time>
      </trkpt>
      <trkpt lat="44.34292" lon="2.64975">
        <ele>674.5021973</ele>
        <time>2014-03-01T09:27:16Z</time>
      </trkpt>
      <trkpt lat="44.34304" lon="2.64959">
        <ele>675.4633789</ele>
        <time>2014-03-01T09:27:22Z</time>
      </trkpt>
      <trkpt lat="44.34316" lon="2.64943">
        <ele>675.4633789</ele>
        <time>2014-03-01T09:27:28Z</time>
      </trkpt>
      <trkpt lat="44.34329" lon="2.64926">
        <ele>674.9829102</ele>
        <time>2014-03-01T09:27:34Z</time>
      </trkpt>
      <trkpt lat="44.34342" lon="2.64905">
        <ele>674.9829102</ele>
        <time>2014-03-01T09:27:41Z</time>
      </trkpt>
      <trkpt lat="44.34357" lon="2.64881">
        <ele>674.0214844</ele>
        <time>2014-03-01T09:27:49Z</time>
      </trkpt>
      <trkpt lat="44.34368" lon="2.64864">
        <ele>673.0603027</ele>
        <time>2014-03-01T09:27:55Z</time>
      </trkpt>
      <trkpt lat="44.3438" lon="2.64842">
        <ele>673.5410156</ele>
        <time>2014-03-01T09:28:02Z</time>
      </trkpt>
      <trkpt lat="44.34391" lon="2.6482">
        <ele>672.098877</ele>
        <time>2014-03-01T09:28:09Z</time>
      </trkpt>
      <trkpt lat="44.344" lon="2.64801">
        <ele>670.1762695</ele>
        <time>2014-03-01T09:28:15Z</time>
      </trkpt>
      <trkpt lat="44.34407" lon="2.6478">
        <ele>669.2150879</ele>
        <time>2014-03-01T09:28:21Z</time>
      </trkpt>
      <trkpt lat="44.34414" lon="2.64758">
        <ele>668.2536621</ele>
        <time>2014-03-01T09:28:27Z</time>
      </trkpt>
      <trkpt lat="44.3442" lon="2.64735">
        <ele>667.7727051</ele>
        <time>2014-03-01T09:28:33Z</time>
      </trkpt>
      <trkpt lat="44.34427" lon="2.64712">
        <ele>666.8115234</ele>
        <time>2014-03-01T09:28:39Z</time>
      </trkpt>
      <trkpt lat="44.34434" lon="2.64688">
        <ele>665.8503418</ele>
        <time>2014-03-01T09:28:45Z</time>
      </trkpt>
      <trkpt lat="44.3444" lon="2.64666">
        <ele>665.3696289</ele>
        <time>2014-03-01T09:28:51Z</time>
      </trkpt>
      <trkpt lat="44.34447" lon="2.64642">
        <ele>665.3696289</ele>
        <time>2014-03-01T09:28:57Z</time>
      </trkpt>
      <trkpt lat="44.34454" lon="2.6462">
        <ele>664.888916</ele>
        <time>2014-03-01T09:29:03Z</time>
      </trkpt>
      <trkpt lat="44.3446" lon="2.64597">
        <ele>664.888916</ele>
        <time>2014-03-01T09:29:09Z</time>
      </trkpt>
      <trkpt lat="44.34467" lon="2.64575">
        <ele>664.4082031</ele>
        <time>2014-03-01T09:29:15Z</time>
      </trkpt>
      <trkpt lat="44.34473" lon="2.64552">
        <ele>663.9274902</ele>
        <time>2014-03-01T09:29:21Z</time>
      </trkpt>
      <trkpt lat="44.34479" lon="2.64529">
        <ele>662.9663086</ele>
        <time>2014-03-01T09:29:27Z</time>
      </trkpt>
      <trkpt lat="44.34485" lon="2.64507">
        <ele>662.005127</ele>
        <time>2014-03-01T09:29:33Z</time>
      </trkpt>
      <trkpt lat="44.3449" lon="2.64488">
        <ele>662.005127</ele>
        <time>2014-03-01T09:29:38Z</time>
      </trkpt>
      <trkpt lat="44.34496" lon="2.64469">
        <ele>661.5244141</ele>
        <time>2014-03-01T09:29:43Z</time>
      </trkpt>
      <trkpt lat="44.34502" lon="2.64443">
        <ele>661.5244141</ele>
        <time>2014-03-01T09:29:50Z</time>
      </trkpt>
      <trkpt lat="44.34509" lon="2.64416">
        <ele>661.5244141</ele>
        <time>2014-03-01T09:29:57Z</time>
      </trkpt>
      <trkpt lat="44.34515" lon="2.64392">
        <ele>661.5244141</ele>
        <time>2014-03-01T09:30:03Z</time>
      </trkpt>
      <trkpt lat="44.3452" lon="2.6437">
        <ele>661.5244141</ele>
        <time>2014-03-01T09:30:09Z</time>
      </trkpt>
      <trkpt lat="44.34525" lon="2.64351">
        <ele>661.0437012</ele>
        <time>2014-03-01T09:30:14Z</time>
      </trkpt>
      <trkpt lat="44.34533" lon="2.6433">
        <ele>659.6018066</ele>
        <time>2014-03-01T09:30:20Z</time>
      </trkpt>
      <trkpt lat="44.34539" lon="2.64313">
        <ele>659.1210938</ele>
        <time>2014-03-01T09:30:25Z</time>
      </trkpt>
      <trkpt lat="44.34546" lon="2.64297">
        <ele>658.6403809</ele>
        <time>2014-03-01T09:30:30Z</time>
      </trkpt>
      <trkpt lat="44.34556" lon="2.64274">
        <ele>659.1210938</ele>
        <time>2014-03-01T09:30:37Z</time>
      </trkpt>
      <trkpt lat="44.34564" lon="2.64255">
        <ele>660.5629883</ele>
        <time>2014-03-01T09:30:43Z</time>
      </trkpt>
      <trkpt lat="44.34564" lon="2.64238">
        <ele>660.5629883</ele>
        <time>2014-03-01T09:30:48Z</time>
      </trkpt>
      <trkpt lat="44.34559" lon="2.64218">
        <ele>660.0822754</ele>
        <time>2014-03-01T09:30:53Z</time>
      </trkpt>
      <trkpt lat="44.34554" lon="2.64195">
        <ele>660.0822754</ele>
        <time>2014-03-01T09:30:59Z</time>
      </trkpt>
      <trkpt lat="44.3455" lon="2.64176">
        <ele>660.0822754</ele>
        <time>2014-03-01T09:31:04Z</time>
      </trkpt>
      <trkpt lat="44.34546" lon="2.64158">
        <ele>659.6018066</ele>
        <time>2014-03-01T09:31:09Z</time>
      </trkpt>
      <trkpt lat="44.34543" lon="2.64135">
        <ele>659.6018066</ele>
        <time>2014-03-01T09:31:15Z</time>
      </trkpt>
      <trkpt lat="44.34537" lon="2.64113">
        <ele>660.0822754</ele>
        <time>2014-03-01T09:31:21Z</time>
      </trkpt>
      <trkpt lat="44.34532" lon="2.64091">
        <ele>660.0822754</ele>
        <time>2014-03-01T09:31:27Z</time>
      </trkpt>
      <trkpt lat="44.34526" lon="2.64074">
        <ele>660.0822754</ele>
        <time>2014-03-01T09:31:32Z</time>
      </trkpt>
      <trkpt lat="44.3452" lon="2.64055">
        <ele>658.6403809</ele>
        <time>2014-03-01T09:31:37Z</time>
      </trkpt>
      <trkpt lat="44.34515" lon="2.64036">
        <ele>658.1599121</ele>
        <time>2014-03-01T09:31:42Z</time>
      </trkpt>
      <trkpt lat="44.3451" lon="2.64018">
        <ele>657.1984863</ele>
        <time>2014-03-01T09:31:47Z</time>
      </trkpt>
      <trkpt lat="44.34507" lon="2.63998">
        <ele>656.7177734</ele>
        <time>2014-03-01T09:31:52Z</time>
      </trkpt>
      <trkpt lat="44.34501" lon="2.63975">
        <ele>656.2370605</ele>
        <time>2014-03-01T09:31:58Z</time>
      </trkpt>
      <trkpt lat="44.34496" lon="2.63957">
        <ele>655.7565918</ele>
        <time>2014-03-01T09:32:03Z</time>
      </trkpt>
      <trkpt lat="44.34492" lon="2.63934">
        <ele>654.795166</ele>
        <time>2014-03-01T09:32:09Z</time>
      </trkpt>
      <trkpt lat="44.34488" lon="2.63911">
        <ele>653.8339844</ele>
        <time>2014-03-01T09:32:15Z</time>
      </trkpt>
      <trkpt lat="44.34483" lon="2.63888">
        <ele>652.8725586</ele>
        <time>2014-03-01T09:32:21Z</time>
      </trkpt>
      <trkpt lat="44.34478" lon="2.63865">
        <ele>652.8725586</ele>
        <time>2014-03-01T09:32:27Z</time>
      </trkpt>
      <trkpt lat="44.34476" lon="2.63837">
        <ele>651.9111328</ele>
        <time>2014-03-01T09:32:34Z</time>
      </trkpt>
      <trkpt lat="44.34478" lon="2.63813">
        <ele>651.4304199</ele>
        <time>2014-03-01T09:32:40Z</time>
      </trkpt>
      <trkpt lat="44.34481" lon="2.6379">
        <ele>650.949707</ele>
        <time>2014-03-01T09:32:46Z</time>
      </trkpt>
      <trkpt lat="44.34484" lon="2.63766">
        <ele>649.9885254</ele>
        <time>2014-03-01T09:32:52Z</time>
      </trkpt>
      <trkpt lat="44.34489" lon="2.63738">
        <ele>649.9885254</ele>
        <time>2014-03-01T09:32:59Z</time>
      </trkpt>
      <trkpt lat="44.34496" lon="2.63708">
        <ele>649.9885254</ele>
        <time>2014-03-01T09:33:07Z</time>
      </trkpt>
      <trkpt lat="44.34499" lon="2.63688">
        <ele>649.9885254</ele>
        <time>2014-03-01T09:33:12Z</time>
      </trkpt>
      <trkpt lat="44.34503" lon="2.63665">
        <ele>650.4692383</ele>
        <time>2014-03-01T09:33:18Z</time>
      </trkpt>
      <trkpt lat="44.3451" lon="2.63641">
        <ele>649.9885254</ele>
        <time>2014-03-01T09:33:25Z</time>
      </trkpt>
      <trkpt lat="44.34515" lon="2.63627">
        <ele>648.5463867</ele>
        <time>2014-03-01T09:33:29Z</time>
      </trkpt>
      <trkpt lat="44.34521" lon="2.63606">
        <ele>647.5852051</ele>
        <time>2014-03-01T09:33:35Z</time>
      </trkpt>
      <trkpt lat="44.34525" lon="2.63587">
        <ele>646.6240234</ele>
        <time>2014-03-01T09:33:40Z</time>
      </trkpt>
      <trkpt lat="44.3453" lon="2.63562">
        <ele>646.1433105</ele>
        <time>2014-03-01T09:33:47Z</time>
      </trkpt>
      <trkpt lat="44.34535" lon="2.63539">
        <ele>646.6240234</ele>
        <time>2014-03-01T09:33:53Z</time>
      </trkpt>
      <trkpt lat="44.34537" lon="2.63524">
        <ele>646.6240234</ele>
        <time>2014-03-01T09:33:57Z</time>
      </trkpt>
      <trkpt lat="44.34541" lon="2.63505">
        <ele>646.6240234</ele>
        <time>2014-03-01T09:34:02Z</time>
      </trkpt>
      <trkpt lat="44.34543" lon="2.63482">
        <ele>646.6240234</ele>
        <time>2014-03-01T09:34:08Z</time>
      </trkpt>
      <trkpt lat="44.34543" lon="2.6345">
        <ele>647.5852051</ele>
        <time>2014-03-01T09:34:16Z</time>
      </trkpt>
      <trkpt lat="44.34543" lon="2.63422">
        <ele>647.5852051</ele>
        <time>2014-03-01T09:34:23Z</time>
      </trkpt>
      <trkpt lat="44.34541" lon="2.63402">
        <ele>647.5852051</ele>
        <time>2014-03-01T09:34:28Z</time>
      </trkpt>
      <trkpt lat="44.34534" lon="2.6338">
        <ele>646.1433105</ele>
        <time>2014-03-01T09:34:34Z</time>
      </trkpt>
      <trkpt lat="44.34523" lon="2.63356">
        <ele>643.2592773</ele>
        <time>2014-03-01T09:34:41Z</time>
      </trkpt>
      <trkpt lat="44.34512" lon="2.63341">
        <ele>642.2980957</ele>
        <time>2014-03-01T09:34:46Z</time>
      </trkpt>
      <trkpt lat="44.34498" lon="2.63337">
        <ele>641.3366699</ele>
        <time>2014-03-01T09:34:51Z</time>
      </trkpt>
      <trkpt lat="44.3448" lon="2.63336">
        <ele>639.4140625</ele>
        <time>2014-03-01T09:34:57Z</time>
      </trkpt>
      <trkpt lat="44.34462" lon="2.63336">
        <ele>638.9335938</ele>
        <time>2014-03-01T09:35:03Z</time>
      </trkpt>
      <trkpt lat="44.3445" lon="2.63337">
        <ele>638.4528809</ele>
        <time>2014-03-01T09:35:08Z</time>
      </trkpt>
      <trkpt lat="44.34444" lon="2.63338">
        <ele>638.4528809</ele>
        <time>2014-03-01T09:35:12Z</time>
      </trkpt>
      <trkpt lat="44.34439" lon="2.63341">
        <ele>637.972168</ele>
        <time>2014-03-01T09:35:18Z</time>
      </trkpt>
      <trkpt lat="44.34429" lon="2.63345">
        <ele>637.4914551</ele>
        <time>2014-03-01T09:35:25Z</time>
      </trkpt>
      <trkpt lat="44.34418" lon="2.63348">
        <ele>637.4914551</ele>
        <time>2014-03-01T09:35:29Z</time>
      </trkpt>
      <trkpt lat="44.34406" lon="2.63345">
        <ele>637.4914551</ele>
        <time>2014-03-01T09:35:33Z</time>
      </trkpt>
      <trkpt lat="44.34393" lon="2.63338">
        <ele>637.4914551</ele>
        <time>2014-03-01T09:35:38Z</time>
      </trkpt>
      <trkpt lat="44.34379" lon="2.63333">
        <ele>637.4914551</ele>
        <time>2014-03-01T09:35:43Z</time>
      </trkpt>
      <trkpt lat="44.34363" lon="2.63325">
        <ele>637.972168</ele>
        <time>2014-03-01T09:35:49Z</time>
      </trkpt>
      <trkpt lat="44.3435" lon="2.63319">
        <ele>638.9335938</ele>
        <time>2014-03-01T09:35:54Z</time>
      </trkpt>
      <trkpt lat="44.34337" lon="2.63313">
        <ele>639.4140625</ele>
        <time>2014-03-01T09:35:59Z</time>
      </trkpt>
      <trkpt lat="44.34325" lon="2.63304">
        <ele>640.3754883</ele>
        <time>2014-03-01T09:36:04Z</time>
      </trkpt>
      <trkpt lat="44.34319" lon="2.63289">
        <ele>640.855957</ele>
        <time>2014-03-01T09:36:08Z</time>
      </trkpt>
      <trkpt lat="44.34312" lon="2.63266">
        <ele>639.8947754</ele>
        <time>2014-03-01T09:36:14Z</time>
      </trkpt>
      <trkpt lat="44.343" lon="2.63251">
        <ele>639.8947754</ele>
        <time>2014-03-01T09:36:20Z</time>
      </trkpt>
      <trkpt lat="44.34293" lon="2.63236">
        <ele>640.3754883</ele>
        <time>2014-03-01T09:36:25Z</time>
      </trkpt>
      <trkpt lat="44.3428" lon="2.63223">
        <ele>641.3366699</ele>
        <time>2014-03-01T09:36:31Z</time>
      </trkpt>
      <trkpt lat="44.34266" lon="2.63211">
        <ele>642.2980957</ele>
        <time>2014-03-01T09:36:37Z</time>
      </trkpt>
      <trkpt lat="44.34251" lon="2.632">
        <ele>643.2592773</ele>
        <time>2014-03-01T09:36:43Z</time>
      </trkpt>
      <trkpt lat="44.34238" lon="2.63189">
        <ele>643.7399902</ele>
        <time>2014-03-01T09:36:49Z</time>
      </trkpt>
      <trkpt lat="44.34224" lon="2.63179">
        <ele>645.1818848</ele>
        <time>2014-03-01T09:36:55Z</time>
      </trkpt>
      <trkpt lat="44.34212" lon="2.63172">
        <ele>646.6240234</ele>
        <time>2014-03-01T09:37:00Z</time>
      </trkpt>
      <trkpt lat="44.342" lon="2.63167">
        <ele>647.5852051</ele>
        <time>2014-03-01T09:37:05Z</time>
      </trkpt>
      <trkpt lat="44.34188" lon="2.63162">
        <ele>648.065918</ele>
        <time>2014-03-01T09:37:10Z</time>
      </trkpt>
      <trkpt lat="44.34176" lon="2.63156">
        <ele>646.6240234</ele>
        <time>2014-03-01T09:37:15Z</time>
      </trkpt>
      <trkpt lat="44.34163" lon="2.63151">
        <ele>646.6240234</ele>
        <time>2014-03-01T09:37:21Z</time>
      </trkpt>
      <trkpt lat="44.34149" lon="2.63145">
        <ele>647.5852051</ele>
        <time>2014-03-01T09:37:27Z</time>
      </trkpt>
      <trkpt lat="44.34133" lon="2.63136">
        <ele>649.5078125</ele>
        <time>2014-03-01T09:37:34Z</time>
      </trkpt>
      <trkpt lat="44.34118" lon="2.63125">
        <ele>649.9885254</ele>
        <time>2014-03-01T09:37:41Z</time>
      </trkpt>
      <trkpt lat="44.34103" lon="2.63115">
        <ele>650.4692383</ele>
        <time>2014-03-01T09:37:48Z</time>
      </trkpt>
      <trkpt lat="44.34087" lon="2.63105">
        <ele>651.9111328</ele>
        <time>2014-03-01T09:37:55Z</time>
      </trkpt>
      <trkpt lat="44.34075" lon="2.63094">
        <ele>653.8339844</ele>
        <time>2014-03-01T09:38:01Z</time>
      </trkpt>
      <trkpt lat="44.34062" lon="2.63083">
        <ele>654.795166</ele>
        <time>2014-03-01T09:38:07Z</time>
      </trkpt>
      <trkpt lat="44.34047" lon="2.63072">
        <ele>656.2370605</ele>
        <time>2014-03-01T09:38:14Z</time>
      </trkpt>
      <trkpt lat="44.34034" lon="2.63062">
        <ele>656.7177734</ele>
        <time>2014-03-01T09:38:20Z</time>
      </trkpt>
      <trkpt lat="44.34018" lon="2.63052">
        <ele>658.1599121</ele>
        <time>2014-03-01T09:38:27Z</time>
      </trkpt>
      <trkpt lat="44.34003" lon="2.63045">
        <ele>659.6018066</ele>
        <time>2014-03-01T09:38:33Z</time>
      </trkpt>
      <trkpt lat="44.33988" lon="2.63036">
        <ele>659.6018066</ele>
        <time>2014-03-01T09:38:40Z</time>
      </trkpt>
      <trkpt lat="44.33974" lon="2.63025">
        <ele>658.6403809</ele>
        <time>2014-03-01T09:38:46Z</time>
      </trkpt>
      <trkpt lat="44.3396" lon="2.63014">
        <ele>660.5629883</ele>
        <time>2014-03-01T09:38:52Z</time>
      </trkpt>
      <trkpt lat="44.33949" lon="2.63005">
        <ele>661.0437012</ele>
        <time>2014-03-01T09:38:57Z</time>
      </trkpt>
      <trkpt lat="44.33934" lon="2.62992">
        <ele>662.4855957</ele>
        <time>2014-03-01T09:39:04Z</time>
      </trkpt>
      <trkpt lat="44.33923" lon="2.62982">
        <ele>663.9274902</ele>
        <time>2014-03-01T09:39:09Z</time>
      </trkpt>
      <trkpt lat="44.33912" lon="2.62972">
        <ele>664.4082031</ele>
        <time>2014-03-01T09:39:14Z</time>
      </trkpt>
      <trkpt lat="44.33904" lon="2.62964">
        <ele>664.888916</ele>
        <time>2014-03-01T09:39:18Z</time>
      </trkpt>
      <trkpt lat="44.33894" lon="2.62954">
        <ele>665.3696289</ele>
        <time>2014-03-01T09:39:23Z</time>
      </trkpt>
      <trkpt lat="44.33883" lon="2.6294">
        <ele>665.3696289</ele>
        <time>2014-03-01T09:39:29Z</time>
      </trkpt>
      <trkpt lat="44.3388" lon="2.62933">
        <ele>664.888916</ele>
        <time>2014-03-01T09:39:32Z</time>
      </trkpt>
      <trkpt lat="44.33882" lon="2.6292">
        <ele>663.9274902</ele>
        <time>2014-03-01T09:39:36Z</time>
      </trkpt>
      <trkpt lat="44.33885" lon="2.62904">
        <ele>662.005127</ele>
        <time>2014-03-01T09:39:41Z</time>
      </trkpt>
      <trkpt lat="44.33884" lon="2.62884">
        <ele>661.0437012</ele>
        <time>2014-03-01T09:39:46Z</time>
      </trkpt>
      <trkpt lat="44.33884" lon="2.62865">
        <ele>661.5244141</ele>
        <time>2014-03-01T09:39:51Z</time>
      </trkpt>
      <trkpt lat="44.33877" lon="2.62848">
        <ele>661.5244141</ele>
        <time>2014-03-01T09:39:56Z</time>
      </trkpt>
      <trkpt lat="44.33868" lon="2.62833">
        <ele>663.4470215</ele>
        <time>2014-03-01T09:40:01Z</time>
      </trkpt>
      <trkpt lat="44.33857" lon="2.62811">
        <ele>665.8503418</ele>
        <time>2014-03-01T09:40:08Z</time>
      </trkpt>
      <trkpt lat="44.33847" lon="2.62792">
        <ele>666.8115234</ele>
        <time>2014-03-01T09:40:14Z</time>
      </trkpt>
      <trkpt lat="44.33835" lon="2.6277">
        <ele>669.2150879</ele>
        <time>2014-03-01T09:40:21Z</time>
      </trkpt>
      <trkpt lat="44.33826" lon="2.62753">
        <ele>670.6569824</ele>
        <time>2014-03-01T09:40:26Z</time>
      </trkpt>
      <trkpt lat="44.33817" lon="2.62737">
        <ele>670.6569824</ele>
        <time>2014-03-01T09:40:31Z</time>
      </trkpt>
      <trkpt lat="44.33809" lon="2.62721">
        <ele>671.1376953</ele>
        <time>2014-03-01T09:40:36Z</time>
      </trkpt>
      <trkpt lat="44.33798" lon="2.62702">
        <ele>671.6181641</ele>
        <time>2014-03-01T09:40:42Z</time>
      </trkpt>
      <trkpt lat="44.33787" lon="2.62695">
        <ele>672.098877</ele>
        <time>2014-03-01T09:40:46Z</time>
      </trkpt>
      <trkpt lat="44.33772" lon="2.62693">
        <ele>672.098877</ele>
        <time>2014-03-01T09:40:51Z</time>
      </trkpt>
      <trkpt lat="44.3376" lon="2.62693">
        <ele>672.5795898</ele>
        <time>2014-03-01T09:40:55Z</time>
      </trkpt>
      <trkpt lat="44.33747" lon="2.62692">
        <ele>672.5795898</ele>
        <time>2014-03-01T09:40:59Z</time>
      </trkpt>
      <trkpt lat="44.33737" lon="2.62693">
        <ele>672.5795898</ele>
        <time>2014-03-01T09:41:03Z</time>
      </trkpt>
      <trkpt lat="44.33722" lon="2.62695">
        <ele>672.098877</ele>
        <time>2014-03-01T09:41:08Z</time>
      </trkpt>
      <trkpt lat="44.33713" lon="2.62707">
        <ele>672.5795898</ele>
        <time>2014-03-01T09:41:12Z</time>
      </trkpt>
      <trkpt lat="44.33707" lon="2.62725">
        <ele>670.6569824</ele>
        <time>2014-03-01T09:41:17Z</time>
      </trkpt>
      <trkpt lat="44.33699" lon="2.62746">
        <ele>671.1376953</ele>
        <time>2014-03-01T09:41:23Z</time>
      </trkpt>
      <trkpt lat="44.33687" lon="2.62761">
        <ele>671.1376953</ele>
        <time>2014-03-01T09:41:28Z</time>
      </trkpt>
      <trkpt lat="44.33679" lon="2.62779">
        <ele>671.6181641</ele>
        <time>2014-03-01T09:41:33Z</time>
      </trkpt>
      <trkpt lat="44.33667" lon="2.62789">
        <ele>670.6569824</ele>
        <time>2014-03-01T09:41:38Z</time>
      </trkpt>
      <trkpt lat="44.33651" lon="2.62796">
        <ele>669.2150879</ele>
        <time>2014-03-01T09:41:43Z</time>
      </trkpt>
      <trkpt lat="44.33636" lon="2.628">
        <ele>667.2922363</ele>
        <time>2014-03-01T09:41:48Z</time>
      </trkpt>
      <trkpt lat="44.33623" lon="2.628">
        <ele>665.3696289</ele>
        <time>2014-03-01T09:41:52Z</time>
      </trkpt>
      <trkpt lat="44.33611" lon="2.62805">
        <ele>662.9663086</ele>
        <time>2014-03-01T09:41:57Z</time>
      </trkpt>
      <trkpt lat="44.33598" lon="2.62808">
        <ele>661.0437012</ele>
        <time>2014-03-01T09:42:02Z</time>
      </trkpt>
      <trkpt lat="44.33582" lon="2.62816">
        <ele>658.6403809</ele>
        <time>2014-03-01T09:42:08Z</time>
      </trkpt>
      <trkpt lat="44.33577" lon="2.62818">
        <ele>657.6791992</ele>
        <time>2014-03-01T09:42:10Z</time>
      </trkpt>
      <trkpt lat="44.33566" lon="2.62833">
        <ele>655.2758789</ele>
        <time>2014-03-01T09:42:16Z</time>
      </trkpt>
      <trkpt lat="44.33556" lon="2.62849">
        <ele>652.8725586</ele>
        <time>2014-03-01T09:42:21Z</time>
      </trkpt>
      <trkpt lat="44.33547" lon="2.62862">
        <ele>649.9885254</ele>
        <time>2014-03-01T09:42:26Z</time>
      </trkpt>
      <trkpt lat="44.33544" lon="2.62872">
        <ele>649.0270996</ele>
        <time>2014-03-01T09:42:30Z</time>
      </trkpt>
      <trkpt lat="44.33548" lon="2.62884">
        <ele>648.065918</ele>
        <time>2014-03-01T09:42:34Z</time>
      </trkpt>
      <trkpt lat="44.3355" lon="2.62891">
        <ele>648.065918</ele>
        <time>2014-03-01T09:42:36Z</time>
      </trkpt>
      <trkpt lat="44.33558" lon="2.62916">
        <ele>646.6240234</ele>
        <time>2014-03-01T09:42:43Z</time>
      </trkpt>
      <trkpt lat="44.33562" lon="2.62927">
        <ele>645.6625977</ele>
        <time>2014-03-01T09:42:47Z</time>
      </trkpt>
      <trkpt lat="44.33565" lon="2.62926">
        <ele>645.6625977</ele>
        <time>2014-03-01T09:42:53Z</time>
      </trkpt>
      <trkpt lat="44.33577" lon="2.62924">
        <ele>646.6240234</ele>
        <time>2014-03-01T09:42:59Z</time>
      </trkpt>
      <trkpt lat="44.33583" lon="2.62922">
        <ele>647.1044922</ele>
        <time>2014-03-01T09:43:03Z</time>
      </trkpt>
      <trkpt lat="44.33586" lon="2.62921">
        <ele>647.5852051</ele>
        <time>2014-03-01T09:43:07Z</time>
      </trkpt>
      <trkpt lat="44.33588" lon="2.6292">
        <ele>648.5463867</ele>
        <time>2014-03-01T09:43:14Z</time>
      </trkpt>
      <trkpt lat="44.33589" lon="2.62919">
        <ele>648.5463867</ele>
        <time>2014-03-01T09:43:22Z</time>
      </trkpt>
      <trkpt lat="44.33589" lon="2.62916">
        <ele>647.5852051</ele>
        <time>2014-03-01T09:43:36Z</time>
      </trkpt>
      <trkpt lat="44.33588" lon="2.62915">
        <ele>648.5463867</ele>
        <time>2014-03-01T09:43:54Z</time>
      </trkpt>
      <trkpt lat="44.33589" lon="2.6291">
        <ele>647.1044922</ele>
        <time>2014-03-01T09:44:17Z</time>
      </trkpt>
      <trkpt lat="44.33585" lon="2.62915">
        <ele>655.7565918</ele>
        <time>2014-03-01T09:44:35Z</time>
      </trkpt>
      <trkpt lat="44.33588" lon="2.62918">
        <ele>652.8725586</ele>
        <time>2014-03-01T09:44:40Z</time>
      </trkpt>
      <trkpt lat="44.3359" lon="2.62922">
        <ele>649.0270996</ele>
        <time>2014-03-01T09:44:47Z</time>
      </trkpt>
      <trkpt lat="44.33597" lon="2.62921">
        <ele>636.5302734</ele>
        <time>2014-03-01T09:44:55Z</time>
      </trkpt>
      <trkpt lat="44.33599" lon="2.62923">
        <ele>631.7233887</ele>
        <time>2014-03-01T09:45:00Z</time>
      </trkpt>
      <trkpt lat="44.33601" lon="2.62922">
        <ele>630.762207</ele>
        <time>2014-03-01T09:45:07Z</time>
      </trkpt>
      <trkpt lat="44.33598" lon="2.6292">
        <ele>633.1652832</ele>
        <time>2014-03-01T09:45:14Z</time>
      </trkpt>
      <trkpt lat="44.33597" lon="2.62919">
        <ele>637.0107422</ele>
        <time>2014-03-01T09:45:21Z</time>
      </trkpt>
      <trkpt lat="44.33596" lon="2.62917">
        <ele>634.6074219</ele>
        <time>2014-03-01T09:45:30Z</time>
      </trkpt>
      <trkpt lat="44.33593" lon="2.62916">
        <ele>632.2041016</ele>
        <time>2014-03-01T09:45:38Z</time>
      </trkpt>
      <trkpt lat="44.33597" lon="2.6291">
        <ele>622.1103516</ele>
        <time>2014-03-01T09:45:44Z</time>
      </trkpt>
      <trkpt lat="44.33597" lon="2.62912">
        <ele>623.5524902</ele>
        <time>2014-03-01T09:45:51Z</time>
      </trkpt>
      <trkpt lat="44.33599" lon="2.62913">
        <ele>632.2041016</ele>
        <time>2014-03-01T09:45:56Z</time>
      </trkpt>
      <trkpt lat="44.336" lon="2.6292">
        <ele>641.3366699</ele>
        <time>2014-03-01T09:46:08Z</time>
      </trkpt>
      <trkpt lat="44.33597" lon="2.6292">
        <ele>644.7011719</ele>
        <time>2014-03-01T09:46:13Z</time>
      </trkpt>
      <trkpt lat="44.33594" lon="2.62918">
        <ele>647.1044922</ele>
        <time>2014-03-01T09:46:18Z</time>
      </trkpt>
      <trkpt lat="44.33595" lon="2.62921">
        <ele>645.1818848</ele>
        <time>2014-03-01T09:46:25Z</time>
      </trkpt>
      <trkpt lat="44.33595" lon="2.62925">
        <ele>643.7399902</ele>
        <time>2014-03-01T09:46:31Z</time>
      </trkpt>
      <trkpt lat="44.33594" lon="2.62922">
        <ele>646.1433105</ele>
        <time>2014-03-01T09:47:04Z</time>
      </trkpt>
      <trkpt lat="44.3359" lon="2.62923">
        <ele>650.4692383</ele>
        <time>2014-03-01T09:47:09Z</time>
      </trkpt>
      <trkpt lat="44.33588" lon="2.62925">
        <ele>653.8339844</ele>
        <time>2014-03-01T09:47:15Z</time>
      </trkpt>
      <trkpt lat="44.33588" lon="2.62928">
        <ele>660.0822754</ele>
        <time>2014-03-01T09:47:28Z</time>
      </trkpt>
      <trkpt lat="44.33586" lon="2.62927">
        <ele>663.9274902</ele>
        <time>2014-03-01T09:47:33Z</time>
      </trkpt>
      <trkpt lat="44.33585" lon="2.62925">
        <ele>669.2150879</ele>
        <time>2014-03-01T09:47:39Z</time>
      </trkpt>
      <trkpt lat="44.33587" lon="2.62921">
        <ele>663.4470215</ele>
        <time>2014-03-01T09:47:46Z</time>
      </trkpt>
      <trkpt lat="44.3359" lon="2.62918">
        <ele>657.6791992</ele>
        <time>2014-03-01T09:47:51Z</time>
      </trkpt>
      <trkpt lat="44.33589" lon="2.6292">
        <ele>659.6018066</ele>
        <time>2014-03-01T09:47:56Z</time>
      </trkpt>
      <trkpt lat="44.33592" lon="2.62916">
        <ele>642.2980957</ele>
        <time>2014-03-01T09:48:05Z</time>
      </trkpt>
      <trkpt lat="44.33594" lon="2.62915">
        <ele>637.0107422</ele>
        <time>2014-03-01T09:48:07Z</time>
      </trkpt>
      <trkpt lat="44.33596" lon="2.62914">
        <ele>634.6074219</ele>
        <time>2014-03-01T09:48:14Z</time>
      </trkpt>
      <trkpt lat="44.33594" lon="2.62914">
        <ele>638.4528809</ele>
        <time>2014-03-01T09:48:21Z</time>
      </trkpt>
      <trkpt lat="44.33595" lon="2.62911">
        <ele>634.126709</ele>
        <time>2014-03-01T09:48:39Z</time>
      </trkpt>
      <trkpt lat="44.33601" lon="2.62915">
        <ele>625.9555664</ele>
        <time>2014-03-01T09:49:00Z</time>
      </trkpt>
      <trkpt lat="44.33592" lon="2.62909">
        <ele>643.2592773</ele>
        <time>2014-03-01T09:49:17Z</time>
      </trkpt>
      <trkpt lat="44.33593" lon="2.62911">
        <ele>645.6625977</ele>
        <time>2014-03-01T09:49:20Z</time>
      </trkpt>
      <trkpt lat="44.33592" lon="2.6291">
        <ele>646.6240234</ele>
        <time>2014-03-01T09:49:21Z</time>
      </trkpt>
    </trkseg>
  </trk>
</gpx>